Time,TemperatureF,DewpointF,PressureIn,WindDirection,WindDirectionDegrees,WindSpeedMPH,WindSpeedGustMPH,Humidity,HourlyPrecipIn,Conditions,Clouds,dailyrainin,SoftwareType,DateUTC
2013-01-11 00:00:00,33.5,30.6,29.62,SSW,196,60.0,60.0,89,0.00,,---,0.06,VWS V14.01,2013-01-11 06:00:00,
2013-01-11 00:01:00,33.7,30.5,29.62,South,174,60.0,60.0,88,0.00,,---,0.00,VWS V14.01,2013-01-11 06:01:00,
2013-01-11 00:02:00,33.7,30.5,29.62,SSE,162,60.0,60.0,88,0.00,,---,0.00,VWS V14.01,2013-01-11 06:02:00,
2013-01-11 00:03:00,33.5,30.3,29.62,SSW,195,60.0,60.0,88,0.00,,---,0.00,VWS V14.01,2013-01-11 06:03:00,
2013-01-11 00:04:00,33.7,30.5,29.62,SSE,157,60.0,60.0,88,0.00,,---,0.00,VWS V14.01,2013-01-11 06:04:00,
2013-01-11 00:05:00,33.7,30.2,29.62,South,176,60.0,60.0,87,0.00,,---,0.00,VWS V14.01,2013-01-11 06:05:00,
2013-01-11 00:06:00,33.7,30.5,29.62,SE,140,60.0,60.0,88,0.00,,---,0.00,VWS V14.01,2013-01-11 06:06:00,
2013-01-11 00:07:00,33.7,30.5,29.62,SSE,167,60.0,60.0,88,0.00,,---,0.00,VWS V14.01,2013-01-11 06:07:00,
2013-01-11 00:08:00,33.7,30.5,29.62,SSW,200,60.0,60.0,88,0.00,,---,0.00,VWS V14.01,2013-01-11 06:08:00,
2013-01-11 00:09:00,33.7,30.5,29.62,SSE,161,60.0,60.0,88,0.00,,---,0.00,VWS V14.01,2013-01-11 06:09:00,
2013-01-11 00:10:00,33.7,30.5,29.62,SSE,165,60.0,60.0,88,0.00,,---,0.00,VWS V14.01,2013-01-11 06:10:00,
2013-01-11 00:11:00,33.7,30.5,29.62,SSE,152,60.0,60.0,88,0.00,,---,0.00,VWS V14.01,2013-01-11 06:11:00,
2013-01-11 00:12:00,33.5,30.3,29.62,SSE,165,60.0,60.0,88,0.00,,---,0.00,VWS V14.01,2013-01-11 06:12:00,
2013-01-11 00:13:00,33.7,30.5,29.62,SSE,150,60.0,60.0,88,0.00,,---,0.00,VWS V14.01,2013-01-11 06:13:00,
2013-01-11 00:14:00,33.7,30.2,29.62,SSE,165,60.0,60.0,87,0.00,,---,0.00,VWS V14.01,2013-01-11 06:14:00,
2013-01-11 00:15:00,33.7,30.5,29.62,SSE,164,60.0,60.0,88,0.00,,---,0.00,VWS V14.01,2013-01-11 06:15:00,
2013-01-11 00:16:00,33.7,30.5,29.62,SSE,164,60.0,60.0,88,0.00,,---,0.00,VWS V14.01,2013-01-11 06:16:00,
2013-01-11 00:17:00,33.7,30.5,29.62,South,181,60.0,60.0,88,0.00,,---,0.00,VWS V14.01,2013-01-11 06:17:00,
2013-01-11 00:18:00,33.7,30.5,29.62,South,169,60.0,60.0,88,0.00,,---,0.00,VWS V14.01,2013-01-11 06:18:00,
2013-01-11 00:19:00,33.7,30.5,29.62,South,182,60.0,60.0,88,0.00,,---,0.00,VWS V14.01,2013-01-11 06:19:00,
2013-01-11 00:20:00,33.7,29.7,29.62,SSE,158,60.0,60.0,85,0.00,,---,0.00,VWS V14.01,2013-01-11 06:20:00,
2013-01-11 00:21:00,33.7,30.5,29.62,SSW,212,60.0,60.0,88,0.00,,---,0.00,VWS V14.01,2013-01-11 06:21:00,
2013-01-11 00:22:00,33.7,30.5,29.62,South,169,60.0,60.0,88,0.00,,---,0.00,VWS V14.01,2013-01-11 06:22:00,
2013-01-11 00:23:00,33.7,30.5,29.62,SSE,160,60.0,60.0,88,0.00,,---,0.00,VWS V14.01,2013-01-11 06:23:00,
2013-01-11 00:24:00,33.7,30.5,29.62,South,169,60.0,60.0,88,0.00,,---,0.00,VWS V14.01,2013-01-11 06:24:00,
2013-01-11 00:25:00,33.7,30.5,29.62,South,174,60.0,60.0,88,0.00,,---,0.00,VWS V14.01,2013-01-11 06:25:00,
2013-01-11 00:26:00,33.7,30.5,29.62,SSE,151,60.0,60.0,88,0.00,,---,0.00,VWS V14.01,2013-01-11 06:26:00,
2013-01-11 00:27:00,33.7,30.5,29.62,SSE,150,60.0,60.0,88,0.00,,---,0.00,VWS V14.01,2013-01-11 06:27:00,
2013-01-11 00:28:00,33.7,30.5,29.62,South,185,60.0,60.0,88,0.00,,---,0.00,VWS V14.01,2013-01-11 06:28:00,
2013-01-11 00:29:00,33.7,30.5,29.62,SSE,164,60.0,60.0,88,0.00,,---,0.00,VWS V14.01,2013-01-11 06:29:00,
2013-01-11 00:30:00,33.7,30.5,29.61,South,184,60.0,60.0,88,0.00,,---,0.00,VWS V14.01,2013-01-11 06:30:00,
2013-01-11 00:31:00,33.7,30.5,29.61,SE,134,60.0,60.0,88,0.00,,---,0.00,VWS V14.01,2013-01-11 06:31:00,
2013-01-11 00:32:00,33.7,30.8,29.61,SSE,155,60.0,60.0,89,0.00,,---,0.00,VWS V14.01,2013-01-11 06:32:00,
2013-01-11 00:33:00,33.7,30.5,29.61,SSE,158,60.0,60.0,88,0.00,,---,0.00,VWS V14.01,2013-01-11 06:33:00,
2013-01-11 00:34:00,33.7,30.5,29.61,SSE,162,60.0,60.0,88,0.00,,---,0.00,VWS V14.01,2013-01-11 06:34:00,
2013-01-11 00:35:00,33.7,30.5,29.61,SSE,152,60.0,60.0,88,0.00,,---,0.00,VWS V14.01,2013-01-11 06:35:00,
2013-01-11 00:36:00,33.7,30.5,29.61,SSE,167,60.0,60.0,88,0.00,,---,0.00,VWS V14.01,2013-01-11 06:36:00,
2013-01-11 00:37:00,33.7,30.5,29.61,South,171,60.0,60.0,88,0.00,,---,0.00,VWS V14.01,2013-01-11 06:37:00,
2013-01-11 00:38:00,33.7,30.5,29.61,South,176,60.0,60.0,88,0.00,,---,0.00,VWS V14.01,2013-01-11 06:38:00,
2013-01-11 00:39:00,33.7,30.5,29.61,SSE,167,60.0,60.0,88,0.00,,---,0.00,VWS V14.01,2013-01-11 06:39:00,
2013-01-11 00:40:00,33.7,30.5,29.61,South,175,60.0,60.0,88,0.00,,---,0.00,VWS V14.01,2013-01-11 06:40:00,
2013-01-11 00:41:00,33.7,30.5,29.61,South,174,60.0,60.0,88,0.00,,---,0.00,VWS V14.01,2013-01-11 06:41:00,
2013-01-11 00:42:00,33.7,30.5,29.61,SSE,168,60.0,60.0,88,0.00,,---,0.00,VWS V14.01,2013-01-11 06:42:00,
2013-01-11 00:43:00,33.7,30.0,29.61,South,169,60.0,60.0,86,0.00,,---,0.00,VWS V14.01,2013-01-11 06:43:00,
2013-01-11 00:44:00,33.7,30.5,29.60,South,169,60.0,60.0,88,0.00,,---,0.00,VWS V14.01,2013-01-11 06:44:00,
2013-01-11 00:45:00,33.7,30.5,29.60,SSE,160,60.0,60.0,88,0.00,,---,0.00,VWS V14.01,2013-01-11 06:45:00,
2013-01-11 00:46:00,33.7,30.5,29.60,South,175,60.0,60.0,88,0.00,,---,0.00,VWS V14.01,2013-01-11 06:46:00,
2013-01-11 00:47:00,33.7,29.4,29.60,South,181,60.0,60.0,84,0.00,,---,0.00,VWS V14.01,2013-01-11 06:47:00,
2013-01-11 00:48:00,33.7,30.5,29.60,SSE,164,60.0,60.0,88,0.00,,---,0.00,VWS V14.01,2013-01-11 06:48:00,
2013-01-11 00:49:00,33.7,30.5,29.60,SSE,160,60.0,60.0,88,0.00,,---,0.00,VWS V14.01,2013-01-11 06:49:00,
2013-01-11 00:50:00,33.7,30.5,29.60,SSE,167,60.0,60.0,88,0.00,,---,0.00,VWS V14.01,2013-01-11 06:50:00,
2013-01-11 00:51:00,33.7,30.5,29.60,SE,141,60.0,60.0,88,0.00,,---,0.00,VWS V14.01,2013-01-11 06:51:00,
2013-01-11 00:52:00,33.8,31.2,29.60,SSW,195,60.0,60.0,90,0.00,,---,0.00,VWS V14.01,2013-01-11 06:52:00,
2013-01-11 00:53:00,33.7,30.5,29.60,SSE,154,60.0,60.0,88,0.00,,---,0.00,VWS V14.01,2013-01-11 06:53:00,
2013-01-11 00:54:00,33.7,30.5,29.60,SSE,151,60.0,60.0,88,0.00,,---,0.00,VWS V14.01,2013-01-11 06:54:00,
2013-01-11 00:55:00,33.7,30.8,29.60,SSE,161,60.0,60.0,89,0.00,,---,0.00,VWS V14.01,2013-01-11 06:55:00,
2013-01-11 00:56:00,33.7,30.5,29.60,SSE,155,60.0,60.0,88,0.00,,---,0.00,VWS V14.01,2013-01-11 06:56:00,
2013-01-11 00:57:00,33.8,30.6,29.60,SSE,165,60.0,60.0,88,0.00,,---,0.00,VWS V14.01,2013-01-11 06:57:00,
2013-01-11 00:58:00,33.8,30.6,29.60,South,171,60.0,60.0,88,0.00,,---,0.00,VWS V14.01,2013-01-11 06:58:00,
2013-01-11 00:59:00,33.8,30.6,29.61,SSE,161,60.0,60.0,88,0.00,,---,0.00,VWS V14.01,2013-01-11 06:59:00,
2013-01-11 01:00:00,33.7,30.5,29.61,SSE,157,60.0,60.0,88,0.00,,---,0.00,VWS V14.01,2013-01-11 07:00:00,
2013-01-11 01:03:00,33.8,30.6,29.61,SSE,162,60.0,60.0,88,0.00,,---,0.00,VWS V14.01,2013-01-11 07:03:00,
2013-01-11 01:04:00,33.8,30.6,29.61,SSE,160,60.0,60.0,88,0.00,,---,0.00,VWS V14.01,2013-01-11 07:04:00,
2013-01-11 01:05:00,33.8,30.6,29.61,SSE,152,60.0,60.0,88,0.00,,---,0.00,VWS V14.01,2013-01-11 07:05:00,
2013-01-11 01:06:00,33.8,30.6,29.61,South,174,60.0,60.0,88,0.00,,---,0.00,VWS V14.01,2013-01-11 07:06:00,
2013-01-11 01:07:00,33.8,31.5,29.61,South,178,60.0,60.0,91,0.00,,---,0.00,VWS V14.01,2013-01-11 07:07:00,
2013-01-11 01:08:00,33.8,30.6,29.61,South,185,60.0,60.0,88,0.00,,---,0.00,VWS V14.01,2013-01-11 07:08:00,
2013-01-11 01:09:00,33.8,30.6,29.61,SSE,158,60.0,60.0,88,0.00,,---,0.00,VWS V14.01,2013-01-11 07:09:00,
2013-01-11 01:10:00,33.8,30.6,29.61,SSE,165,60.0,60.0,88,0.00,,---,0.00,VWS V14.01,2013-01-11 07:10:00,
2013-01-11 01:11:00,33.8,30.6,29.61,SSE,162,60.0,60.0,88,0.00,,---,0.00,VWS V14.01,2013-01-11 07:11:00,
2013-01-11 01:12:00,33.8,30.6,29.61,SSE,161,60.0,60.0,88,0.00,,---,0.00,VWS V14.01,2013-01-11 07:12:00,
2013-01-11 01:13:00,33.8,30.6,29.61,South,169,60.0,60.0,88,0.00,,---,0.00,VWS V14.01,2013-01-11 07:13:00,
2013-01-11 01:14:00,33.8,30.6,29.61,South,175,60.0,60.0,88,0.00,,---,0.00,VWS V14.01,2013-01-11 07:14:00,
2013-01-11 01:15:00,33.8,30.6,29.61,SSE,162,60.0,60.0,88,0.00,,---,0.00,VWS V14.01,2013-01-11 07:15:00,
2013-01-11 01:16:00,33.8,30.6,29.61,South,169,60.0,60.0,88,0.00,,---,0.00,VWS V14.01,2013-01-11 07:16:00,
2013-01-11 01:17:00,33.8,31.2,29.61,SSE,161,60.0,60.0,90,0.00,,---,0.00,VWS V14.01,2013-01-11 07:17:00,
2013-01-11 01:18:00,33.8,30.6,29.61,SSE,165,60.0,60.0,88,0.00,,---,0.00,VWS V14.01,2013-01-11 07:18:00,
2013-01-11 01:19:00,33.8,30.6,29.61,SSE,151,60.0,60.0,88,0.00,,---,0.00,VWS V14.01,2013-01-11 07:19:00,
2013-01-11 01:20:00,33.8,31.2,29.61,South,172,60.0,60.0,90,0.00,,---,0.00,VWS V14.01,2013-01-11 07:20:00,
2013-01-11 01:21:00,33.8,30.6,29.61,SSE,162,60.0,60.0,88,0.00,,---,0.00,VWS V14.01,2013-01-11 07:21:00,
2013-01-11 01:22:00,33.8,30.6,29.61,South,182,60.0,60.0,88,0.00,,---,0.00,VWS V14.01,2013-01-11 07:22:00,
2013-01-11 01:23:00,33.8,30.6,29.61,SSE,162,60.0,60.0,88,0.00,,---,0.00,VWS V14.01,2013-01-11 07:23:00,
2013-01-11 01:24:00,33.8,30.6,29.61,SSE,168,60.0,60.0,88,0.00,,---,0.00,VWS V14.01,2013-01-11 07:24:00,
2013-01-11 01:25:00,33.8,30.6,29.61,South,171,60.0,60.0,88,0.00,,---,0.00,VWS V14.01,2013-01-11 07:25:00,
2013-01-11 01:26:00,33.8,30.6,29.61,South,174,60.0,60.0,88,0.00,,---,0.00,VWS V14.01,2013-01-11 07:26:00,
2013-01-11 01:27:00,33.8,30.6,29.61,SSE,155,60.0,60.0,88,0.00,,---,0.00,VWS V14.01,2013-01-11 07:27:00,
2013-01-11 01:28:00,33.8,30.6,29.61,SSW,196,60.0,60.0,88,0.00,,---,0.00,VWS V14.01,2013-01-11 07:28:00,
2013-01-11 01:29:00,33.8,30.6,29.61,SSE,154,60.0,60.0,88,0.00,,---,0.00,VWS V14.01,2013-01-11 07:29:00,
2013-01-11 01:30:00,33.8,30.6,29.60,South,188,60.0,60.0,88,0.00,,---,0.00,VWS V14.01,2013-01-11 07:30:00,
2013-01-11 01:31:00,33.8,30.6,29.60,SSE,155,60.0,60.0,88,0.00,,---,0.00,VWS V14.01,2013-01-11 07:31:00,
2013-01-11 01:32:00,33.8,30.6,29.60,South,176,60.0,60.0,88,0.00,,---,0.00,VWS V14.01,2013-01-11 07:32:00,
2013-01-11 01:33:00,33.8,30.6,29.60,SSE,162,60.0,60.0,88,0.00,,---,0.00,VWS V14.01,2013-01-11 07:33:00,
2013-01-11 01:34:00,33.8,30.6,29.60,SSE,157,60.0,60.0,88,0.00,,---,0.00,VWS V14.01,2013-01-11 07:34:00,
2013-01-11 01:35:00,33.8,30.6,29.60,SSE,155,60.0,60.0,88,0.00,,---,0.00,VWS V14.01,2013-01-11 07:35:00,
2013-01-11 01:36:00,33.8,30.6,29.60,South,171,60.0,60.0,88,0.00,,---,0.00,VWS V14.01,2013-01-11 07:36:00,
2013-01-11 01:37:00,33.8,30.6,29.60,South,179,60.0,60.0,88,0.00,,---,0.00,VWS V14.01,2013-01-11 07:37:00,
2013-01-11 01:38:00,33.8,30.6,29.60,SSE,158,60.0,60.0,88,0.00,,---,0.00,VWS V14.01,2013-01-11 07:38:00,
2013-01-11 01:39:00,33.8,30.6,29.60,SSE,165,60.0,60.0,88,0.00,,---,0.00,VWS V14.01,2013-01-11 07:39:00,
2013-01-11 01:40:00,33.8,30.6,29.60,SSE,162,60.0,60.0,88,0.00,,---,0.00,VWS V14.01,2013-01-11 07:40:00,
2013-01-11 01:41:00,33.8,30.6,29.60,SSE,164,60.0,60.0,88,0.00,,---,0.00,VWS V14.01,2013-01-11 07:41:00,
2013-01-11 01:42:00,33.8,30.6,29.60,SSE,167,60.0,60.0,88,0.00,,---,0.00,VWS V14.01,2013-01-11 07:42:00,
2013-01-11 01:43:00,33.8,30.6,29.60,SSE,164,60.0,60.0,88,0.00,,---,0.00,VWS V14.01,2013-01-11 07:43:00,
2013-01-11 01:44:00,33.8,30.6,29.60,SSE,158,60.0,60.0,88,0.00,,---,0.00,VWS V14.01,2013-01-11 07:44:00,
2013-01-11 01:45:00,33.8,30.6,29.60,South,176,60.0,60.0,88,0.00,,---,0.00,VWS V14.01,2013-01-11 07:45:00,
2013-01-11 01:46:00,33.8,30.6,29.60,South,174,60.0,60.0,88,0.00,,---,0.00,VWS V14.01,2013-01-11 07:46:00,
2013-01-11 01:47:00,33.8,30.6,29.60,SSE,165,60.0,60.0,88,0.00,,---,0.00,VWS V14.01,2013-01-11 07:47:00,
2013-01-11 01:48:00,33.8,30.6,29.60,SSE,155,60.0,60.0,88,0.00,,---,0.00,VWS V14.01,2013-01-11 07:48:00,
2013-01-11 01:49:00,33.8,30.6,29.60,South,189,60.0,60.0,88,0.00,,---,0.00,VWS V14.01,2013-01-11 07:49:00,
2013-01-11 01:50:00,33.8,30.6,29.60,SSE,168,60.0,60.0,88,0.00,,---,0.00,VWS V14.01,2013-01-11 07:50:00,
2013-01-11 01:51:00,33.8,30.6,29.60,SSE,162,60.0,60.0,88,0.00,,---,0.00,VWS V14.01,2013-01-11 07:51:00,
2013-01-11 01:52:00,33.8,30.4,29.60,SSE,150,60.0,60.0,87,0.00,,---,0.00,VWS V14.01,2013-01-11 07:52:00,
2013-01-11 01:53:00,33.8,30.6,29.60,SSE,167,60.0,60.0,88,0.00,,---,0.00,VWS V14.01,2013-01-11 07:53:00,
2013-01-11 01:54:00,33.8,30.6,29.60,South,178,60.0,60.0,88,0.00,,---,0.00,VWS V14.01,2013-01-11 07:54:00,
2013-01-11 01:55:00,33.8,30.6,29.60,SSE,157,60.0,60.0,88,0.00,,---,0.00,VWS V14.01,2013-01-11 07:55:00,
2013-01-11 01:56:00,33.8,30.6,29.60,SSE,164,60.0,60.0,88,0.00,,---,0.00,VWS V14.01,2013-01-11 07:56:00,
2013-01-11 01:57:00,33.8,30.6,29.60,SSE,167,60.0,60.0,88,0.00,,---,0.00,VWS V14.01,2013-01-11 07:57:00,
2013-01-11 01:58:00,33.8,30.6,29.60,SSE,160,60.0,60.0,88,0.00,,---,0.00,VWS V14.01,2013-01-11 07:58:00,
2013-01-11 01:59:00,33.8,30.1,29.60,SSE,162,60.0,60.0,86,0.00,,---,0.00,VWS V14.01,2013-01-11 07:59:00,
2013-01-11 02:00:00,33.8,30.6,29.60,SSE,165,60.0,60.0,88,0.00,,---,0.00,VWS V14.01,2013-01-11 08:00:00,
2013-01-11 02:01:00,33.8,30.6,29.60,SSW,193,60.0,60.0,88,0.00,,---,0.00,VWS V14.01,2013-01-11 08:01:00,
2013-01-11 02:02:00,33.8,30.6,29.60,SSE,161,60.0,60.0,88,0.00,,---,0.00,VWS V14.01,2013-01-11 08:02:00,
2013-01-11 02:03:00,33.8,30.6,29.60,South,171,60.0,60.0,88,0.00,,---,0.00,VWS V14.01,2013-01-11 08:03:00,
2013-01-11 02:04:00,33.7,30.5,29.60,SSW,200,60.0,60.0,88,0.00,,---,0.00,VWS V14.01,2013-01-11 08:04:00,
2013-01-11 02:05:00,33.8,30.6,29.60,SSE,164,60.0,60.0,88,0.00,,---,0.00,VWS V14.01,2013-01-11 08:05:00,
2013-01-11 02:06:00,33.8,30.1,29.60,South,175,60.0,60.0,86,0.00,,---,0.00,VWS V14.01,2013-01-11 08:06:00,
2013-01-11 02:07:00,33.8,30.9,29.60,SSE,152,60.0,60.0,89,0.00,,---,0.00,VWS V14.01,2013-01-11 08:07:00,
2013-01-11 02:08:00,33.8,30.9,29.60,South,175,60.0,60.0,89,0.00,,---,0.00,VWS V14.01,2013-01-11 08:08:00,
2013-01-11 02:09:00,33.7,30.8,29.60,SSE,161,60.0,60.0,89,0.00,,---,0.00,VWS V14.01,2013-01-11 08:09:00,
2013-01-11 02:10:00,33.8,30.9,29.60,South,176,60.0,60.0,89,0.00,,---,0.00,VWS V14.01,2013-01-11 08:10:00,
2013-01-11 02:11:00,33.8,30.1,29.60,South,172,60.0,60.0,86,0.00,,---,0.00,VWS V14.01,2013-01-11 08:11:00,
2013-01-11 02:12:00,33.8,30.9,29.60,SSE,167,60.0,60.0,89,0.00,,---,0.00,VWS V14.01,2013-01-11 08:12:00,
2013-01-11 02:13:00,33.8,30.9,29.60,South,179,60.0,60.0,89,0.00,,---,0.00,VWS V14.01,2013-01-11 08:13:00,
2013-01-11 02:14:00,33.8,30.9,29.60,SSE,164,60.0,60.0,89,0.00,,---,0.00,VWS V14.01,2013-01-11 08:14:00,
2013-01-11 02:15:00,33.8,30.9,29.60,South,176,60.0,60.0,89,0.00,,---,0.00,VWS V14.01,2013-01-11 08:15:00,
2013-01-11 02:16:00,33.8,30.9,29.60,South,182,60.0,60.0,89,0.00,,---,0.00,VWS V14.01,2013-01-11 08:16:00,
2013-01-11 02:17:00,33.8,30.9,29.60,SSE,167,60.0,60.0,89,0.00,,---,0.00,VWS V14.01,2013-01-11 08:17:00,
2013-01-11 02:18:00,33.8,30.9,29.60,SSE,167,60.0,60.0,89,0.00,,---,0.00,VWS V14.01,2013-01-11 08:18:00,
2013-01-11 02:19:00,33.8,30.9,29.60,South,174,60.0,60.0,89,0.00,,---,0.00,VWS V14.01,2013-01-11 08:19:00,
2013-01-11 02:20:00,33.8,30.9,29.60,SSE,160,60.0,60.0,89,0.00,,---,0.00,VWS V14.01,2013-01-11 08:20:00,
2013-01-11 02:21:00,33.8,30.9,29.60,South,174,60.0,60.0,89,0.00,,---,0.00,VWS V14.01,2013-01-11 08:21:00,
2013-01-11 02:22:00,33.8,30.1,29.60,SSE,161,60.0,60.0,86,0.00,,---,0.00,VWS V14.01,2013-01-11 08:22:00,
2013-01-11 02:23:00,33.7,30.8,29.60,South,186,60.0,60.0,89,0.00,,---,0.00,VWS V14.01,2013-01-11 08:23:00,
2013-01-11 02:24:00,33.8,30.9,29.60,South,169,60.0,60.0,89,0.00,,---,0.00,VWS V14.01,2013-01-11 08:24:00,
2013-01-11 02:25:00,33.8,30.9,29.60,South,182,60.0,60.0,89,0.00,,---,0.00,VWS V14.01,2013-01-11 08:25:00,
2013-01-11 02:26:00,33.8,30.9,29.60,SSE,165,60.0,60.0,89,0.00,,---,0.00,VWS V14.01,2013-01-11 08:26:00,
2013-01-11 02:27:00,33.8,30.9,29.60,SSE,161,60.0,60.0,89,0.00,,---,0.00,VWS V14.01,2013-01-11 08:27:00,
2013-01-11 02:28:00,33.8,30.9,29.60,SSE,155,60.0,60.0,89,0.00,,---,0.00,VWS V14.01,2013-01-11 08:28:00,
2013-01-11 02:29:00,33.8,30.9,29.60,SSE,161,60.0,60.0,89,0.00,,---,0.00,VWS V14.01,2013-01-11 08:29:00,
2013-01-11 02:30:00,33.8,30.9,29.60,South,176,60.0,60.0,89,0.00,,---,0.00,VWS V14.01,2013-01-11 08:30:00,
2013-01-11 02:31:00,33.8,31.7,29.60,SSE,162,60.0,60.0,92,0.00,,---,0.00,VWS V14.01,2013-01-11 08:31:00,
2013-01-11 02:32:00,33.8,30.9,29.60,SSE,161,60.0,60.0,89,0.00,,---,0.00,VWS V14.01,2013-01-11 08:32:00,
2013-01-11 02:33:00,33.8,30.9,29.60,South,176,60.0,60.0,89,0.00,,---,0.00,VWS V14.01,2013-01-11 08:33:00,
2013-01-11 02:34:00,33.8,31.2,29.60,SSE,161,60.0,60.0,90,0.00,,---,0.00,VWS V14.01,2013-01-11 08:34:00,
2013-01-11 02:37:00,33.8,30.4,29.60,South,169,60.0,60.0,87,0.00,,---,0.00,VWS V14.01,2013-01-11 08:37:00,
2013-01-11 02:38:00,33.8,30.1,29.60,SSE,164,60.0,60.0,86,0.00,,---,0.00,VWS V14.01,2013-01-11 08:38:00,
2013-01-11 02:39:00,33.8,30.9,29.60,South,171,60.0,60.0,89,0.00,,---,0.00,VWS V14.01,2013-01-11 08:39:00,
2013-01-11 02:40:00,33.8,30.9,29.60,South,172,60.0,60.0,89,0.00,,---,0.00,VWS V14.01,2013-01-11 08:40:00,
2013-01-11 02:41:00,33.8,30.9,29.60,SSE,165,60.0,60.0,89,0.00,,---,0.00,VWS V14.01,2013-01-11 08:41:00,
2013-01-11 02:42:00,33.8,30.9,29.60,South,175,60.0,60.0,89,0.00,,---,0.00,VWS V14.01,2013-01-11 08:42:00,
2013-01-11 02:43:00,33.8,30.9,29.60,South,176,60.0,60.0,89,0.00,,---,0.00,VWS V14.01,2013-01-11 08:43:00,
2013-01-11 02:44:00,33.8,30.9,29.60,South,176,60.0,60.0,89,0.00,,---,0.00,VWS V14.01,2013-01-11 08:44:00,
2013-01-11 02:45:00,33.8,30.9,29.59,SSE,154,60.0,60.0,89,0.00,,---,0.00,VWS V14.01,2013-01-11 08:45:00,
2013-01-11 02:46:00,33.8,30.9,29.59,SSE,162,60.0,60.0,89,0.00,,---,0.00,VWS V14.01,2013-01-11 08:46:00,
2013-01-11 02:47:00,33.8,30.9,29.59,SSE,155,60.0,60.0,89,0.00,,---,0.00,VWS V14.01,2013-01-11 08:47:00,
2013-01-11 02:48:00,33.8,30.9,29.59,SSE,155,60.0,60.0,89,0.00,,---,0.00,VWS V14.01,2013-01-11 08:48:00,
2013-01-11 02:49:00,33.8,30.9,29.59,SSE,155,60.0,60.0,89,0.00,,---,0.00,VWS V14.01,2013-01-11 08:49:00,
2013-01-11 02:50:00,33.8,30.9,29.59,SSE,164,60.0,60.0,89,0.00,,---,0.00,VWS V14.01,2013-01-11 08:50:00,
2013-01-11 02:51:00,33.8,30.9,29.59,SSE,151,60.0,60.0,89,0.00,,---,0.00,VWS V14.01,2013-01-11 08:51:00,
2013-01-11 02:52:00,33.8,30.9,29.59,South,174,60.0,60.0,89,0.00,,---,0.00,VWS V14.01,2013-01-11 08:52:00,
2013-01-11 02:53:00,33.8,30.9,29.59,SSE,167,60.0,60.0,89,0.00,,---,0.00,VWS V14.01,2013-01-11 08:53:00,
2013-01-11 02:54:00,33.8,32.0,29.59,SSW,196,60.0,60.0,93,0.00,,---,0.00,VWS V14.01,2013-01-11 08:54:00,
2013-01-11 02:55:00,33.8,32.0,29.59,SSE,160,60.0,60.0,93,0.00,,---,0.00,VWS V14.01,2013-01-11 08:55:00,
2013-01-11 02:56:00,33.8,30.9,29.59,SSE,155,60.0,60.0,89,0.00,,---,0.00,VWS V14.01,2013-01-11 08:56:00,
2013-01-11 02:57:00,33.8,30.9,29.59,SSE,168,60.0,60.0,89,0.00,,---,0.00,VWS V14.01,2013-01-11 08:57:00,
2013-01-11 02:58:00,33.8,30.9,29.59,SSE,164,60.0,60.0,89,0.00,,---,0.00,VWS V14.01,2013-01-11 08:58:00,
2013-01-11 02:59:00,33.8,30.9,29.59,SSE,162,60.0,60.0,89,0.00,,---,0.00,VWS V14.01,2013-01-11 08:59:00,
2013-01-11 03:00:00,33.8,30.9,29.59,South,182,60.0,60.0,89,0.00,,---,0.00,VWS V14.01,2013-01-11 09:00:00,
2013-01-11 03:01:00,33.8,32.0,29.59,SSE,161,60.0,60.0,93,0.00,,---,0.00,VWS V14.01,2013-01-11 09:01:00,
2013-01-11 03:02:00,33.8,30.9,29.59,South,181,60.0,60.0,89,0.00,,---,0.00,VWS V14.01,2013-01-11 09:02:00,
2013-01-11 03:03:00,33.8,30.9,29.59,SSE,167,60.0,60.0,89,0.00,,---,0.00,VWS V14.01,2013-01-11 09:03:00,
2013-01-11 03:04:00,33.8,30.9,29.59,SSE,161,60.0,60.0,89,0.00,,---,0.00,VWS V14.01,2013-01-11 09:04:00,
2013-01-11 03:05:00,33.8,30.9,29.59,South,172,60.0,60.0,89,0.00,,---,0.00,VWS V14.01,2013-01-11 09:05:00,
2013-01-11 03:06:00,33.8,30.9,29.59,South,172,60.0,60.0,89,0.00,,---,0.00,VWS V14.01,2013-01-11 09:06:00,
2013-01-11 03:07:00,33.8,30.9,29.59,South,175,60.0,60.0,89,0.00,,---,0.00,VWS V14.01,2013-01-11 09:07:00,
2013-01-11 03:08:00,33.8,30.9,29.59,SSE,165,60.0,60.0,89,0.00,,---,0.00,VWS V14.01,2013-01-11 09:08:00,
2013-01-11 03:09:00,33.8,29.8,29.59,SSE,162,60.0,60.0,85,0.00,,---,0.00,VWS V14.01,2013-01-11 09:09:00,
2013-01-11 03:10:00,33.8,30.9,29.59,SSE,167,60.0,60.0,89,0.00,,---,0.00,VWS V14.01,2013-01-11 09:10:00,
2013-01-11 03:11:00,33.8,30.9,29.59,SSE,160,60.0,60.0,89,0.00,,---,0.00,VWS V14.01,2013-01-11 09:11:00,
2013-01-11 03:12:00,33.8,30.9,29.59,SSE,168,60.0,60.0,89,0.00,,---,0.00,VWS V14.01,2013-01-11 09:12:00,
2013-01-11 03:13:00,33.8,30.9,29.59,SSE,152,60.0,60.0,89,0.00,,---,0.00,VWS V14.01,2013-01-11 09:13:00,
2013-01-11 03:14:00,33.8,30.9,29.58,SSE,162,60.0,60.0,89,0.00,,---,0.00,VWS V14.01,2013-01-11 09:14:00,
2013-01-11 03:15:00,33.8,30.9,29.58,SSE,165,60.0,60.0,89,0.00,,---,0.00,VWS V14.01,2013-01-11 09:15:00,
2013-01-11 03:16:00,33.8,30.9,29.58,South,171,60.0,60.0,89,0.00,,---,0.00,VWS V14.01,2013-01-11 09:16:00,
2013-01-11 03:17:00,33.8,30.9,29.58,South,176,60.0,60.0,89,0.00,,---,0.00,VWS V14.01,2013-01-11 09:17:00,
2013-01-11 03:18:00,33.8,30.9,29.58,South,169,60.0,60.0,89,0.00,,---,0.00,VWS V14.01,2013-01-11 09:18:00,
2013-01-11 03:19:00,33.8,31.5,29.58,SSE,152,60.0,60.0,91,0.00,,---,0.00,VWS V14.01,2013-01-11 09:19:00,
2013-01-11 03:20:00,33.8,30.9,29.58,SSE,150,60.0,60.0,89,0.00,,---,0.00,VWS V14.01,2013-01-11 09:20:00,
2013-01-11 03:21:00,33.8,31.5,29.58,South,176,60.0,60.0,91,0.00,,---,0.00,VWS V14.01,2013-01-11 09:21:00,
2013-01-11 03:22:00,33.8,30.9,29.58,South,174,60.0,60.0,89,0.00,,---,0.00,VWS V14.01,2013-01-11 09:22:00,
2013-01-11 03:23:00,33.8,30.9,29.58,SSE,155,60.0,60.0,89,0.00,,---,0.00,VWS V14.01,2013-01-11 09:23:00,
2013-01-11 03:24:00,33.8,31.2,29.58,SSW,192,60.0,60.0,90,0.00,,---,0.00,VWS V14.01,2013-01-11 09:24:00,
2013-01-11 03:25:00,34.0,31.4,29.58,SSE,168,60.0,60.0,90,0.00,,---,0.00,VWS V14.01,2013-01-11 09:25:00,
2013-01-11 03:26:00,33.8,31.2,29.58,SSE,154,60.0,60.0,90,0.00,,---,0.00,VWS V14.01,2013-01-11 09:26:00,
2013-01-11 03:27:00,34.0,31.4,29.58,South,185,60.0,60.0,90,0.00,,---,0.00,VWS V14.01,2013-01-11 09:27:00,
2013-01-11 03:28:00,33.8,30.9,29.58,SSE,160,60.0,60.0,89,0.00,,---,0.00,VWS V14.01,2013-01-11 09:28:00,
2013-01-11 03:29:00,34.0,31.4,29.59,SSE,168,60.0,60.0,90,0.00,,---,0.00,VWS V14.01,2013-01-11 09:29:00,
2013-01-11 03:30:00,34.0,31.4,29.59,SSE,165,60.0,60.0,90,0.00,,---,0.00,VWS V14.01,2013-01-11 09:30:00,
2013-01-11 03:31:00,33.8,31.2,29.59,South,169,60.0,60.0,90,0.00,,---,0.00,VWS V14.01,2013-01-11 09:31:00,
2013-01-11 03:32:00,34.0,31.9,29.59,South,175,60.0,60.0,92,0.00,,---,0.00,VWS V14.01,2013-01-11 09:32:00,
2013-01-11 03:33:00,33.8,31.2,29.59,SSE,161,60.0,60.0,90,0.00,,---,0.00,VWS V14.01,2013-01-11 09:33:00,
2013-01-11 03:34:00,33.8,31.2,29.59,SSE,165,60.0,60.0,90,0.00,,---,0.00,VWS V14.01,2013-01-11 09:34:00,
2013-01-11 03:35:00,34.0,31.4,29.59,SSE,168,60.0,60.0,90,0.00,,---,0.00,VWS V14.01,2013-01-11 09:35:00,
2013-01-11 03:36:00,33.8,31.2,29.59,South,176,60.0,60.0,90,0.00,,---,0.00,VWS V14.01,2013-01-11 09:36:00,
2013-01-11 03:37:00,33.8,31.2,29.59,South,181,60.0,60.0,90,0.00,,---,0.00,VWS V14.01,2013-01-11 09:37:00,
2013-01-11 03:38:00,34.0,31.4,29.59,South,178,60.0,60.0,90,0.00,,---,0.00,VWS V14.01,2013-01-11 09:38:00,
2013-01-11 03:39:00,34.0,31.4,29.59,South,174,60.0,60.0,90,0.00,,---,0.00,VWS V14.01,2013-01-11 09:39:00,
2013-01-11 03:40:00,34.0,31.4,29.59,SSE,151,60.0,60.0,90,0.00,,---,0.00,VWS V14.01,2013-01-11 09:40:00,
2013-01-11 03:41:00,34.0,31.4,29.59,SSE,160,60.0,60.0,90,0.00,,---,0.00,VWS V14.01,2013-01-11 09:41:00,
2013-01-11 03:42:00,34.0,31.4,29.59,South,175,60.0,60.0,90,0.00,,---,0.00,VWS V14.01,2013-01-11 09:42:00,
2013-01-11 03:43:00,34.0,31.4,29.59,SSE,167,60.0,60.0,90,0.00,,---,0.00,VWS V14.01,2013-01-11 09:43:00,
2013-01-11 03:44:00,34.0,30.8,29.59,South,169,60.0,60.0,88,0.00,,---,0.00,VWS V14.01,2013-01-11 09:44:00,
2013-01-11 03:45:00,34.0,31.4,29.59,South,176,60.0,60.0,90,0.00,,---,0.00,VWS V14.01,2013-01-11 09:45:00,
2013-01-11 03:46:00,34.0,31.4,29.59,SSW,198,60.0,60.0,90,0.00,,---,0.00,VWS V14.01,2013-01-11 09:46:00,
2013-01-11 03:47:00,34.0,30.3,29.59,South,191,60.0,60.0,86,0.00,,---,0.00,VWS V14.01,2013-01-11 09:47:00,
2013-01-11 03:48:00,34.0,31.4,29.59,South,176,60.0,60.0,90,0.00,,---,0.00,VWS V14.01,2013-01-11 09:48:00,
2013-01-11 03:49:00,34.0,31.4,29.59,South,178,60.0,60.0,90,0.00,,---,0.00,VWS V14.01,2013-01-11 09:49:00,
2013-01-11 03:50:00,34.0,31.4,29.59,SSE,164,60.0,60.0,90,0.00,,---,0.00,VWS V14.01,2013-01-11 09:50:00,
2013-01-11 03:51:00,34.0,31.4,29.59,SSE,161,60.0,60.0,90,0.00,,---,0.00,VWS V14.01,2013-01-11 09:51:00,
2013-01-11 03:52:00,34.0,31.4,29.59,SSE,161,60.0,60.0,90,0.00,,---,0.00,VWS V14.01,2013-01-11 09:52:00,
2013-01-11 03:53:00,34.0,31.4,29.59,South,179,60.0,60.0,90,0.00,,---,0.00,VWS V14.01,2013-01-11 09:53:00,
2013-01-11 03:54:00,34.0,31.4,29.59,South,171,60.0,60.0,90,0.00,,---,0.00,VWS V14.01,2013-01-11 09:54:00,
2013-01-11 03:55:00,34.0,31.4,29.59,South,179,60.0,60.0,90,0.00,,---,0.00,VWS V14.01,2013-01-11 09:55:00,
2013-01-11 03:56:00,34.0,31.4,29.59,SSE,165,60.0,60.0,90,0.00,,---,0.00,VWS V14.01,2013-01-11 09:56:00,
2013-01-11 03:57:00,34.0,31.4,29.59,SSE,164,60.0,60.0,90,0.00,,---,0.00,VWS V14.01,2013-01-11 09:57:00,
2013-01-11 03:58:00,34.0,31.4,29.59,South,175,60.0,60.0,90,0.00,,---,0.00,VWS V14.01,2013-01-11 09:58:00,
2013-01-11 03:59:00,34.0,31.4,29.58,South,172,60.0,60.0,90,0.00,,---,0.00,VWS V14.01,2013-01-11 09:59:00,
2013-01-11 04:00:00,34.0,31.4,29.58,South,171,60.0,60.0,90,0.00,,---,0.00,VWS V14.01,2013-01-11 10:00:00,
2013-01-11 04:01:00,34.0,31.4,29.58,South,178,60.0,60.0,90,0.00,,---,0.00,VWS V14.01,2013-01-11 10:01:00,
2013-01-11 04:02:00,34.0,31.4,29.58,SSE,164,60.0,60.0,90,0.00,,---,0.00,VWS V14.01,2013-01-11 10:02:00,
2013-01-11 04:03:00,34.0,31.4,29.58,SSE,167,60.0,60.0,90,0.00,,---,0.00,VWS V14.01,2013-01-11 10:03:00,
2013-01-11 04:04:00,34.0,31.4,29.58,South,174,60.0,60.0,90,0.00,,---,0.00,VWS V14.01,2013-01-11 10:04:00,
2013-01-11 04:05:00,34.0,31.4,29.58,South,169,60.0,60.0,90,0.00,,---,0.00,VWS V14.01,2013-01-11 10:05:00,
2013-01-11 04:06:00,34.0,31.4,29.58,SSE,167,60.0,60.0,90,0.00,,---,0.00,VWS V14.01,2013-01-11 10:06:00,
2013-01-11 04:07:00,34.0,31.4,29.58,SSE,167,60.0,60.0,90,0.00,,---,0.00,VWS V14.01,2013-01-11 10:07:00,
2013-01-11 04:08:00,34.0,31.9,29.58,SSE,168,60.0,60.0,92,0.00,,---,0.00,VWS V14.01,2013-01-11 10:08:00,
2013-01-11 04:09:00,34.0,31.4,29.58,South,171,60.0,60.0,90,0.00,,---,0.00,VWS V14.01,2013-01-11 10:09:00,
2013-01-11 04:10:00,34.0,31.4,29.58,SSE,164,60.0,60.0,90,0.00,,---,0.00,VWS V14.01,2013-01-11 10:10:00,
2013-01-11 04:11:00,34.0,31.4,29.58,South,169,60.0,60.0,90,0.00,,---,0.00,VWS V14.01,2013-01-11 10:11:00,
2013-01-11 04:12:00,34.0,31.4,29.58,South,175,60.0,60.0,90,0.00,,---,0.00,VWS V14.01,2013-01-11 10:12:00,
2013-01-11 04:13:00,34.0,31.4,29.58,South,175,60.0,60.0,90,0.00,,---,0.00,VWS V14.01,2013-01-11 10:13:00,
2013-01-11 04:14:00,34.0,31.6,29.58,SSE,162,60.0,60.0,91,0.00,,---,0.00,VWS V14.01,2013-01-11 10:14:00,
2013-01-11 04:15:00,34.0,31.4,29.58,SSE,167,60.0,60.0,90,0.00,,---,0.00,VWS V14.01,2013-01-11 10:15:00,
2013-01-11 04:16:00,34.0,31.4,29.58,SSE,167,60.0,60.0,90,0.00,,---,0.00,VWS V14.01,2013-01-11 10:16:00,
2013-01-11 04:17:00,34.0,31.4,29.58,South,184,60.0,60.0,90,0.00,,---,0.00,VWS V14.01,2013-01-11 10:17:00,
2013-01-11 04:18:00,34.0,31.4,29.58,South,189,60.0,60.0,90,0.00,,---,0.00,VWS V14.01,2013-01-11 10:18:00,
2013-01-11 04:19:00,34.1,31.5,29.58,South,184,60.0,60.0,90,0.00,,---,0.00,VWS V14.01,2013-01-11 10:19:00,
2013-01-11 04:20:00,34.1,31.5,29.58,SSW,193,60.0,60.0,90,0.00,,---,0.00,VWS V14.01,2013-01-11 10:20:00,
2013-01-11 04:21:00,34.1,31.5,29.58,SSW,196,60.0,60.0,90,0.00,,---,0.00,VWS V14.01,2013-01-11 10:21:00,
2013-01-11 04:22:00,34.0,31.4,29.58,SSE,167,60.0,60.0,90,0.00,,---,0.00,VWS V14.01,2013-01-11 10:22:00,
2013-01-11 04:23:00,34.0,31.4,29.58,SSE,161,60.0,60.0,90,0.00,,---,0.00,VWS V14.01,2013-01-11 10:23:00,
2013-01-11 04:24:00,34.0,31.4,29.58,SSE,160,60.0,60.0,90,0.00,,---,0.00,VWS V14.01,2013-01-11 10:24:00,
2013-01-11 04:25:00,34.0,31.4,29.58,SSE,148,60.0,60.0,90,0.00,,---,0.00,VWS V14.01,2013-01-11 10:25:00,
2013-01-11 04:26:00,34.1,31.5,29.58,SSW,192,60.0,60.0,90,0.00,,---,0.00,VWS V14.01,2013-01-11 10:26:00,
2013-01-11 04:27:00,34.0,31.4,29.58,South,171,60.0,60.0,90,0.00,,---,0.00,VWS V14.01,2013-01-11 10:27:00,
2013-01-11 04:28:00,34.1,31.5,29.58,South,181,60.0,60.0,90,0.00,,---,0.00,VWS V14.01,2013-01-11 10:28:00,
2013-01-11 04:29:00,34.1,31.5,29.58,South,178,60.0,60.0,90,0.00,,---,0.00,VWS V14.01,2013-01-11 10:29:00,
2013-01-11 04:30:00,34.0,31.9,29.58,SSE,161,60.0,60.0,92,0.00,,---,0.00,VWS V14.01,2013-01-11 10:30:00,
2013-01-11 04:31:00,34.0,31.4,29.58,SSE,168,60.0,60.0,90,0.00,,---,0.00,VWS V14.01,2013-01-11 10:31:00,
2013-01-11 04:32:00,34.1,31.5,29.58,SSE,165,60.0,60.0,90,0.00,,---,0.00,VWS V14.01,2013-01-11 10:32:00,
2013-01-11 04:33:00,34.0,31.4,29.58,SSE,160,60.0,60.0,90,0.00,,---,0.00,VWS V14.01,2013-01-11 10:33:00,
2013-01-11 04:34:00,34.0,31.4,29.58,SSE,164,60.0,60.0,90,0.00,,---,0.00,VWS V14.01,2013-01-11 10:34:00,
2013-01-11 04:35:00,34.0,31.4,29.58,SSE,160,60.0,60.0,90,0.00,,---,0.00,VWS V14.01,2013-01-11 10:35:00,
2013-01-11 04:36:00,34.0,31.4,29.58,South,169,60.0,60.0,90,0.00,,---,0.00,VWS V14.01,2013-01-11 10:36:00,
2013-01-11 04:37:00,34.0,31.4,29.58,SSE,167,60.0,60.0,90,0.00,,---,0.00,VWS V14.01,2013-01-11 10:37:00,
2013-01-11 04:38:00,34.0,31.4,29.58,SSE,165,60.0,60.0,90,0.00,,---,0.00,VWS V14.01,2013-01-11 10:38:00,
2013-01-11 04:39:00,34.0,31.4,29.58,SSE,168,60.0,60.0,90,0.00,,---,0.00,VWS V14.01,2013-01-11 10:39:00,
2013-01-11 04:40:00,34.0,31.4,29.58,SSE,162,60.0,60.0,90,0.00,,---,0.00,VWS V14.01,2013-01-11 10:40:00,
2013-01-11 04:41:00,34.0,31.4,29.58,SSE,161,60.0,60.0,90,0.00,,---,0.00,VWS V14.01,2013-01-11 10:41:00,
2013-01-11 04:42:00,34.1,31.5,29.58,SSE,162,60.0,60.0,90,0.00,,---,0.00,VWS V14.01,2013-01-11 10:42:00,
2013-01-11 04:43:00,34.0,30.3,29.58,SSE,157,60.0,60.0,86,0.00,,---,0.00,VWS V14.01,2013-01-11 10:43:00,
2013-01-11 04:44:00,34.0,31.4,29.57,SSE,167,60.0,60.0,90,0.00,,---,0.00,VWS V14.01,2013-01-11 10:44:00,
2013-01-11 04:45:00,34.1,31.5,29.57,South,175,60.0,60.0,90,0.00,,---,0.00,VWS V14.01,2013-01-11 10:45:00,
2013-01-11 04:46:00,34.0,31.4,29.57,SSE,168,60.0,60.0,90,0.00,,---,0.00,VWS V14.01,2013-01-11 10:46:00,
2013-01-11 04:47:00,34.1,31.5,29.57,South,174,60.0,60.0,90,0.00,,---,0.00,VWS V14.01,2013-01-11 10:47:00,
2013-01-11 04:48:00,34.1,31.5,29.57,South,174,60.0,60.0,90,0.00,,---,0.00,VWS V14.01,2013-01-11 10:48:00,
2013-01-11 04:49:00,34.1,31.5,29.57,SSE,167,60.0,60.0,90,0.00,,---,0.00,VWS V14.01,2013-01-11 10:49:00,
2013-01-11 04:50:00,34.1,31.5,29.57,SSE,167,60.0,60.0,90,0.00,,---,0.00,VWS V14.01,2013-01-11 10:50:00,
2013-01-11 04:51:00,34.1,31.5,29.57,South,171,60.0,60.0,90,0.00,,---,0.00,VWS V14.01,2013-01-11 10:51:00,
2013-01-11 04:52:00,34.1,32.3,29.57,SSE,161,60.0,60.0,93,0.00,,---,0.00,VWS V14.01,2013-01-11 10:52:00,
2013-01-11 04:53:00,34.0,31.4,29.57,South,169,60.0,60.0,90,0.00,,---,0.00,VWS V14.01,2013-01-11 10:53:00,
2013-01-11 04:54:00,34.1,31.5,29.57,South,171,60.0,60.0,90,0.00,,---,0.00,VWS V14.01,2013-01-11 10:54:00,
2013-01-11 04:55:00,34.1,31.5,29.57,South,172,60.0,60.0,90,0.00,,---,0.00,VWS V14.01,2013-01-11 10:55:00,
2013-01-11 04:56:00,34.1,31.5,29.57,South,171,60.0,60.0,90,0.00,,---,0.00,VWS V14.01,2013-01-11 10:56:00,
2013-01-11 04:57:00,34.1,31.5,29.57,SSE,168,60.0,60.0,90,0.00,,---,0.00,VWS V14.01,2013-01-11 10:57:00,
2013-01-11 04:58:00,34.1,31.5,29.57,SSE,167,60.0,60.0,90,0.00,,---,0.00,VWS V14.01,2013-01-11 10:58:00,
2013-01-11 04:59:00,34.1,31.5,29.57,SSE,167,60.0,60.0,90,0.00,,---,0.00,VWS V14.01,2013-01-11 10:59:00,
2013-01-11 05:00:00,34.1,32.0,29.57,SSE,168,60.0,60.0,92,0.00,,---,0.00,VWS V14.01,2013-01-11 11:00:00,
2013-01-11 05:01:00,34.0,31.4,29.57,SSE,161,60.0,60.0,90,0.00,,---,0.00,VWS V14.01,2013-01-11 11:01:00,
2013-01-11 05:02:00,34.1,31.5,29.57,South,171,60.0,60.0,90,0.00,,---,0.00,VWS V14.01,2013-01-11 11:02:00,
2013-01-11 05:03:00,34.1,31.5,29.57,SSE,161,60.0,60.0,90,0.00,,---,0.00,VWS V14.01,2013-01-11 11:03:00,
2013-01-11 05:04:00,34.1,30.9,29.57,SSE,168,60.0,60.0,88,0.00,,---,0.00,VWS V14.01,2013-01-11 11:04:00,
2013-01-11 05:05:00,34.1,31.5,29.57,South,174,60.0,60.0,90,0.00,,---,0.00,VWS V14.01,2013-01-11 11:05:00,
2013-01-11 05:06:00,34.0,31.4,29.57,SSE,160,60.0,60.0,90,0.00,,---,0.00,VWS V14.01,2013-01-11 11:06:00,
2013-01-11 05:07:00,34.1,31.5,29.57,SSE,168,60.0,60.0,90,0.00,,---,0.00,VWS V14.01,2013-01-11 11:07:00,
2013-01-11 05:08:00,34.1,31.5,29.57,South,174,60.0,60.0,90,0.00,,---,0.00,VWS V14.01,2013-01-11 11:08:00,
2013-01-11 05:09:00,34.1,30.9,29.57,South,174,60.0,60.0,88,0.00,,---,0.00,VWS V14.01,2013-01-11 11:09:00,
2013-01-11 05:10:00,34.1,30.9,29.57,SSE,168,60.0,60.0,88,0.00,,---,0.00,VWS V14.01,2013-01-11 11:10:00,
2013-01-11 05:11:00,34.1,31.5,29.57,South,172,60.0,60.0,90,0.00,,---,0.00,VWS V14.01,2013-01-11 11:11:00,
2013-01-11 05:12:00,34.1,31.5,29.57,South,171,60.0,60.0,90,0.00,,---,0.00,VWS V14.01,2013-01-11 11:12:00,
2013-01-11 05:13:00,34.1,31.5,29.57,SSE,161,60.0,60.0,90,0.00,,---,0.00,VWS V14.01,2013-01-11 11:13:00,
2013-01-11 05:14:00,34.1,30.6,29.57,SSE,160,60.0,60.0,87,0.00,,---,0.00,VWS V14.01,2013-01-11 11:14:00,
2013-01-11 05:15:00,34.1,31.5,29.57,South,172,60.0,60.0,90,0.00,,---,0.00,VWS V14.01,2013-01-11 11:15:00,
2013-01-11 05:16:00,34.1,31.5,29.57,SSE,167,60.0,60.0,90,0.00,,---,0.00,VWS V14.01,2013-01-11 11:16:00,
2013-01-11 05:17:00,34.1,31.5,29.57,South,171,60.0,60.0,90,0.00,,---,0.00,VWS V14.01,2013-01-11 11:17:00,
2013-01-11 05:18:00,34.1,31.5,29.57,South,174,60.0,60.0,90,0.00,,---,0.00,VWS V14.01,2013-01-11 11:18:00,
2013-01-11 05:19:00,34.1,31.5,29.57,SSE,165,60.0,60.0,90,0.00,,---,0.00,VWS V14.01,2013-01-11 11:19:00,
2013-01-11 05:20:00,34.1,31.5,29.57,SSE,164,60.0,60.0,90,0.00,,---,0.00,VWS V14.01,2013-01-11 11:20:00,
2013-01-11 05:21:00,34.1,31.2,29.57,South,175,60.0,60.0,89,0.00,,---,0.00,VWS V14.01,2013-01-11 11:21:00,
2013-01-11 05:22:00,34.1,31.5,29.57,South,171,60.0,60.0,90,0.00,,---,0.00,VWS V14.01,2013-01-11 11:22:00,
2013-01-11 05:23:00,34.1,31.5,29.57,SSE,161,60.0,60.0,90,0.00,,---,0.00,VWS V14.01,2013-01-11 11:23:00,
2013-01-11 05:24:00,34.1,31.5,29.57,South,182,60.0,60.0,90,0.00,,---,0.00,VWS V14.01,2013-01-11 11:24:00,
2013-01-11 05:25:00,34.1,31.5,29.57,South,172,60.0,60.0,90,0.00,,---,0.00,VWS V14.01,2013-01-11 11:25:00,
2013-01-11 05:26:00,34.1,31.5,29.57,SSE,168,60.0,60.0,90,0.00,,---,0.00,VWS V14.01,2013-01-11 11:26:00,
2013-01-11 05:27:00,34.1,31.5,29.57,SSW,195,60.0,60.0,90,0.00,,---,0.00,VWS V14.01,2013-01-11 11:27:00,
2013-01-11 05:28:00,34.1,31.5,29.57,SSW,192,60.0,60.0,90,0.00,,---,0.00,VWS V14.01,2013-01-11 11:28:00,
2013-01-11 05:29:00,34.1,31.5,29.57,South,182,60.0,60.0,90,0.00,,---,0.00,VWS V14.01,2013-01-11 11:29:00,
2013-01-11 05:30:00,34.1,31.5,29.57,South,182,60.0,60.0,90,0.00,,---,0.00,VWS V14.01,2013-01-11 11:30:00,
2013-01-11 05:31:00,34.1,31.5,29.57,South,188,60.0,60.0,90,0.00,,---,0.00,VWS V14.01,2013-01-11 11:31:00,
2013-01-11 05:32:00,34.1,31.5,29.57,South,189,60.0,60.0,90,0.00,,---,0.00,VWS V14.01,2013-01-11 11:32:00,
2013-01-11 05:33:00,34.1,31.5,29.57,South,171,60.0,60.0,90,0.00,,---,0.00,VWS V14.01,2013-01-11 11:33:00,
2013-01-11 05:34:00,34.1,31.5,29.57,SSE,168,60.0,60.0,90,0.00,,---,0.00,VWS V14.01,2013-01-11 11:34:00,
2013-01-11 05:35:00,34.3,31.7,29.57,South,176,60.0,60.0,90,0.00,,---,0.00,VWS V14.01,2013-01-11 11:35:00,
2013-01-11 05:36:00,34.1,31.5,29.57,South,175,60.0,60.0,90,0.00,,---,0.00,VWS V14.01,2013-01-11 11:36:00,
2013-01-11 05:37:00,34.1,31.5,29.57,SSE,165,60.0,60.0,90,0.00,,---,0.00,VWS V14.01,2013-01-11 11:37:00,
2013-01-11 05:38:00,34.1,31.5,29.57,SSE,164,60.0,60.0,90,0.01,,---,0.01,VWS V14.01,2013-01-11 11:38:00,
2013-01-11 05:39:00,34.1,31.5,29.57,South,175,60.0,60.0,90,0.01,,---,0.01,VWS V14.01,2013-01-11 11:39:00,
2013-01-11 05:40:00,34.1,31.5,29.57,SSE,165,60.0,60.0,90,0.01,,---,0.01,VWS V14.01,2013-01-11 11:40:00,
2013-01-11 05:41:00,34.1,30.4,29.57,South,169,60.0,60.0,86,0.01,,---,0.01,VWS V14.01,2013-01-11 11:41:00,
2013-01-11 05:42:00,34.1,31.5,29.57,SSE,168,60.0,60.0,90,0.01,,---,0.01,VWS V14.01,2013-01-11 11:42:00,
2013-01-11 05:43:00,34.1,32.0,29.57,SSE,160,60.0,60.0,92,0.01,,---,0.01,VWS V14.01,2013-01-11 11:43:00,
2013-01-11 05:44:00,34.1,31.5,29.57,South,171,60.0,60.0,90,0.01,,---,0.01,VWS V14.01,2013-01-11 11:44:00,
2013-01-11 05:45:00,34.1,31.5,29.56,SSE,160,60.0,60.0,90,0.01,,---,0.01,VWS V14.01,2013-01-11 11:45:00,
2013-01-11 05:46:00,34.1,31.5,29.56,SSE,164,60.0,60.0,90,0.01,,---,0.01,VWS V14.01,2013-01-11 11:46:00,
2013-01-11 05:47:00,34.1,32.6,29.56,South,169,60.0,60.0,94,0.01,,---,0.01,VWS V14.01,2013-01-11 11:47:00,
2013-01-11 05:48:00,34.1,31.5,29.56,SSE,165,60.0,60.0,90,0.01,,---,0.01,VWS V14.01,2013-01-11 11:48:00,
2013-01-11 05:49:00,34.1,31.5,29.56,SSE,160,60.0,60.0,90,0.01,,---,0.01,VWS V14.01,2013-01-11 11:49:00,
2013-01-11 05:50:00,34.1,31.5,29.56,SSE,165,60.0,60.0,90,0.01,,---,0.01,VWS V14.01,2013-01-11 11:50:00,
2013-01-11 05:51:00,34.1,31.5,29.56,SSE,167,60.0,60.0,90,0.01,,---,0.01,VWS V14.01,2013-01-11 11:51:00,
2013-01-11 05:52:00,34.1,31.5,29.56,South,169,60.0,60.0,90,0.01,,---,0.01,VWS V14.01,2013-01-11 11:52:00,
2013-01-11 05:53:00,34.1,31.2,29.56,South,169,60.0,60.0,89,0.01,,---,0.01,VWS V14.01,2013-01-11 11:53:00,
2013-01-11 05:54:00,34.1,31.5,29.56,SSE,167,60.0,60.0,90,0.01,,---,0.01,VWS V14.01,2013-01-11 11:54:00,
2013-01-11 05:55:00,34.1,32.3,29.56,SSE,167,60.0,60.0,93,0.01,,---,0.01,VWS V14.01,2013-01-11 11:55:00,
2013-01-11 05:56:00,34.1,31.5,29.56,South,169,60.0,60.0,90,0.01,,---,0.01,VWS V14.01,2013-01-11 11:56:00,
2013-01-11 05:57:00,34.1,31.5,29.56,SSE,157,60.0,60.0,90,0.01,,---,0.01,VWS V14.01,2013-01-11 11:57:00,
2013-01-11 05:58:00,34.0,31.4,29.56,SSE,157,60.0,60.0,90,0.01,,---,0.01,VWS V14.01,2013-01-11 11:58:00,
2013-01-11 05:59:00,34.1,31.5,29.56,South,169,60.0,60.0,90,0.01,,---,0.01,VWS V14.01,2013-01-11 11:59:00,
2013-01-11 06:00:00,34.0,31.4,29.56,SSE,167,60.0,60.0,90,0.01,,---,0.01,VWS V14.01,2013-01-11 12:00:00,
2013-01-11 06:01:00,34.0,32.2,29.56,SSE,157,60.0,60.0,93,0.01,,---,0.01,VWS V14.01,2013-01-11 12:01:00,
2013-01-11 06:02:00,34.1,31.5,29.56,South,174,60.0,60.0,90,0.01,,---,0.01,VWS V14.01,2013-01-11 12:02:00,
2013-01-11 06:03:00,34.1,31.5,29.56,South,172,60.0,60.0,90,0.01,,---,0.01,VWS V14.01,2013-01-11 12:03:00,
2013-01-11 06:04:00,34.1,31.5,29.56,South,175,60.0,60.0,90,0.01,,---,0.01,VWS V14.01,2013-01-11 12:04:00,
2013-01-11 06:05:00,34.1,31.5,29.56,SSE,162,60.0,60.0,90,0.01,,---,0.01,VWS V14.01,2013-01-11 12:05:00,
2013-01-11 06:06:00,34.1,31.5,29.56,South,174,60.0,60.0,90,0.01,,---,0.01,VWS V14.01,2013-01-11 12:06:00,
2013-01-11 06:07:00,34.1,31.5,29.56,South,175,60.0,60.0,90,0.01,,---,0.01,VWS V14.01,2013-01-11 12:07:00,
2013-01-11 06:08:00,34.1,32.6,29.56,SSE,162,60.0,60.0,94,0.01,,---,0.01,VWS V14.01,2013-01-11 12:08:00,
2013-01-11 06:09:00,34.1,32.6,29.56,South,172,60.0,60.0,94,0.01,,---,0.01,VWS V14.01,2013-01-11 12:09:00,
2013-01-11 06:10:00,34.1,31.5,29.56,South,176,60.0,60.0,90,0.02,,---,0.02,VWS V14.01,2013-01-11 12:10:00,
2013-01-11 06:11:00,34.1,31.5,29.56,South,171,60.0,60.0,90,0.04,,---,0.04,VWS V14.01,2013-01-11 12:11:00,
2013-01-11 06:12:00,34.1,31.5,29.56,South,182,60.0,60.0,90,0.06,,---,0.06,VWS V14.01,2013-01-11 12:12:00,
2013-01-11 06:13:00,34.1,31.5,29.56,South,184,60.0,60.0,90,0.06,,---,0.06,VWS V14.01,2013-01-11 12:13:00,
2013-01-11 06:14:00,34.1,31.5,29.56,South,178,60.0,60.0,90,0.06,,---,0.06,VWS V14.01,2013-01-11 12:14:00,
2013-01-11 06:15:00,34.1,31.5,29.56,South,184,60.0,60.0,90,0.06,,---,0.06,VWS V14.01,2013-01-11 12:15:00,
2013-01-11 06:16:00,34.1,31.5,29.56,South,182,60.0,60.0,90,0.06,,---,0.06,VWS V14.01,2013-01-11 12:16:00,
2013-01-11 06:17:00,34.1,31.5,29.56,South,179,60.0,60.0,90,0.06,,---,0.06,VWS V14.01,2013-01-11 12:17:00,
2013-01-11 06:18:00,34.1,32.6,29.56,South,174,60.0,60.0,94,0.06,,---,0.06,VWS V14.01,2013-01-11 12:18:00,
2013-01-11 06:19:00,34.1,32.0,29.56,South,178,60.0,60.0,92,0.06,,---,0.06,VWS V14.01,2013-01-11 12:19:00,
2013-01-11 06:20:00,34.1,31.5,29.56,South,184,60.0,60.0,90,0.06,,---,0.06,VWS V14.01,2013-01-11 12:20:00,
2013-01-11 06:21:00,34.1,31.5,29.56,South,179,60.0,60.0,90,0.06,,---,0.06,VWS V14.01,2013-01-11 12:21:00,
2013-01-11 06:22:00,34.1,31.5,29.56,South,171,60.0,60.0,90,0.06,,---,0.06,VWS V14.01,2013-01-11 12:22:00,
2013-01-11 06:23:00,34.1,31.5,29.56,South,172,60.0,60.0,90,0.06,,---,0.06,VWS V14.01,2013-01-11 12:23:00,
2013-01-11 06:24:00,34.1,31.5,29.56,South,184,60.0,60.0,90,0.06,,---,0.06,VWS V14.01,2013-01-11 12:24:00,
2013-01-11 06:25:00,34.1,31.5,29.56,South,181,60.0,60.0,90,0.06,,---,0.06,VWS V14.01,2013-01-11 12:25:00,
2013-01-11 06:26:00,34.1,31.5,29.56,South,179,60.0,60.0,90,0.06,,---,0.06,VWS V14.01,2013-01-11 12:26:00,
2013-01-11 06:27:00,34.1,31.5,29.56,South,171,60.0,60.0,90,0.07,,---,0.07,VWS V14.01,2013-01-11 12:27:00,
2013-01-11 06:28:00,34.1,31.5,29.56,South,182,60.0,60.0,90,0.09,,---,0.09,VWS V14.01,2013-01-11 12:28:00,
2013-01-11 06:29:00,34.1,31.5,29.56,South,175,60.0,60.0,90,0.09,,---,0.09,VWS V14.01,2013-01-11 12:29:00,
2013-01-11 06:30:00,34.1,31.5,29.56,South,174,60.0,60.0,90,0.09,,---,0.09,VWS V14.01,2013-01-11 12:30:00,
2013-01-11 06:31:00,34.1,32.3,29.56,South,171,60.0,60.0,93,0.09,,---,0.09,VWS V14.01,2013-01-11 12:31:00,
2013-01-11 06:32:00,34.1,31.5,29.56,South,178,60.0,60.0,90,0.11,,---,0.11,VWS V14.01,2013-01-11 12:32:00,
2013-01-11 06:33:00,34.1,31.5,29.56,South,184,60.0,60.0,90,0.13,,---,0.13,VWS V14.01,2013-01-11 12:33:00,
2013-01-11 06:34:00,34.1,31.5,29.56,South,174,60.0,60.0,90,0.15,,---,0.15,VWS V14.01,2013-01-11 12:34:00,
2013-01-11 06:35:00,34.1,31.5,29.56,South,184,60.0,60.0,90,0.17,,---,0.17,VWS V14.01,2013-01-11 12:35:00,
2013-01-11 06:36:00,34.1,31.5,29.56,South,184,60.0,60.0,90,0.19,,---,0.19,VWS V14.01,2013-01-11 12:36:00,
2013-01-11 06:37:00,34.1,32.0,29.56,South,182,60.0,60.0,92,0.19,,---,0.19,VWS V14.01,2013-01-11 12:37:00,
2013-01-11 06:38:00,34.1,31.5,29.56,South,181,60.0,60.0,90,0.19,,---,0.19,VWS V14.01,2013-01-11 12:38:00,
2013-01-11 06:39:00,34.1,31.5,29.56,South,172,60.0,60.0,90,0.19,,---,0.19,VWS V14.01,2013-01-11 12:39:00,
2013-01-11 06:40:00,34.1,31.5,29.56,South,182,60.0,60.0,90,0.19,,---,0.19,VWS V14.01,2013-01-11 12:40:00,
2013-01-11 06:41:00,34.1,31.5,29.56,South,179,60.0,60.0,90,0.19,,---,0.19,VWS V14.01,2013-01-11 12:41:00,
2013-01-11 06:42:00,34.1,31.5,29.56,South,184,60.0,60.0,90,0.19,,---,0.19,VWS V14.01,2013-01-11 12:42:00,
2013-01-11 06:43:00,34.1,31.5,29.56,South,178,60.0,60.0,90,0.19,,---,0.19,VWS V14.01,2013-01-11 12:43:00,
2013-01-11 06:44:00,34.1,31.5,29.56,South,181,60.0,60.0,90,0.19,,---,0.19,VWS V14.01,2013-01-11 12:44:00,
2013-01-11 06:45:00,34.1,31.5,29.56,South,172,60.0,60.0,90,0.19,,---,0.19,VWS V14.01,2013-01-11 12:45:00,
2013-01-11 06:46:00,34.1,31.5,29.56,South,175,60.0,60.0,90,0.19,,---,0.19,VWS V14.01,2013-01-11 12:46:00,
2013-01-11 06:47:00,34.1,31.5,29.56,South,184,60.0,60.0,90,0.19,,---,0.19,VWS V14.01,2013-01-11 12:47:00,
2013-01-11 06:48:00,34.1,31.5,29.56,South,179,60.0,60.0,90,0.19,,---,0.19,VWS V14.01,2013-01-11 12:48:00,
2013-01-11 06:49:00,34.1,31.5,29.56,South,172,60.0,60.0,90,0.19,,---,0.19,VWS V14.01,2013-01-11 12:49:00,
2013-01-11 06:50:00,34.1,31.8,29.56,South,175,60.0,60.0,91,0.19,,---,0.19,VWS V14.01,2013-01-11 12:50:00,
2013-01-11 06:51:00,34.1,31.8,29.56,South,182,60.0,60.0,91,0.19,,---,0.19,VWS V14.01,2013-01-11 12:51:00,
2013-01-11 06:52:00,34.1,32.6,29.56,South,184,60.0,60.0,94,0.19,,---,0.19,VWS V14.01,2013-01-11 12:52:00,
2013-01-11 06:53:00,34.1,32.6,29.56,South,175,60.0,60.0,94,0.19,,---,0.19,VWS V14.01,2013-01-11 12:53:00,
2013-01-11 06:54:00,34.1,31.8,29.56,South,172,60.0,60.0,91,0.21,,---,0.21,VWS V14.01,2013-01-11 12:54:00,
2013-01-11 06:55:00,34.1,30.9,29.56,South,179,60.0,60.0,88,0.23,,---,0.23,VWS V14.01,2013-01-11 12:55:00,
2013-01-11 06:56:00,34.1,31.8,29.56,South,179,60.0,60.0,91,0.23,,---,0.23,VWS V14.01,2013-01-11 12:56:00,
2013-01-11 06:57:00,34.1,31.5,29.56,South,181,60.0,60.0,90,0.23,,---,0.23,VWS V14.01,2013-01-11 12:57:00,
2013-01-11 06:58:00,34.1,31.8,29.56,South,184,60.0,60.0,91,0.23,,---,0.23,VWS V14.01,2013-01-11 12:58:00,
2013-01-11 06:59:00,34.1,31.8,29.56,South,172,60.0,60.0,91,0.23,,---,0.23,VWS V14.01,2013-01-11 12:59:00,
2013-01-11 07:00:00,34.1,32.3,29.56,South,174,60.0,60.0,93,0.23,,---,0.23,VWS V14.01,2013-01-11 13:00:00,
2013-01-11 07:01:00,34.1,31.8,29.56,South,171,60.0,60.0,91,0.22,,---,0.23,VWS V14.01,2013-01-11 13:01:00,
2013-01-11 07:02:00,34.1,31.8,29.56,South,179,60.0,60.0,91,0.22,,---,0.23,VWS V14.01,2013-01-11 13:02:00,
2013-01-11 07:03:00,34.1,31.8,29.56,South,176,60.0,60.0,91,0.22,,---,0.23,VWS V14.01,2013-01-11 13:03:00,
2013-01-11 07:04:00,34.1,31.8,29.56,South,182,60.0,60.0,91,0.22,,---,0.23,VWS V14.01,2013-01-11 13:04:00,
2013-01-11 07:05:00,34.1,31.8,29.56,South,178,60.0,60.0,91,0.22,,---,0.23,VWS V14.01,2013-01-11 13:05:00,
2013-01-11 07:06:00,34.1,31.8,29.56,South,172,60.0,60.0,91,0.22,,---,0.23,VWS V14.01,2013-01-11 13:06:00,
2013-01-11 07:07:00,34.1,31.8,29.56,South,184,60.0,60.0,91,0.22,,---,0.23,VWS V14.01,2013-01-11 13:07:00,
2013-01-11 07:08:00,34.1,31.8,29.56,South,178,60.0,60.0,91,0.22,,---,0.23,VWS V14.01,2013-01-11 13:08:00,
2013-01-11 07:09:00,34.1,31.8,29.56,South,184,60.0,60.0,91,0.22,,---,0.23,VWS V14.01,2013-01-11 13:09:00,
2013-01-11 07:10:00,34.1,31.8,29.56,South,184,60.0,60.0,91,0.22,,---,0.23,VWS V14.01,2013-01-11 13:10:00,
2013-01-11 07:11:00,34.1,31.8,29.56,South,175,60.0,60.0,91,0.22,,---,0.23,VWS V14.01,2013-01-11 13:11:00,
2013-01-11 07:12:00,34.1,31.8,29.56,South,172,60.0,60.0,91,0.22,,---,0.23,VWS V14.01,2013-01-11 13:12:00,
2013-01-11 07:13:00,34.1,31.8,29.56,South,184,60.0,60.0,91,0.22,,---,0.23,VWS V14.01,2013-01-11 13:13:00,
2013-01-11 07:14:00,34.1,31.8,29.56,South,175,60.0,60.0,91,0.22,,---,0.23,VWS V14.01,2013-01-11 13:14:00,
2013-01-11 07:15:00,34.1,31.8,29.56,South,175,60.0,60.0,91,0.22,,---,0.23,VWS V14.01,2013-01-11 13:15:00,
2013-01-11 07:16:00,34.1,31.8,29.56,South,176,60.0,60.0,91,0.22,,---,0.23,VWS V14.01,2013-01-11 13:16:00,
2013-01-11 07:17:00,34.1,31.8,29.56,South,171,60.0,60.0,91,0.22,,---,0.23,VWS V14.01,2013-01-11 13:17:00,
2013-01-11 07:18:00,34.1,31.8,29.56,South,171,60.0,60.0,91,0.22,,---,0.23,VWS V14.01,2013-01-11 13:18:00,
2013-01-11 07:19:00,34.1,31.8,29.56,South,181,60.0,60.0,91,0.22,,---,0.23,VWS V14.01,2013-01-11 13:19:00,
2013-01-11 07:20:00,34.1,31.8,29.56,South,182,60.0,60.0,91,0.22,,---,0.23,VWS V14.01,2013-01-11 13:20:00,
2013-01-11 07:21:00,34.1,31.8,29.56,South,172,60.0,60.0,91,0.22,,---,0.23,VWS V14.01,2013-01-11 13:21:00,
2013-01-11 07:22:00,34.3,32.0,29.56,South,179,60.0,60.0,91,0.22,,---,0.23,VWS V14.01,2013-01-11 13:22:00,
2013-01-11 07:23:00,34.1,31.8,29.56,South,182,60.0,60.0,91,0.24,,---,0.25,VWS V14.01,2013-01-11 13:23:00,
2013-01-11 07:24:00,34.1,31.8,29.56,South,174,60.0,60.0,91,0.26,,---,0.27,VWS V14.01,2013-01-11 13:24:00,
2013-01-11 07:25:00,34.1,31.8,29.56,South,171,60.0,60.0,91,0.28,,---,0.29,VWS V14.01,2013-01-11 13:25:00,
2013-01-11 07:26:00,34.1,31.8,29.56,South,181,60.0,60.0,91,0.32,,---,0.33,VWS V14.01,2013-01-11 13:26:00,
2013-01-11 07:27:00,34.1,31.8,29.56,South,174,60.0,60.0,91,0.34,,---,0.35,VWS V14.01,2013-01-11 13:27:00,
2013-01-11 07:28:00,34.1,31.8,29.56,South,171,60.0,60.0,91,0.36,,---,0.37,VWS V14.01,2013-01-11 13:28:00,
2013-01-11 07:29:00,34.1,31.8,29.56,South,178,60.0,60.0,91,0.38,,---,0.39,VWS V14.01,2013-01-11 13:29:00,
2013-01-11 07:30:00,34.1,31.8,29.56,South,178,60.0,60.0,91,0.42,,---,0.43,VWS V14.01,2013-01-11 13:30:00,
2013-01-11 07:31:00,34.1,31.8,29.56,South,174,60.0,60.0,91,0.36,,---,0.45,VWS V14.01,2013-01-11 13:31:00,
2013-01-11 07:32:00,34.3,32.0,29.56,South,172,60.0,60.0,91,0.38,,---,0.47,VWS V14.01,2013-01-11 13:32:00,
2013-01-11 07:33:00,34.3,32.0,29.56,South,181,60.0,60.0,91,0.40,,---,0.49,VWS V14.01,2013-01-11 13:33:00,
2013-01-11 07:34:00,34.3,32.0,29.56,South,179,60.0,60.0,91,0.42,,---,0.51,VWS V14.01,2013-01-11 13:34:00,
2013-01-11 07:35:00,34.3,32.0,29.56,South,182,60.0,60.0,91,0.46,,---,0.55,VWS V14.01,2013-01-11 13:35:00,
2013-01-11 07:36:00,34.3,32.0,29.56,South,184,60.0,60.0,91,0.48,,---,0.57,VWS V14.01,2013-01-11 13:36:00,
2013-01-11 07:37:00,34.3,32.0,29.56,South,184,60.0,60.0,91,0.48,,---,0.57,VWS V14.01,2013-01-11 13:37:00,
2013-01-11 07:38:00,34.3,30.8,29.56,South,184,60.0,60.0,87,0.48,,---,0.57,VWS V14.01,2013-01-11 13:38:00,
2013-01-11 07:39:00,34.3,32.0,29.56,South,182,60.0,60.0,91,0.48,,---,0.57,VWS V14.01,2013-01-11 13:39:00,
2013-01-11 07:40:00,34.1,31.8,29.56,South,179,60.0,60.0,91,0.48,,---,0.57,VWS V14.01,2013-01-11 13:40:00,
2013-01-11 07:41:00,34.3,32.0,29.56,South,181,60.0,60.0,91,0.48,,---,0.57,VWS V14.01,2013-01-11 13:41:00,
2013-01-11 07:42:00,34.3,32.0,29.56,South,184,60.0,60.0,91,0.48,,---,0.57,VWS V14.01,2013-01-11 13:42:00,
2013-01-11 07:43:00,34.3,30.8,29.56,South,171,60.0,60.0,87,0.48,,---,0.57,VWS V14.01,2013-01-11 13:43:00,
2013-01-11 07:44:00,34.3,32.0,29.57,South,171,60.0,60.0,91,0.48,,---,0.57,VWS V14.01,2013-01-11 13:44:00,
2013-01-11 07:45:00,34.3,32.2,29.57,South,182,60.0,60.0,92,0.48,,---,0.57,VWS V14.01,2013-01-11 13:45:00,
2013-01-11 07:46:00,34.3,32.0,29.57,South,171,60.0,60.0,91,0.48,,---,0.57,VWS V14.01,2013-01-11 13:46:00,
2013-01-11 07:47:00,34.3,32.8,29.57,South,172,60.0,60.0,94,0.48,,---,0.57,VWS V14.01,2013-01-11 13:47:00,
2013-01-11 07:48:00,34.3,32.0,29.57,South,184,60.0,60.0,91,0.48,,---,0.57,VWS V14.01,2013-01-11 13:48:00,
2013-01-11 07:49:00,34.3,32.0,29.57,South,178,60.0,60.0,91,0.48,,---,0.57,VWS V14.01,2013-01-11 13:49:00,
2013-01-11 07:50:00,34.3,32.0,29.57,South,184,60.0,60.0,91,0.48,,---,0.57,VWS V14.01,2013-01-11 13:50:00,
2013-01-11 07:51:00,34.3,32.0,29.57,South,171,60.0,60.0,91,0.48,,---,0.57,VWS V14.01,2013-01-11 13:51:00,
2013-01-11 07:52:00,34.3,32.0,29.57,South,178,60.0,60.0,91,0.48,,---,0.57,VWS V14.01,2013-01-11 13:52:00,
2013-01-11 07:53:00,34.3,32.0,29.57,South,174,60.0,60.0,91,0.48,,---,0.57,VWS V14.01,2013-01-11 13:53:00,
2013-01-11 07:54:00,34.3,32.0,29.57,South,176,60.0,60.0,91,0.48,,---,0.57,VWS V14.01,2013-01-11 13:54:00,
2013-01-11 07:55:00,34.3,32.0,29.57,South,174,60.0,60.0,91,0.48,,---,0.57,VWS V14.01,2013-01-11 13:55:00,
2013-01-11 07:56:00,34.3,32.0,29.57,South,174,60.0,60.0,91,0.48,,---,0.57,VWS V14.01,2013-01-11 13:56:00,
2013-01-11 07:57:00,34.3,32.0,29.57,South,184,60.0,60.0,91,0.48,,---,0.57,VWS V14.01,2013-01-11 13:57:00,
2013-01-11 07:58:00,34.3,32.0,29.57,South,171,60.0,60.0,91,0.48,,---,0.57,VWS V14.01,2013-01-11 13:58:00,
2013-01-11 07:59:00,34.3,31.4,29.57,South,176,60.0,60.0,89,0.48,,---,0.57,VWS V14.01,2013-01-11 13:59:00,
2013-01-11 08:00:00,34.3,32.0,29.57,South,171,60.0,60.0,91,0.48,,---,0.57,VWS V14.01,2013-01-11 14:00:00,
2013-01-11 08:01:00,34.3,32.0,29.57,South,172,60.0,60.0,91,0.34,,---,0.57,VWS V14.01,2013-01-11 14:01:00,
2013-01-11 08:02:00,34.3,31.1,29.57,South,184,60.0,60.0,88,0.34,,---,0.57,VWS V14.01,2013-01-11 14:02:00,
2013-01-11 08:03:00,34.3,31.4,29.57,South,178,60.0,60.0,89,0.34,,---,0.57,VWS V14.01,2013-01-11 14:03:00,
2013-01-11 08:04:00,34.3,32.0,29.57,South,181,60.0,60.0,91,0.34,,---,0.57,VWS V14.01,2013-01-11 14:04:00,
2013-01-11 08:05:00,34.3,32.0,29.57,South,184,60.0,60.0,91,0.34,,---,0.57,VWS V14.01,2013-01-11 14:05:00,
2013-01-11 08:06:00,34.3,32.0,29.57,South,184,60.0,60.0,91,0.34,,---,0.57,VWS V14.01,2013-01-11 14:06:00,
2013-01-11 08:07:00,34.3,30.8,29.57,South,182,60.0,60.0,87,0.34,,---,0.57,VWS V14.01,2013-01-11 14:07:00,
2013-01-11 08:08:00,34.3,32.0,29.57,South,178,60.0,60.0,91,0.34,,---,0.57,VWS V14.01,2013-01-11 14:08:00,
2013-01-11 08:09:00,34.1,31.8,29.57,South,171,60.0,60.0,91,0.34,,---,0.57,VWS V14.01,2013-01-11 14:09:00,
2013-01-11 08:10:00,34.1,31.8,29.57,South,171,60.0,60.0,91,0.34,,---,0.57,VWS V14.01,2013-01-11 14:10:00,
2013-01-11 08:11:00,34.1,31.8,29.57,South,172,60.0,60.0,91,0.34,,---,0.57,VWS V14.01,2013-01-11 14:11:00,
2013-01-11 08:12:00,34.1,31.8,29.57,South,178,60.0,60.0,91,0.34,,---,0.57,VWS V14.01,2013-01-11 14:12:00,
2013-01-11 08:13:00,34.1,31.8,29.57,South,174,60.0,60.0,91,0.34,,---,0.57,VWS V14.01,2013-01-11 14:13:00,
2013-01-11 08:14:00,34.1,31.8,29.57,South,182,60.0,60.0,91,0.34,,---,0.57,VWS V14.01,2013-01-11 14:14:00,
2013-01-11 08:15:00,34.1,31.8,29.57,South,184,60.0,60.0,91,0.34,,---,0.57,VWS V14.01,2013-01-11 14:15:00,
2013-01-11 08:16:00,34.1,31.8,29.57,South,178,60.0,60.0,91,0.34,,---,0.57,VWS V14.01,2013-01-11 14:16:00,
2013-01-11 08:17:00,34.1,31.8,29.57,South,184,60.0,60.0,91,0.34,,---,0.57,VWS V14.01,2013-01-11 14:17:00,
2013-01-11 08:18:00,34.1,31.8,29.57,South,184,60.0,60.0,91,0.34,,---,0.57,VWS V14.01,2013-01-11 14:18:00,
2013-01-11 08:19:00,34.1,31.8,29.57,South,179,60.0,60.0,91,0.34,,---,0.57,VWS V14.01,2013-01-11 14:19:00,
2013-01-11 08:20:00,34.1,31.8,29.57,South,182,60.0,60.0,91,0.34,,---,0.57,VWS V14.01,2013-01-11 14:20:00,
2013-01-11 08:21:00,34.3,32.0,29.57,South,181,60.0,60.0,91,0.34,,---,0.57,VWS V14.01,2013-01-11 14:21:00,
2013-01-11 08:22:00,34.1,31.8,29.57,South,171,60.0,60.0,91,0.34,,---,0.57,VWS V14.01,2013-01-11 14:22:00,
2013-01-11 08:23:00,34.1,32.8,29.57,South,171,60.0,60.0,95,0.34,,---,0.57,VWS V14.01,2013-01-11 14:23:00,
2013-01-11 08:24:00,34.3,32.0,29.57,South,184,60.0,60.0,91,0.34,,---,0.57,VWS V14.01,2013-01-11 14:24:00,
2013-01-11 08:25:00,34.1,30.6,29.57,South,172,60.0,60.0,87,0.34,,---,0.57,VWS V14.01,2013-01-11 14:25:00,
2013-01-11 08:26:00,34.3,32.0,29.57,South,184,60.0,60.0,91,0.34,,---,0.57,VWS V14.01,2013-01-11 14:26:00,
2013-01-11 08:27:00,34.1,31.8,29.57,South,171,60.0,60.0,91,0.34,,---,0.57,VWS V14.01,2013-01-11 14:27:00,
2013-01-11 08:28:00,34.1,31.8,29.57,South,171,60.0,60.0,91,0.34,,---,0.57,VWS V14.01,2013-01-11 14:28:00,
2013-01-11 08:29:00,34.3,32.0,29.57,South,184,60.0,60.0,91,0.34,,---,0.57,VWS V14.01,2013-01-11 14:29:00,
2013-01-11 08:30:00,34.1,31.8,29.57,South,182,60.0,60.0,91,0.34,,---,0.57,VWS V14.01,2013-01-11 14:30:00,
2013-01-11 08:31:00,34.3,32.0,29.57,South,172,60.0,60.0,91,0.14,,---,0.57,VWS V14.01,2013-01-11 14:31:00,
2013-01-11 08:32:00,34.3,32.5,29.57,South,175,60.0,60.0,93,0.14,,---,0.57,VWS V14.01,2013-01-11 14:32:00,
2013-01-11 08:33:00,34.3,32.0,29.57,South,184,60.0,60.0,91,0.14,,---,0.57,VWS V14.01,2013-01-11 14:33:00,
2013-01-11 08:34:00,34.1,31.8,29.57,South,171,60.0,60.0,91,0.14,,---,0.57,VWS V14.01,2013-01-11 14:34:00,
2013-01-11 08:35:00,34.1,31.8,29.57,South,172,60.0,60.0,91,0.14,,---,0.57,VWS V14.01,2013-01-11 14:35:00,
2013-01-11 08:36:00,34.3,32.0,29.57,South,184,60.0,60.0,91,0.14,,---,0.57,VWS V14.01,2013-01-11 14:36:00,
2013-01-11 08:37:00,34.1,31.8,29.57,South,181,60.0,60.0,91,0.14,,---,0.57,VWS V14.01,2013-01-11 14:37:00,
2013-01-11 08:38:00,34.1,31.8,29.57,South,172,60.0,60.0,91,0.14,,---,0.57,VWS V14.01,2013-01-11 14:38:00,
2013-01-11 08:39:00,34.1,31.8,29.57,South,171,60.0,60.0,91,0.14,,---,0.57,VWS V14.01,2013-01-11 14:39:00,
2013-01-11 08:40:00,34.3,32.0,29.57,South,175,60.0,60.0,91,0.14,,---,0.57,VWS V14.01,2013-01-11 14:40:00,
2013-01-11 08:41:00,34.3,32.0,29.57,South,171,60.0,60.0,91,0.14,,---,0.57,VWS V14.01,2013-01-11 14:41:00,
2013-01-11 08:42:00,34.3,32.0,29.57,South,184,60.0,60.0,91,0.14,,---,0.57,VWS V14.01,2013-01-11 14:42:00,
2013-01-11 08:43:00,34.3,32.0,29.57,South,182,60.0,60.0,91,0.14,,---,0.57,VWS V14.01,2013-01-11 14:43:00,
2013-01-11 08:44:00,34.3,32.0,29.57,South,172,60.0,60.0,91,0.14,,---,0.57,VWS V14.01,2013-01-11 14:44:00,
2013-01-11 08:45:00,34.3,32.0,29.57,South,182,60.0,60.0,91,0.14,,---,0.57,VWS V14.01,2013-01-11 14:45:00,
2013-01-11 08:46:00,34.3,32.0,29.57,South,184,60.0,60.0,91,0.14,,---,0.57,VWS V14.01,2013-01-11 14:46:00,
2013-01-11 08:47:00,34.3,32.2,29.57,South,174,60.0,60.0,92,0.14,,---,0.57,VWS V14.01,2013-01-11 14:47:00,
2013-01-11 08:48:00,34.3,31.4,29.57,South,178,60.0,60.0,89,0.14,,---,0.57,VWS V14.01,2013-01-11 14:48:00,
2013-01-11 08:49:00,34.3,31.4,29.57,South,184,60.0,60.0,89,0.14,,---,0.57,VWS V14.01,2013-01-11 14:49:00,
2013-01-11 08:50:00,34.3,32.0,29.57,South,184,60.0,60.0,91,0.14,,---,0.57,VWS V14.01,2013-01-11 14:50:00,
2013-01-11 08:51:00,34.3,32.0,29.57,South,171,60.0,60.0,91,0.14,,---,0.57,VWS V14.01,2013-01-11 14:51:00,
2013-01-11 08:52:00,34.3,33.0,29.57,South,174,60.0,60.0,95,0.14,,---,0.57,VWS V14.01,2013-01-11 14:52:00,
2013-01-11 08:53:00,34.3,32.0,29.57,South,171,60.0,60.0,91,0.14,,---,0.57,VWS V14.01,2013-01-11 14:53:00,
2013-01-11 08:54:00,34.3,32.0,29.57,South,178,60.0,60.0,91,0.14,,---,0.57,VWS V14.01,2013-01-11 14:54:00,
2013-01-11 08:55:00,34.1,31.8,29.57,South,175,60.0,60.0,91,0.14,,---,0.57,VWS V14.01,2013-01-11 14:55:00,
2013-01-11 08:56:00,34.0,31.6,29.57,South,178,60.0,60.0,91,0.14,,---,0.57,VWS V14.01,2013-01-11 14:56:00,
2013-01-11 08:57:00,33.8,31.5,29.57,South,171,60.0,60.0,91,0.14,,---,0.57,VWS V14.01,2013-01-11 14:57:00,
2013-01-11 08:58:00,33.8,31.5,29.57,South,178,60.0,60.0,91,0.14,,---,0.57,VWS V14.01,2013-01-11 14:58:00,
2013-01-11 08:59:00,33.7,31.1,29.57,South,181,60.0,60.0,90,0.14,,---,0.57,VWS V14.01,2013-01-11 14:59:00,
2013-01-11 09:00:00,33.5,30.9,29.58,South,175,60.0,60.0,90,0.14,,---,0.57,VWS V14.01,2013-01-11 15:00:00,
2013-01-11 09:01:00,33.5,30.9,29.58,North,7,60.0,60.0,90,0.00,,---,0.57,VWS V14.01,2013-01-11 15:01:00,
2013-01-11 09:02:00,33.4,30.8,29.58,North,6,60.0,60.0,90,0.00,,---,0.57,VWS V14.01,2013-01-11 15:02:00,
2013-01-11 09:03:00,33.4,30.8,29.58,North,6,60.0,60.0,90,0.00,,---,0.57,VWS V14.01,2013-01-11 15:03:00,
2013-01-11 09:04:00,33.2,30.6,29.58,North,7,60.0,60.0,90,0.00,,---,0.57,VWS V14.01,2013-01-11 15:04:00,
2013-01-11 09:05:00,33.1,30.5,29.58,North,6,60.0,60.0,90,0.00,,---,0.57,VWS V14.01,2013-01-11 15:05:00,
2013-01-11 09:06:00,33.1,30.5,29.58,North,6,60.0,60.0,90,0.00,,---,0.57,VWS V14.01,2013-01-11 15:06:00,
2013-01-11 09:07:00,33.1,30.5,29.58,NNE,17,60.0,60.0,90,0.00,,---,0.57,VWS V14.01,2013-01-11 15:07:00,
2013-01-11 09:08:00,33.1,30.5,29.58,North,0,60.0,60.0,90,0.00,,---,0.57,VWS V14.01,2013-01-11 15:08:00,
2013-01-11 09:09:00,32.9,30.3,29.58,NNE,30,60.0,60.0,90,0.00,,---,0.57,VWS V14.01,2013-01-11 15:09:00,
2013-01-11 09:10:00,32.8,30.2,29.58,North,0,60.0,60.0,90,0.00,,---,0.57,VWS V14.01,2013-01-11 15:10:00,
2013-01-11 09:11:00,32.7,30.4,29.58,NNE,16,60.0,60.0,91,0.00,,---,0.57,VWS V14.01,2013-01-11 15:11:00,
2013-01-11 09:12:00,32.5,29.9,29.58,NNE,13,60.0,60.0,90,0.00,,---,0.57,VWS V14.01,2013-01-11 15:12:00,
2013-01-11 09:13:00,32.4,29.8,29.58,SE,141,60.0,60.0,90,0.00,,---,0.57,VWS V14.01,2013-01-11 15:13:00,
2013-01-11 09:14:00,32.4,29.8,29.58,North,0,60.0,60.0,90,0.00,,---,0.57,VWS V14.01,2013-01-11 15:14:00,
2013-01-11 09:15:00,31.9,29.3,29.58,North,353,60.0,60.0,90,0.00,,---,0.57,VWS V14.01,2013-01-11 15:15:00,
2013-01-11 09:16:00,32.1,29.5,29.58,North,0,60.0,60.0,90,0.01,,---,0.58,VWS V14.01,2013-01-11 15:16:00,
2013-01-11 09:17:00,31.9,29.3,29.58,NE,37,60.0,60.0,90,0.01,,---,0.58,VWS V14.01,2013-01-11 15:17:00,
2013-01-11 09:18:00,31.8,28.9,29.58,NNE,25,60.0,60.0,89,0.01,,---,0.58,VWS V14.01,2013-01-11 15:18:00,
2013-01-11 09:19:00,31.6,29.0,29.58,NNE,32,60.0,60.0,90,0.01,,---,0.58,VWS V14.01,2013-01-11 15:19:00,
2013-01-11 09:20:00,31.6,29.0,29.58,NNE,28,60.0,60.0,90,0.01,,---,0.58,VWS V14.01,2013-01-11 15:20:00,
2013-01-11 09:21:00,31.6,29.0,29.58,NNE,27,60.0,60.0,90,0.01,,---,0.58,VWS V14.01,2013-01-11 15:21:00,
2013-01-11 09:22:00,31.6,29.0,29.58,North,0,60.0,60.0,90,0.01,,---,0.58,VWS V14.01,2013-01-11 15:22:00,
2013-01-11 09:23:00,31.5,28.9,29.58,NNE,16,60.0,60.0,90,0.01,,---,0.58,VWS V14.01,2013-01-11 15:23:00,
2013-01-11 09:24:00,31.2,28.6,29.58,NNW,344,60.0,60.0,90,0.01,,---,0.58,VWS V14.01,2013-01-11 15:24:00,
2013-01-11 09:25:00,31.5,28.9,29.58,North,6,60.0,60.0,90,0.01,,---,0.58,VWS V14.01,2013-01-11 15:25:00,
2013-01-11 09:26:00,31.3,28.7,29.58,North,11,60.0,60.0,90,0.01,,---,0.58,VWS V14.01,2013-01-11 15:26:00,
2013-01-11 09:27:00,31.3,27.9,29.58,North,7,60.0,60.0,87,0.01,,---,0.58,VWS V14.01,2013-01-11 15:27:00,
2013-01-11 09:28:00,31.3,28.7,29.58,North,7,60.0,60.0,90,0.01,,---,0.58,VWS V14.01,2013-01-11 15:28:00,
2013-01-11 09:29:00,31.2,28.6,29.58,NNE,24,60.0,60.0,90,0.01,,---,0.58,VWS V14.01,2013-01-11 15:29:00,
2013-01-11 09:30:00,31.2,28.6,29.56,NE,38,60.0,60.0,90,0.01,,---,0.58,VWS V14.01,2013-01-11 15:30:00,
2013-01-11 09:31:00,31.2,28.6,29.56,NNE,21,60.0,60.0,90,0.01,,---,0.58,VWS V14.01,2013-01-11 15:31:00,
2013-01-11 09:32:00,31.2,28.6,29.56,NNE,23,60.0,60.0,90,0.01,,---,0.58,VWS V14.01,2013-01-11 15:32:00,
2013-01-11 09:33:00,31.0,28.4,29.56,NNE,13,60.0,60.0,90,0.01,,---,0.58,VWS V14.01,2013-01-11 15:33:00,
2013-01-11 09:34:00,31.0,28.4,29.56,North,11,60.0,60.0,90,0.01,,---,0.58,VWS V14.01,2013-01-11 15:34:00,
2013-01-11 09:35:00,31.0,28.4,29.56,NNE,23,60.0,60.0,90,0.01,,---,0.58,VWS V14.01,2013-01-11 15:35:00,
2013-01-11 09:36:00,31.0,28.4,29.56,NNE,16,60.0,60.0,90,0.01,,---,0.58,VWS V14.01,2013-01-11 15:36:00,
2013-01-11 09:37:00,30.9,28.3,29.56,North,359,60.0,60.0,90,0.01,,---,0.58,VWS V14.01,2013-01-11 15:37:00,
2013-01-11 09:38:00,30.9,28.3,29.56,SSE,160,60.0,60.0,90,0.01,,---,0.58,VWS V14.01,2013-01-11 15:38:00,
2013-01-11 09:39:00,30.9,28.3,29.56,NE,40,60.0,60.0,90,0.01,,---,0.58,VWS V14.01,2013-01-11 15:39:00,
2013-01-11 09:40:00,30.7,27.9,29.56,North,1,60.0,60.0,89,0.01,,---,0.58,VWS V14.01,2013-01-11 15:40:00,
2013-01-11 09:41:00,30.7,28.1,29.56,NE,34,60.0,60.0,90,0.01,,---,0.58,VWS V14.01,2013-01-11 15:41:00,
2013-01-11 09:42:00,30.7,28.1,29.56,NNE,20,60.0,60.0,90,0.01,,---,0.58,VWS V14.01,2013-01-11 15:42:00,
2013-01-11 09:43:00,30.7,27.0,29.56,North,1,60.0,60.0,86,0.01,,---,0.58,VWS V14.01,2013-01-11 15:43:00,
2013-01-11 09:44:00,30.7,28.1,29.56,North,0,60.0,60.0,90,0.01,,---,0.58,VWS V14.01,2013-01-11 15:44:00,
2013-01-11 09:45:00,30.7,29.2,29.56,North,0,60.0,60.0,94,0.01,,---,0.58,VWS V14.01,2013-01-11 15:45:00,
2013-01-11 09:46:00,30.7,29.2,29.56,North,0,60.0,60.0,94,0.01,,---,0.58,VWS V14.01,2013-01-11 15:46:00,
2013-01-11 09:47:00,30.7,28.1,29.56,North,0,60.0,60.0,90,0.01,,---,0.58,VWS V14.01,2013-01-11 15:47:00,
2013-01-11 09:48:00,30.7,28.1,29.56,NNE,17,60.0,60.0,90,0.01,,---,0.58,VWS V14.01,2013-01-11 15:48:00,
2013-01-11 09:49:00,30.6,28.0,29.56,North,359,60.0,60.0,90,0.01,,---,0.58,VWS V14.01,2013-01-11 15:49:00,
2013-01-11 09:50:00,30.6,28.0,29.56,NNE,13,60.0,60.0,90,0.01,,---,0.58,VWS V14.01,2013-01-11 15:50:00,
2013-01-11 09:51:00,30.4,28.9,29.56,North,4,60.0,60.0,94,0.01,,---,0.58,VWS V14.01,2013-01-11 15:51:00,
2013-01-11 09:52:00,30.4,27.8,29.56,North,1,60.0,60.0,90,0.01,,---,0.58,VWS V14.01,2013-01-11 15:52:00,
2013-01-11 09:53:00,30.1,28.1,29.56,North,0,60.0,60.0,92,0.01,,---,0.58,VWS V14.01,2013-01-11 15:53:00,
2013-01-11 09:54:00,30.3,27.7,29.56,North,0,60.0,60.0,90,0.01,,---,0.58,VWS V14.01,2013-01-11 15:54:00,
2013-01-11 09:55:00,30.3,27.7,29.56,North,0,60.0,60.0,90,0.01,,---,0.58,VWS V14.01,2013-01-11 15:55:00,
2013-01-11 09:56:00,30.3,27.7,29.56,SE,141,60.0,60.0,90,0.01,,---,0.58,VWS V14.01,2013-01-11 15:56:00,
2013-01-11 09:57:00,30.1,27.5,29.56,North,0,60.0,60.0,90,0.01,,---,0.58,VWS V14.01,2013-01-11 15:57:00,
2013-01-11 09:58:00,30.1,27.5,29.56,North,0,60.0,60.0,90,0.01,,---,0.58,VWS V14.01,2013-01-11 15:58:00,
2013-01-11 09:59:00,30.1,27.5,29.56,North,4,60.0,60.0,90,0.01,,---,0.58,VWS V14.01,2013-01-11 15:59:00,
2013-01-11 10:00:00,30.1,27.5,29.57,North,0,60.0,60.0,90,0.01,,---,0.58,VWS V14.01,2013-01-11 16:00:00,
2013-01-11 10:01:00,29.8,27.8,29.57,North,0,60.0,60.0,92,0.01,,---,0.58,VWS V14.01,2013-01-11 16:01:00,
2013-01-11 10:02:00,30.1,27.5,29.57,North,0,60.0,60.0,90,0.01,,---,0.58,VWS V14.01,2013-01-11 16:02:00,
2013-01-11 10:03:00,30.0,27.4,29.57,North,0,60.0,60.0,90,0.01,,---,0.58,VWS V14.01,2013-01-11 16:03:00,
2013-01-11 10:04:00,30.0,27.4,29.57,NNE,30,60.0,60.0,90,0.01,,---,0.58,VWS V14.01,2013-01-11 16:04:00,
2013-01-11 10:05:00,30.0,27.4,29.57,NNE,13,60.0,60.0,90,0.01,,---,0.58,VWS V14.01,2013-01-11 16:05:00,
2013-01-11 10:06:00,29.7,27.1,29.57,North,359,60.0,60.0,90,0.01,,---,0.58,VWS V14.01,2013-01-11 16:06:00,
2013-01-11 10:07:00,29.8,27.2,29.57,North,4,60.0,60.0,90,0.01,,---,0.58,VWS V14.01,2013-01-11 16:07:00,
2013-01-11 10:08:00,29.8,27.2,29.57,NNE,20,60.0,60.0,90,0.01,,---,0.58,VWS V14.01,2013-01-11 16:08:00,
2013-01-11 10:09:00,29.7,27.1,29.57,North,3,60.0,60.0,90,0.01,,---,0.58,VWS V14.01,2013-01-11 16:09:00,
2013-01-11 10:10:00,29.5,26.9,29.57,North,11,60.0,60.0,90,0.01,,---,0.58,VWS V14.01,2013-01-11 16:10:00,
2013-01-11 10:11:00,29.5,25.8,29.57,NNE,13,60.0,60.0,86,0.01,,---,0.58,VWS V14.01,2013-01-11 16:11:00,
2013-01-11 10:12:00,29.5,26.9,29.57,NNE,13,60.0,60.0,90,0.01,,---,0.58,VWS V14.01,2013-01-11 16:12:00,
2013-01-11 10:13:00,29.5,26.9,29.57,North,0,60.0,60.0,90,0.01,,---,0.58,VWS V14.01,2013-01-11 16:13:00,
2013-01-11 10:14:00,29.5,26.9,29.57,North,4,60.0,60.0,90,0.01,,---,0.58,VWS V14.01,2013-01-11 16:14:00,
2013-01-11 10:15:00,29.4,26.8,29.58,North,4,60.0,60.0,90,0.01,,---,0.58,VWS V14.01,2013-01-11 16:15:00,
2013-01-11 10:16:00,29.3,26.7,29.58,North,11,60.0,60.0,90,0.01,,---,0.58,VWS V14.01,2013-01-11 16:16:00,
2013-01-11 10:17:00,29.3,26.7,29.58,North,6,60.0,60.0,90,0.01,,---,0.58,VWS V14.01,2013-01-11 16:17:00,
2013-01-11 10:18:00,29.1,26.5,29.58,NNE,16,60.0,60.0,90,0.01,,---,0.58,VWS V14.01,2013-01-11 16:18:00,
2013-01-11 10:19:00,29.1,26.5,29.58,NNE,27,60.0,60.0,90,0.01,,---,0.58,VWS V14.01,2013-01-11 16:19:00,
2013-01-11 10:20:00,29.1,26.0,29.58,North,10,60.0,60.0,88,0.01,,---,0.58,VWS V14.01,2013-01-11 16:20:00,
2013-01-11 10:21:00,29.0,26.4,29.58,NNE,24,60.0,60.0,90,0.01,,---,0.58,VWS V14.01,2013-01-11 16:21:00,
2013-01-11 10:22:00,29.0,26.4,29.58,NNE,32,60.0,60.0,90,0.01,,---,0.58,VWS V14.01,2013-01-11 16:22:00,
2013-01-11 10:23:00,29.0,26.4,29.58,NNE,23,60.0,60.0,90,0.01,,---,0.58,VWS V14.01,2013-01-11 16:23:00,
2013-01-11 10:24:00,29.0,26.4,29.58,North,11,60.0,60.0,90,0.01,,---,0.58,VWS V14.01,2013-01-11 16:24:00,
2013-01-11 10:25:00,28.7,26.7,29.58,ESE,114,60.0,60.0,92,0.01,,---,0.58,VWS V14.01,2013-01-11 16:25:00,
2013-01-11 10:26:00,28.8,26.2,29.58,North,3,60.0,60.0,90,0.01,,---,0.58,VWS V14.01,2013-01-11 16:26:00,
2013-01-11 10:27:00,28.8,26.2,29.58,NNE,13,60.0,60.0,90,0.01,,---,0.58,VWS V14.01,2013-01-11 16:27:00,
2013-01-11 10:28:00,28.8,26.2,29.58,North,359,60.0,60.0,90,0.01,,---,0.58,VWS V14.01,2013-01-11 16:28:00,
2013-01-11 10:29:00,28.5,26.0,29.58,North,359,60.0,60.0,90,0.01,,---,0.58,VWS V14.01,2013-01-11 16:29:00,
2013-01-11 10:30:00,28.5,26.0,29.58,North,359,60.0,60.0,90,0.01,,---,0.58,VWS V14.01,2013-01-11 16:30:00,
2013-01-11 10:31:00,28.8,26.2,29.58,North,10,60.0,60.0,90,0.00,,---,0.58,VWS V14.01,2013-01-11 16:31:00,
2013-01-11 10:32:00,28.8,26.2,29.58,North,3,60.0,60.0,90,0.00,,---,0.58,VWS V14.01,2013-01-11 16:32:00,
2013-01-11 10:33:00,28.8,26.2,29.58,North,0,60.0,60.0,90,0.00,,---,0.58,VWS V14.01,2013-01-11 16:33:00,
2013-01-11 10:34:00,28.8,26.2,29.58,North,4,60.0,60.0,90,0.00,,---,0.58,VWS V14.01,2013-01-11 16:34:00,
2013-01-11 10:35:00,28.8,26.2,29.58,North,6,60.0,60.0,90,0.00,,---,0.58,VWS V14.01,2013-01-11 16:35:00,
2013-01-11 10:36:00,28.5,26.5,29.58,North,357,60.0,60.0,92,0.00,,---,0.58,VWS V14.01,2013-01-11 16:36:00,
2013-01-11 10:37:00,28.5,26.0,29.58,North,353,60.0,60.0,90,0.00,,---,0.58,VWS V14.01,2013-01-11 16:37:00,
2013-01-11 10:38:00,28.7,26.1,29.58,North,4,60.0,60.0,90,0.00,,---,0.58,VWS V14.01,2013-01-11 16:38:00,
2013-01-11 10:39:00,28.5,25.1,29.58,SE,128,60.0,60.0,87,0.00,,---,0.58,VWS V14.01,2013-01-11 16:39:00,
2013-01-11 10:40:00,28.7,24.8,29.58,North,8,60.0,60.0,85,0.00,,---,0.58,VWS V14.01,2013-01-11 16:40:00,
2013-01-11 10:41:00,28.5,24.6,29.58,North,0,60.0,60.0,85,0.00,,---,0.58,VWS V14.01,2013-01-11 16:41:00,
2013-01-11 10:42:00,28.4,25.9,29.58,North,357,60.0,60.0,90,0.00,,---,0.58,VWS V14.01,2013-01-11 16:42:00,
2013-01-11 10:43:00,28.5,26.0,29.58,WSW,243,60.0,60.0,90,0.00,,---,0.58,VWS V14.01,2013-01-11 16:43:00,
2013-01-11 10:44:00,28.4,25.9,29.58,North,359,60.0,60.0,90,0.00,,---,0.58,VWS V14.01,2013-01-11 16:44:00,
2013-01-11 10:45:00,28.5,26.0,29.59,North,4,60.0,60.0,90,0.00,,---,0.58,VWS V14.01,2013-01-11 16:45:00,
2013-01-11 10:46:00,28.5,26.2,29.59,North,0,60.0,60.0,91,0.00,,---,0.58,VWS V14.01,2013-01-11 16:46:00,
2013-01-11 10:47:00,28.5,26.0,29.59,North,0,60.0,60.0,90,0.00,,---,0.58,VWS V14.01,2013-01-11 16:47:00,
2013-01-11 10:48:00,28.5,26.0,29.59,NNE,14,60.0,60.0,90,0.00,,---,0.58,VWS V14.01,2013-01-11 16:48:00,
2013-01-11 10:49:00,28.4,25.9,29.59,North,1,60.0,60.0,90,0.00,,---,0.58,VWS V14.01,2013-01-11 16:49:00,
2013-01-11 10:50:00,28.4,25.9,29.59,North,1,60.0,60.0,90,0.00,,---,0.58,VWS V14.01,2013-01-11 16:50:00,
2013-01-11 10:51:00,28.4,26.6,29.59,North,6,60.0,60.0,93,0.00,,---,0.58,VWS V14.01,2013-01-11 16:51:00,
2013-01-11 10:52:00,28.4,26.4,29.59,North,6,60.0,60.0,92,0.00,,---,0.58,VWS V14.01,2013-01-11 16:52:00,
2013-01-11 10:53:00,28.4,25.9,29.59,North,4,60.0,60.0,90,0.00,,---,0.58,VWS V14.01,2013-01-11 16:53:00,
2013-01-11 10:54:00,28.4,25.9,29.59,North,3,60.0,60.0,90,0.00,,---,0.58,VWS V14.01,2013-01-11 16:54:00,
2013-01-11 10:55:00,28.4,25.9,29.59,North,3,60.0,60.0,90,0.00,,---,0.58,VWS V14.01,2013-01-11 16:55:00,
2013-01-11 10:56:00,28.4,25.9,29.59,North,3,60.0,60.0,90,0.00,,---,0.58,VWS V14.01,2013-01-11 16:56:00,
2013-01-11 10:57:00,28.4,25.9,29.59,North,3,60.0,60.0,90,0.00,,---,0.58,VWS V14.01,2013-01-11 16:57:00,
2013-01-11 10:58:00,28.4,25.9,29.59,North,6,60.0,60.0,90,0.00,,---,0.58,VWS V14.01,2013-01-11 16:58:00,
2013-01-11 10:59:00,28.2,25.6,29.59,North,359,60.0,60.0,90,0.00,,---,0.58,VWS V14.01,2013-01-11 16:59:00,
2013-01-11 11:00:00,28.4,25.9,29.58,North,4,60.0,60.0,90,0.00,,---,0.58,VWS V14.01,2013-01-11 17:00:00,
2013-01-11 11:01:00,28.4,25.9,29.58,North,6,60.0,60.0,90,0.00,,---,0.58,VWS V14.01,2013-01-11 17:01:00,
2013-01-11 11:02:00,28.4,25.9,29.58,North,0,60.0,60.0,90,0.00,,---,0.58,VWS V14.01,2013-01-11 17:02:00,
2013-01-11 11:03:00,28.2,25.6,29.58,North,10,60.0,60.0,90,0.00,,---,0.58,VWS V14.01,2013-01-11 17:03:00,
2013-01-11 11:04:00,28.2,25.6,29.58,North,8,60.0,60.0,90,0.00,,---,0.58,VWS V14.01,2013-01-11 17:04:00,
2013-01-11 11:05:00,28.2,25.6,29.58,North,10,60.0,60.0,90,0.00,,---,0.58,VWS V14.01,2013-01-11 17:05:00,
2013-01-11 11:06:00,28.2,25.6,29.58,North,0,60.0,60.0,90,0.00,,---,0.58,VWS V14.01,2013-01-11 17:06:00,
2013-01-11 11:07:00,28.2,25.6,29.58,North,0,60.0,60.0,90,0.00,,---,0.58,VWS V14.01,2013-01-11 17:07:00,
2013-01-11 11:08:00,28.2,25.6,29.58,NNE,23,60.0,60.0,90,0.00,,---,0.58,VWS V14.01,2013-01-11 17:08:00,
2013-01-11 11:09:00,28.2,25.6,29.58,SW,233,60.0,60.0,90,0.00,,---,0.58,VWS V14.01,2013-01-11 17:09:00,
2013-01-11 11:10:00,27.9,25.4,29.58,North,356,60.0,60.0,90,0.00,,---,0.58,VWS V14.01,2013-01-11 17:10:00,
2013-01-11 11:11:00,27.9,25.4,29.58,NNE,17,60.0,60.0,90,0.00,,---,0.58,VWS V14.01,2013-01-11 17:11:00,
2013-01-11 11:12:00,27.9,25.4,29.58,North,10,60.0,60.0,90,0.00,,---,0.58,VWS V14.01,2013-01-11 17:12:00,
2013-01-11 11:13:00,27.8,25.2,29.58,NNE,20,60.0,60.0,90,0.00,,---,0.58,VWS V14.01,2013-01-11 17:13:00,
2013-01-11 11:14:00,27.8,25.2,29.57,North,1,60.0,60.0,90,0.00,,---,0.58,VWS V14.01,2013-01-11 17:14:00,
2013-01-11 11:15:00,27.8,25.2,29.57,NNE,27,60.0,60.0,90,0.00,,---,0.58,VWS V14.01,2013-01-11 17:15:00,
2013-01-11 11:16:00,27.8,24.2,29.57,NNE,25,60.0,60.0,86,0.00,,---,0.58,VWS V14.01,2013-01-11 17:16:00,
2013-01-11 11:17:00,27.8,25.2,29.57,North,0,60.0,60.0,90,0.00,,---,0.58,VWS V14.01,2013-01-11 17:17:00,
2013-01-11 11:18:00,27.6,25.1,29.57,North,6,60.0,60.0,90,0.00,,---,0.58,VWS V14.01,2013-01-11 17:18:00,
2013-01-11 11:19:00,27.6,25.1,29.57,NNE,17,60.0,60.0,90,0.00,,---,0.58,VWS V14.01,2013-01-11 17:19:00,
2013-01-11 11:20:00,27.6,25.8,29.57,North,10,60.0,60.0,93,0.00,,---,0.58,VWS V14.01,2013-01-11 17:20:00,
2013-01-11 11:21:00,27.6,25.1,29.57,North,0,60.0,60.0,90,0.00,,---,0.58,VWS V14.01,2013-01-11 17:21:00,
2013-01-11 11:22:00,27.5,25.0,29.57,North,356,60.0,60.0,90,0.00,,---,0.58,VWS V14.01,2013-01-11 17:22:00,
2013-01-11 11:23:00,27.6,25.1,29.57,North,0,60.0,60.0,90,0.00,,---,0.58,VWS V14.01,2013-01-11 17:23:00,
2013-01-11 11:24:00,27.6,25.1,29.57,NNE,18,60.0,60.0,90,0.00,,---,0.58,VWS V14.01,2013-01-11 17:24:00,
2013-01-11 11:25:00,27.6,25.1,29.57,North,0,60.0,60.0,90,0.00,,---,0.58,VWS V14.01,2013-01-11 17:25:00,
2013-01-11 11:26:00,27.5,25.5,29.57,SW,236,60.0,60.0,92,0.00,,---,0.58,VWS V14.01,2013-01-11 17:26:00,
2013-01-11 11:27:00,27.5,25.0,29.57,NNE,32,60.0,60.0,90,0.00,,---,0.58,VWS V14.01,2013-01-11 17:27:00,
2013-01-11 11:28:00,27.3,24.8,29.57,NNE,13,60.0,60.0,90,0.00,,---,0.58,VWS V14.01,2013-01-11 17:28:00,
2013-01-11 11:29:00,27.3,24.8,29.55,North,10,60.0,60.0,90,0.00,,---,0.58,VWS V14.01,2013-01-11 17:29:00,
2013-01-11 11:30:00,27.3,24.8,29.55,North,0,60.0,60.0,90,0.00,,---,0.58,VWS V14.01,2013-01-11 17:30:00,
2013-01-11 11:31:00,27.3,24.8,29.55,North,0,60.0,60.0,90,0.00,,---,0.58,VWS V14.01,2013-01-11 17:31:00,
2013-01-11 11:32:00,27.3,24.2,29.55,North,0,60.0,60.0,88,0.00,,---,0.58,VWS V14.01,2013-01-11 17:32:00,
2013-01-11 11:33:00,27.2,24.7,29.55,NNW,344,60.0,60.0,90,0.00,,---,0.58,VWS V14.01,2013-01-11 17:33:00,
2013-01-11 11:34:00,27.3,24.8,29.55,North,4,60.0,60.0,90,0.00,,---,0.58,VWS V14.01,2013-01-11 17:34:00,
2013-01-11 11:35:00,27.3,24.8,29.55,North,359,60.0,60.0,90,0.00,,---,0.58,VWS V14.01,2013-01-11 17:35:00,
2013-01-11 11:36:00,27.3,24.8,29.55,North,0,60.0,60.0,90,0.00,,---,0.58,VWS V14.01,2013-01-11 17:36:00,
2013-01-11 11:37:00,27.0,24.5,29.55,North,359,60.0,60.0,90,0.00,,---,0.58,VWS V14.01,2013-01-11 17:37:00,
2013-01-11 11:38:00,27.2,24.7,29.55,North,0,60.0,60.0,90,0.00,,---,0.58,VWS V14.01,2013-01-11 17:38:00,
2013-01-11 11:39:00,27.2,24.7,29.55,NNW,340,60.0,60.0,90,0.00,,---,0.58,VWS V14.01,2013-01-11 17:39:00,
2013-01-11 11:40:00,26.9,24.4,29.55,North,357,60.0,60.0,90,0.00,,---,0.58,VWS V14.01,2013-01-11 17:40:00,
2013-01-11 11:41:00,27.0,24.5,29.55,North,10,60.0,60.0,90,0.00,,---,0.58,VWS V14.01,2013-01-11 17:41:00,
2013-01-11 11:42:00,26.9,24.4,29.55,North,3,60.0,60.0,90,0.00,,---,0.58,VWS V14.01,2013-01-11 17:42:00,
2013-01-11 11:43:00,26.9,24.4,29.55,NNE,18,60.0,60.0,90,0.00,,---,0.58,VWS V14.01,2013-01-11 17:43:00,
2013-01-11 11:44:00,26.7,24.2,29.55,South,181,60.0,60.0,90,0.00,,---,0.58,VWS V14.01,2013-01-11 17:44:00,
2013-01-11 11:45:00,26.9,24.4,29.55,North,0,60.0,60.0,90,0.00,,---,0.58,VWS V14.01,2013-01-11 17:45:00,
2013-01-11 11:46:00,26.9,24.4,29.55,North,0,60.0,60.0,90,0.00,,---,0.58,VWS V14.01,2013-01-11 17:46:00,
2013-01-11 11:47:00,26.9,24.4,29.55,North,0,60.0,60.0,90,0.00,,---,0.58,VWS V14.01,2013-01-11 17:47:00,
2013-01-11 11:48:00,26.9,24.4,29.55,North,0,60.0,60.0,90,0.00,,---,0.58,VWS V14.01,2013-01-11 17:48:00,
2013-01-11 11:49:00,26.9,24.4,29.55,North,0,60.0,60.0,90,0.00,,---,0.58,VWS V14.01,2013-01-11 17:49:00,
2013-01-11 11:50:00,26.7,24.2,29.55,West,281,60.0,60.0,90,0.00,,---,0.58,VWS V14.01,2013-01-11 17:50:00,
2013-01-11 11:51:00,26.9,24.4,29.55,North,0,60.0,60.0,90,0.00,,---,0.58,VWS V14.01,2013-01-11 17:51:00,
2013-01-11 11:52:00,26.9,24.4,29.55,North,6,60.0,60.0,90,0.00,,---,0.58,VWS V14.01,2013-01-11 17:52:00,
2013-01-11 11:53:00,26.9,24.4,29.55,North,0,60.0,60.0,90,0.00,,---,0.58,VWS V14.01,2013-01-11 17:53:00,
2013-01-11 11:54:00,26.9,24.4,29.55,North,0,60.0,60.0,90,0.00,,---,0.58,VWS V14.01,2013-01-11 17:54:00,
2013-01-11 11:55:00,26.9,24.4,29.55,North,4,60.0,60.0,90,0.00,,---,0.58,VWS V14.01,2013-01-11 17:55:00,
2013-01-11 11:56:00,26.9,24.4,29.55,North,3,60.0,60.0,90,0.00,,---,0.58,VWS V14.01,2013-01-11 17:56:00,
2013-01-11 11:57:00,26.7,24.2,29.55,North,3,60.0,60.0,90,0.00,,---,0.58,VWS V14.01,2013-01-11 17:57:00,
2013-01-11 11:58:00,26.7,24.2,29.55,North,0,60.0,60.0,90,0.00,,---,0.58,VWS V14.01,2013-01-11 17:58:00,
2013-01-11 11:59:00,26.7,24.2,29.55,North,0,60.0,60.0,90,0.00,,---,0.58,VWS V14.01,2013-01-11 17:59:00,
2013-01-11 12:00:00,26.6,24.1,29.56,North,0,60.0,60.0,90,0.00,,---,0.58,VWS V14.01,2013-01-11 18:00:00,
2013-01-11 12:01:00,26.6,24.1,29.56,North,0,60.0,60.0,90,0.00,,---,0.58,VWS V14.01,2013-01-11 18:01:00,
2013-01-11 12:02:00,26.4,23.9,29.56,NNW,339,60.0,60.0,90,0.00,,---,0.58,VWS V14.01,2013-01-11 18:02:00,
2013-01-11 12:03:00,26.4,23.9,29.56,North,0,60.0,60.0,90,0.00,,---,0.58,VWS V14.01,2013-01-11 18:03:00,
2013-01-11 12:04:00,26.4,23.9,29.56,North,0,60.0,60.0,90,0.00,,---,0.58,VWS V14.01,2013-01-11 18:04:00,
2013-01-11 12:05:00,26.4,23.9,29.56,South,176,60.0,60.0,90,0.00,,---,0.58,VWS V14.01,2013-01-11 18:05:00,
2013-01-11 12:06:00,26.3,23.8,29.56,North,0,60.0,60.0,90,0.00,,---,0.58,VWS V14.01,2013-01-11 18:06:00,
2013-01-11 12:07:00,26.3,23.8,29.56,North,0,60.0,60.0,90,0.00,,---,0.58,VWS V14.01,2013-01-11 18:07:00,
2013-01-11 12:08:00,26.3,23.8,29.56,North,0,60.0,60.0,90,0.00,,---,0.58,VWS V14.01,2013-01-11 18:08:00,
2013-01-11 12:09:00,26.3,23.8,29.56,North,8,60.0,60.0,90,0.00,,---,0.58,VWS V14.01,2013-01-11 18:09:00,
2013-01-11 12:10:00,26.1,23.6,29.56,North,6,60.0,60.0,90,0.00,,---,0.58,VWS V14.01,2013-01-11 18:10:00,
2013-01-11 12:11:00,26.1,23.6,29.56,North,0,60.0,60.0,90,0.00,,---,0.58,VWS V14.01,2013-01-11 18:11:00,
2013-01-11 12:12:00,26.1,23.6,29.56,North,0,60.0,60.0,90,0.00,,---,0.58,VWS V14.01,2013-01-11 18:12:00,
2013-01-11 12:13:00,26.1,23.6,29.56,North,0,60.0,60.0,90,0.00,,---,0.58,VWS V14.01,2013-01-11 18:13:00,
2013-01-11 12:14:00,26.1,23.6,29.56,North,0,60.0,60.0,90,0.00,,---,0.58,VWS V14.01,2013-01-11 18:14:00,
2013-01-11 12:15:00,26.0,23.5,29.56,North,0,60.0,60.0,90,0.00,,---,0.58,VWS V14.01,2013-01-11 18:15:00,
2013-01-11 12:16:00,26.0,23.5,29.56,SW,215,60.0,60.0,90,0.00,,---,0.58,VWS V14.01,2013-01-11 18:16:00,
2013-01-11 12:17:00,25.8,23.3,29.56,North,357,60.0,60.0,90,0.00,,---,0.58,VWS V14.01,2013-01-11 18:17:00,
2013-01-11 12:18:00,25.8,23.0,29.56,North,3,60.0,60.0,89,0.00,,---,0.58,VWS V14.01,2013-01-11 18:18:00,
2013-01-11 12:19:00,25.7,22.9,29.56,SW,215,60.0,60.0,89,0.00,,---,0.58,VWS V14.01,2013-01-11 18:19:00,
2013-01-11 12:20:00,25.6,22.8,29.56,North,356,60.0,60.0,89,0.00,,---,0.58,VWS V14.01,2013-01-11 18:20:00,
2013-01-11 12:21:00,25.4,22.6,29.56,North,359,60.0,60.0,89,0.00,,---,0.58,VWS V14.01,2013-01-11 18:21:00,
2013-01-11 12:22:00,25.4,22.6,29.56,North,357,60.0,60.0,89,0.00,,---,0.58,VWS V14.01,2013-01-11 18:22:00,
2013-01-11 12:23:00,25.4,22.6,29.56,North,359,60.0,60.0,89,0.00,,---,0.58,VWS V14.01,2013-01-11 18:23:00,
2013-01-11 12:24:00,25.6,22.8,29.56,North,11,60.0,60.0,89,0.00,,---,0.58,VWS V14.01,2013-01-11 18:24:00,
2013-01-11 12:25:00,25.3,22.5,29.56,North,357,60.0,60.0,89,0.00,,---,0.58,VWS V14.01,2013-01-11 18:25:00,
2013-01-11 12:26:00,25.4,22.6,29.56,North,10,60.0,60.0,89,0.00,,---,0.58,VWS V14.01,2013-01-11 18:26:00,
2013-01-11 12:27:00,25.3,22.5,29.56,North,8,60.0,60.0,89,0.00,,---,0.58,VWS V14.01,2013-01-11 18:27:00,
2013-01-11 12:28:00,25.3,22.5,29.56,NNE,14,60.0,60.0,89,0.00,,---,0.58,VWS V14.01,2013-01-11 18:28:00,
2013-01-11 12:29:00,25.4,22.6,29.56,North,0,60.0,60.0,89,0.00,,---,0.58,VWS V14.01,2013-01-11 18:29:00,
2013-01-11 12:30:00,25.4,22.6,29.56,North,0,60.0,60.0,89,0.00,,---,0.58,VWS V14.01,2013-01-11 18:30:00,
2013-01-11 12:31:00,25.4,22.6,29.56,North,8,60.0,60.0,89,0.00,,---,0.58,VWS V14.01,2013-01-11 18:31:00,
2013-01-11 12:32:00,25.3,22.8,29.56,West,280,60.0,60.0,90,0.00,,---,0.58,VWS V14.01,2013-01-11 18:32:00,
2013-01-11 12:33:00,25.4,22.9,29.56,WNW,285,60.0,60.0,90,0.00,,---,0.58,VWS V14.01,2013-01-11 18:33:00,
2013-01-11 12:34:00,25.3,22.8,29.56,North,359,60.0,60.0,90,0.00,,---,0.58,VWS V14.01,2013-01-11 18:34:00,
2013-01-11 12:35:00,25.4,22.9,29.56,North,0,60.0,60.0,90,0.00,,---,0.58,VWS V14.01,2013-01-11 18:35:00,
2013-01-11 12:36:00,25.4,22.9,29.56,North,0,60.0,60.0,90,0.00,,---,0.58,VWS V14.01,2013-01-11 18:36:00,
2013-01-11 12:37:00,25.3,22.8,29.56,West,270,60.0,60.0,90,0.00,,---,0.58,VWS V14.01,2013-01-11 18:37:00,
2013-01-11 12:38:00,25.4,22.9,29.56,North,0,60.0,60.0,90,0.00,,---,0.58,VWS V14.01,2013-01-11 18:38:00,
2013-01-11 12:39:00,25.3,22.5,29.56,North,6,60.0,60.0,89,0.00,,---,0.58,VWS V14.01,2013-01-11 18:39:00,
2013-01-11 12:40:00,25.3,22.5,29.56,North,6,60.0,60.0,89,0.00,,---,0.58,VWS V14.01,2013-01-11 18:40:00,
2013-01-11 12:41:00,25.3,22.5,29.56,North,10,60.0,60.0,89,0.00,,---,0.58,VWS V14.01,2013-01-11 18:41:00,
2013-01-11 12:42:00,25.3,22.5,29.56,NNE,14,60.0,60.0,89,0.00,,---,0.58,VWS V14.01,2013-01-11 18:42:00,
2013-01-11 12:43:00,25.3,22.5,29.56,North,1,60.0,60.0,89,0.00,,---,0.58,VWS V14.01,2013-01-11 18:43:00,
2013-01-11 12:44:00,25.1,22.3,29.56,WNW,282,60.0,60.0,89,0.00,,---,0.58,VWS V14.01,2013-01-11 18:44:00,
2013-01-11 12:45:00,25.1,22.3,29.55,NE,41,60.0,60.0,89,0.00,,---,0.58,VWS V14.01,2013-01-11 18:45:00,
2013-01-11 12:46:00,25.1,22.3,29.55,North,1,60.0,60.0,89,0.00,,---,0.58,VWS V14.01,2013-01-11 18:46:00,
2013-01-11 12:47:00,25.0,22.2,29.55,North,3,60.0,60.0,89,0.00,,---,0.58,VWS V14.01,2013-01-11 18:47:00,
2013-01-11 12:48:00,25.0,22.2,29.55,NNE,16,60.0,60.0,89,0.00,,---,0.58,VWS V14.01,2013-01-11 18:48:00,
2013-01-11 12:49:00,25.0,22.2,29.55,SW,219,60.0,60.0,89,0.00,,---,0.58,VWS V14.01,2013-01-11 18:49:00,
2013-01-11 12:50:00,24.8,22.0,29.55,North,0,60.0,60.0,89,0.00,,---,0.58,VWS V14.01,2013-01-11 18:50:00,
2013-01-11 12:51:00,24.8,22.0,29.55,North,0,60.0,60.0,89,0.00,,---,0.58,VWS V14.01,2013-01-11 18:51:00,
2013-01-11 12:52:00,24.8,22.0,29.55,NNE,16,60.0,60.0,89,0.00,,---,0.58,VWS V14.01,2013-01-11 18:52:00,
2013-01-11 12:53:00,24.8,22.0,29.55,North,0,60.0,60.0,89,0.00,,---,0.58,VWS V14.01,2013-01-11 18:53:00,
2013-01-11 12:54:00,24.8,22.0,29.55,North,4,60.0,60.0,89,0.00,,---,0.58,VWS V14.01,2013-01-11 18:54:00,
2013-01-11 12:55:00,24.8,22.0,29.55,North,3,60.0,60.0,89,0.00,,---,0.58,VWS V14.01,2013-01-11 18:55:00,
2013-01-11 12:56:00,24.8,22.0,29.55,North,0,60.0,60.0,89,0.00,,---,0.58,VWS V14.01,2013-01-11 18:56:00,
2013-01-11 12:57:00,24.8,22.0,29.55,NNE,17,60.0,60.0,89,0.00,,---,0.58,VWS V14.01,2013-01-11 18:57:00,
2013-01-11 12:58:00,24.7,21.9,29.55,West,275,60.0,60.0,89,0.00,,---,0.58,VWS V14.01,2013-01-11 18:58:00,
2013-01-11 12:59:00,24.7,21.9,29.55,West,277,60.0,60.0,89,0.00,,---,0.58,VWS V14.01,2013-01-11 18:59:00,
2013-01-11 13:00:00,24.7,21.9,29.55,NNW,342,60.0,60.0,89,0.00,,---,0.58,VWS V14.01,2013-01-11 19:00:00,
2013-01-11 13:01:00,24.7,21.9,29.55,North,10,60.0,60.0,89,0.00,,---,0.58,VWS V14.01,2013-01-11 19:01:00,
2013-01-11 13:02:00,24.7,21.9,29.55,North,4,60.0,60.0,89,0.00,,---,0.58,VWS V14.01,2013-01-11 19:02:00,
2013-01-11 13:03:00,24.7,21.9,29.55,North,7,60.0,60.0,89,0.00,,---,0.58,VWS V14.01,2013-01-11 19:03:00,
2013-01-11 13:04:00,24.5,21.7,29.55,West,280,60.0,60.0,89,0.00,,---,0.58,VWS V14.01,2013-01-11 19:04:00,
2013-01-11 13:05:00,24.5,21.7,29.55,North,0,60.0,60.0,89,0.00,,---,0.58,VWS V14.01,2013-01-11 19:05:00,
2013-01-11 13:06:00,24.5,21.7,29.55,North,3,60.0,60.0,89,0.00,,---,0.58,VWS V14.01,2013-01-11 19:06:00,
2013-01-11 13:07:00,24.4,21.6,29.55,North,10,60.0,60.0,89,0.00,,---,0.58,VWS V14.01,2013-01-11 19:07:00,
2013-01-11 13:08:00,24.4,21.6,29.55,North,10,60.0,60.0,89,0.00,,---,0.58,VWS V14.01,2013-01-11 19:08:00,
2013-01-11 13:09:00,24.4,21.6,29.55,North,11,60.0,60.0,89,0.00,,---,0.58,VWS V14.01,2013-01-11 19:09:00,
2013-01-11 13:10:00,24.4,21.4,29.55,North,3,60.0,60.0,88,0.00,,---,0.58,VWS V14.01,2013-01-11 19:10:00,
2013-01-11 13:11:00,24.2,21.2,29.55,North,3,60.0,60.0,88,0.00,,---,0.58,VWS V14.01,2013-01-11 19:11:00,
2013-01-11 13:12:00,24.4,21.6,29.55,North,3,60.0,60.0,89,0.00,,---,0.58,VWS V14.01,2013-01-11 19:12:00,
2013-01-11 13:13:00,24.4,21.6,29.55,North,0,60.0,60.0,89,0.00,,---,0.58,VWS V14.01,2013-01-11 19:13:00,
2013-01-11 13:14:00,24.2,21.4,29.55,West,277,60.0,60.0,89,0.00,,---,0.58,VWS V14.01,2013-01-11 19:14:00,
2013-01-11 13:15:00,24.4,21.6,29.55,North,0,60.0,60.0,89,0.00,,---,0.58,VWS V14.01,2013-01-11 19:15:00,
2013-01-11 13:16:00,24.2,21.4,29.55,North,353,60.0,60.0,89,0.00,,---,0.58,VWS V14.01,2013-01-11 19:16:00,
2013-01-11 13:17:00,24.2,21.4,29.55,NNE,13,60.0,60.0,89,0.00,,---,0.58,VWS V14.01,2013-01-11 19:17:00,
2013-01-11 13:18:00,24.2,21.2,29.55,North,6,60.0,60.0,88,0.00,,---,0.58,VWS V14.01,2013-01-11 19:18:00,
2013-01-11 13:19:00,24.2,21.2,29.55,North,0,60.0,60.0,88,0.00,,---,0.58,VWS V14.01,2013-01-11 19:19:00,
2013-01-11 13:20:00,24.1,21.1,29.55,SW,234,60.0,60.0,88,0.00,,---,0.58,VWS V14.01,2013-01-11 19:20:00,
2013-01-11 13:21:00,24.2,21.2,29.55,WNW,282,60.0,60.0,88,0.00,,---,0.58,VWS V14.01,2013-01-11 19:21:00,
2013-01-11 13:22:00,24.1,21.3,29.55,West,265,60.0,60.0,89,0.00,,---,0.58,VWS V14.01,2013-01-11 19:22:00,
2013-01-11 13:23:00,24.2,21.4,29.55,North,0,60.0,60.0,89,0.00,,---,0.58,VWS V14.01,2013-01-11 19:23:00,
2013-01-11 13:24:00,24.2,21.4,29.55,North,0,60.0,60.0,89,0.00,,---,0.58,VWS V14.01,2013-01-11 19:24:00,
2013-01-11 13:25:00,24.2,21.4,29.55,North,0,60.0,60.0,89,0.00,,---,0.58,VWS V14.01,2013-01-11 19:25:00,
2013-01-11 13:26:00,24.4,21.6,29.55,North,0,60.0,60.0,89,0.00,,---,0.58,VWS V14.01,2013-01-11 19:26:00,
2013-01-11 13:27:00,24.2,21.4,29.55,West,275,60.0,60.0,89,0.00,,---,0.58,VWS V14.01,2013-01-11 19:27:00,
2013-01-11 13:28:00,24.2,21.4,29.55,North,0,60.0,60.0,89,0.00,,---,0.58,VWS V14.01,2013-01-11 19:28:00,
2013-01-11 13:29:00,24.2,21.2,29.55,North,10,60.0,60.0,88,0.00,,---,0.58,VWS V14.01,2013-01-11 19:29:00,
2013-01-11 13:30:00,24.1,21.1,29.55,North,8,60.0,60.0,88,0.00,,---,0.58,VWS V14.01,2013-01-11 19:30:00,
2013-01-11 13:31:00,24.1,21.1,29.55,SW,224,60.0,60.0,88,0.00,,---,0.58,VWS V14.01,2013-01-11 19:31:00,
2013-01-11 13:32:00,24.1,21.1,29.55,North,0,60.0,60.0,88,0.00,,---,0.58,VWS V14.01,2013-01-11 19:32:00,
2013-01-11 13:33:00,23.9,20.9,29.55,North,0,60.0,60.0,88,0.00,,---,0.58,VWS V14.01,2013-01-11 19:33:00,
2013-01-11 13:34:00,23.9,20.9,29.55,North,0,60.0,60.0,88,0.00,,---,0.58,VWS V14.01,2013-01-11 19:34:00,
2013-01-11 13:35:00,23.8,20.8,29.55,North,359,60.0,60.0,88,0.00,,---,0.58,VWS V14.01,2013-01-11 19:35:00,
2013-01-11 13:36:00,23.9,20.9,29.55,North,0,60.0,60.0,88,0.00,,---,0.58,VWS V14.01,2013-01-11 19:36:00,
2013-01-11 13:37:00,23.6,20.6,29.55,North,359,60.0,60.0,88,0.00,,---,0.58,VWS V14.01,2013-01-11 19:37:00,
2013-01-11 13:38:00,23.8,20.8,29.55,North,11,60.0,60.0,88,0.00,,---,0.58,VWS V14.01,2013-01-11 19:38:00,
2013-01-11 13:39:00,23.8,20.8,29.55,North,0,60.0,60.0,88,0.00,,---,0.58,VWS V14.01,2013-01-11 19:39:00,
2013-01-11 13:40:00,23.6,20.6,29.55,North,10,60.0,60.0,88,0.00,,---,0.58,VWS V14.01,2013-01-11 19:40:00,
2013-01-11 13:41:00,23.5,20.5,29.55,North,8,60.0,60.0,88,0.00,,---,0.58,VWS V14.01,2013-01-11 19:41:00,
2013-01-11 13:42:00,23.5,20.5,29.55,North,0,60.0,60.0,88,0.00,,---,0.58,VWS V14.01,2013-01-11 19:42:00,
2013-01-11 13:43:00,23.5,20.5,29.55,North,0,60.0,60.0,88,0.00,,---,0.58,VWS V14.01,2013-01-11 19:43:00,
2013-01-11 13:44:00,23.5,20.5,29.55,North,6,60.0,60.0,88,0.00,,---,0.58,VWS V14.01,2013-01-11 19:44:00,
2013-01-11 13:45:00,23.5,20.5,29.56,North,6,60.0,60.0,88,0.00,,---,0.58,VWS V14.01,2013-01-11 19:45:00,
2013-01-11 13:46:00,23.5,20.5,29.56,North,1,60.0,60.0,88,0.00,,---,0.58,VWS V14.01,2013-01-11 19:46:00,
2013-01-11 13:47:00,23.5,20.5,29.56,North,0,60.0,60.0,88,0.00,,---,0.58,VWS V14.01,2013-01-11 19:47:00,
2013-01-11 13:48:00,23.2,20.2,29.56,North,0,60.0,60.0,88,0.00,,---,0.58,VWS V14.01,2013-01-11 19:48:00,
2013-01-11 13:49:00,23.3,20.3,29.56,North,3,60.0,60.0,88,0.00,,---,0.58,VWS V14.01,2013-01-11 19:49:00,
2013-01-11 13:50:00,23.3,20.3,29.56,North,6,60.0,60.0,88,0.00,,---,0.58,VWS V14.01,2013-01-11 19:50:00,
2013-01-11 13:51:00,23.3,20.3,29.56,North,0,60.0,60.0,88,0.00,,---,0.58,VWS V14.01,2013-01-11 19:51:00,
2013-01-11 13:52:00,23.3,20.3,29.56,North,0,60.0,60.0,88,0.00,,---,0.58,VWS V14.01,2013-01-11 19:52:00,
2013-01-11 13:53:00,23.3,20.3,29.56,NNE,13,60.0,60.0,88,0.00,,---,0.58,VWS V14.01,2013-01-11 19:53:00,
2013-01-11 13:54:00,23.3,20.3,29.56,NNE,13,60.0,60.0,88,0.00,,---,0.58,VWS V14.01,2013-01-11 19:54:00,
2013-01-11 13:55:00,23.3,20.3,29.56,NNE,21,60.0,60.0,88,0.00,,---,0.58,VWS V14.01,2013-01-11 19:55:00,
2013-01-11 13:56:00,23.3,20.3,29.56,NNE,23,60.0,60.0,88,0.00,,---,0.58,VWS V14.01,2013-01-11 19:56:00,
2013-01-11 13:57:00,23.5,20.5,29.56,NNE,13,60.0,60.0,88,0.00,,---,0.58,VWS V14.01,2013-01-11 19:57:00,
2013-01-11 13:58:00,23.3,20.3,29.56,WSW,247,60.0,60.0,88,0.00,,---,0.58,VWS V14.01,2013-01-11 19:58:00,
2013-01-11 13:59:00,23.2,20.2,29.56,North,359,60.0,60.0,88,0.00,,---,0.58,VWS V14.01,2013-01-11 19:59:00,
2013-01-11 14:00:00,23.3,20.3,29.55,North,0,60.0,60.0,88,0.00,,---,0.58,VWS V14.01,2013-01-11 20:00:00,
2013-01-11 14:01:00,23.2,20.2,29.55,North,0,60.0,60.0,88,0.00,,---,0.58,VWS V14.01,2013-01-11 20:01:00,
2013-01-11 14:02:00,23.2,20.2,29.55,North,8,60.0,60.0,88,0.00,,---,0.58,VWS V14.01,2013-01-11 20:02:00,
2013-01-11 14:03:00,23.0,20.0,29.55,WSW,240,60.0,60.0,88,0.00,,---,0.58,VWS V14.01,2013-01-11 20:03:00,
2013-01-11 14:04:00,23.0,20.0,29.55,NNE,16,60.0,60.0,88,0.00,,---,0.58,VWS V14.01,2013-01-11 20:04:00,
2013-01-11 14:05:00,23.0,19.7,29.55,North,0,60.0,60.0,87,0.00,,---,0.58,VWS V14.01,2013-01-11 20:05:00,
2013-01-11 14:06:00,23.0,20.0,29.55,North,3,60.0,60.0,88,0.00,,---,0.58,VWS V14.01,2013-01-11 20:06:00,
2013-01-11 14:07:00,23.0,20.0,29.55,North,7,60.0,60.0,88,0.00,,---,0.58,VWS V14.01,2013-01-11 20:07:00,
2013-01-11 14:08:00,23.0,20.0,29.55,North,7,60.0,60.0,88,0.00,,---,0.58,VWS V14.01,2013-01-11 20:08:00,
2013-01-11 14:09:00,23.0,20.0,29.55,North,7,60.0,60.0,88,0.00,,---,0.58,VWS V14.01,2013-01-11 20:09:00,
2013-01-11 14:10:00,23.0,20.0,29.55,North,7,60.0,60.0,88,0.00,,---,0.58,VWS V14.01,2013-01-11 20:10:00,
2013-01-11 14:11:00,23.0,20.0,29.55,NNE,21,60.0,60.0,88,0.00,,---,0.58,VWS V14.01,2013-01-11 20:11:00,
2013-01-11 14:12:00,22.9,19.9,29.55,North,359,60.0,60.0,88,0.00,,---,0.58,VWS V14.01,2013-01-11 20:12:00,
2013-01-11 14:13:00,23.0,20.0,29.55,North,0,60.0,60.0,88,0.00,,---,0.58,VWS V14.01,2013-01-11 20:13:00,
2013-01-11 14:14:00,23.0,20.0,29.56,North,1,60.0,60.0,88,0.00,,---,0.58,VWS V14.01,2013-01-11 20:14:00,
2013-01-11 14:15:00,22.9,19.9,29.56,WNW,282,60.0,60.0,88,0.00,,---,0.58,VWS V14.01,2013-01-11 20:15:00,
2013-01-11 14:16:00,22.7,19.7,29.56,North,356,60.0,60.0,88,0.00,,---,0.58,VWS V14.01,2013-01-11 20:16:00,
2013-01-11 14:17:00,22.9,19.6,29.56,North,10,60.0,60.0,87,0.00,,---,0.58,VWS V14.01,2013-01-11 20:17:00,
2013-01-11 14:18:00,22.7,19.4,29.56,West,272,60.0,60.0,87,0.00,,---,0.58,VWS V14.01,2013-01-11 20:18:00,
2013-01-11 14:19:00,22.7,19.4,29.56,North,0,60.0,60.0,87,0.00,,---,0.58,VWS V14.01,2013-01-11 20:19:00,
2013-01-11 14:20:00,22.7,19.4,29.56,North,4,60.0,60.0,87,0.00,,---,0.58,VWS V14.01,2013-01-11 20:20:00,
2013-01-11 14:21:00,22.5,19.2,29.56,North,4,60.0,60.0,87,0.00,,---,0.58,VWS V14.01,2013-01-11 20:21:00,
2013-01-11 14:22:00,22.5,19.2,29.56,North,10,60.0,60.0,87,0.00,,---,0.58,VWS V14.01,2013-01-11 20:22:00,
2013-01-11 14:23:00,22.5,19.2,29.56,North,0,60.0,60.0,87,0.00,,---,0.58,VWS V14.01,2013-01-11 20:23:00,
2013-01-11 14:24:00,22.4,19.1,29.56,North,359,60.0,60.0,87,0.00,,---,0.58,VWS V14.01,2013-01-11 20:24:00,
2013-01-11 14:25:00,22.4,19.1,29.56,North,359,60.0,60.0,87,0.00,,---,0.58,VWS V14.01,2013-01-11 20:25:00,
2013-01-11 14:26:00,22.5,19.2,29.56,North,0,60.0,60.0,87,0.00,,---,0.58,VWS V14.01,2013-01-11 20:26:00,
2013-01-11 14:27:00,22.4,19.1,29.56,North,0,60.0,60.0,87,0.00,,---,0.58,VWS V14.01,2013-01-11 20:27:00,
2013-01-11 14:28:00,22.4,19.1,29.56,North,1,60.0,60.0,87,0.00,,---,0.58,VWS V14.01,2013-01-11 20:28:00,
2013-01-11 14:29:00,22.4,19.1,29.56,North,3,60.0,60.0,87,0.00,,---,0.58,VWS V14.01,2013-01-11 20:29:00,
2013-01-11 14:30:00,22.4,19.1,29.56,North,3,60.0,60.0,87,0.00,,---,0.58,VWS V14.01,2013-01-11 20:30:00,
2013-01-11 14:31:00,22.2,18.9,29.56,North,3,60.0,60.0,87,0.00,,---,0.58,VWS V14.01,2013-01-11 20:31:00,
2013-01-11 14:32:00,22.2,18.9,29.56,North,6,60.0,60.0,87,0.00,,---,0.58,VWS V14.01,2013-01-11 20:32:00,
2013-01-11 14:33:00,22.1,18.8,29.56,North,359,60.0,60.0,87,0.00,,---,0.58,VWS V14.01,2013-01-11 20:33:00,
2013-01-11 14:34:00,22.1,18.8,29.56,North,8,60.0,60.0,87,0.00,,---,0.58,VWS V14.01,2013-01-11 20:34:00,
2013-01-11 14:35:00,22.1,18.8,29.56,NNE,24,60.0,60.0,87,0.00,,---,0.58,VWS V14.01,2013-01-11 20:35:00,
2013-01-11 14:36:00,21.9,18.6,29.56,NNE,14,60.0,60.0,87,0.00,,---,0.58,VWS V14.01,2013-01-11 20:36:00,
2013-01-11 14:37:00,21.8,18.5,29.56,North,350,60.0,60.0,87,0.00,,---,0.58,VWS V14.01,2013-01-11 20:37:00,
2013-01-11 14:38:00,21.8,18.5,29.56,North,357,60.0,60.0,87,0.00,,---,0.58,VWS V14.01,2013-01-11 20:38:00,
2013-01-11 14:39:00,21.6,18.3,29.56,North,357,60.0,60.0,87,0.00,,---,0.58,VWS V14.01,2013-01-11 20:39:00,
2013-01-11 14:40:00,21.6,18.3,29.56,NNW,344,60.0,60.0,87,0.00,,---,0.58,VWS V14.01,2013-01-11 20:40:00,
2013-01-11 14:41:00,21.6,18.3,29.56,North,1,60.0,60.0,87,0.00,,---,0.58,VWS V14.01,2013-01-11 20:41:00,
2013-01-11 14:42:00,21.4,18.1,29.56,NNW,346,60.0,60.0,87,0.00,,---,0.58,VWS V14.01,2013-01-11 20:42:00,
2013-01-11 14:43:00,21.4,18.1,29.56,North,0,60.0,60.0,87,0.00,,---,0.58,VWS V14.01,2013-01-11 20:43:00,
2013-01-11 14:44:00,21.3,18.0,29.56,WSW,256,60.0,60.0,87,0.00,,---,0.58,VWS V14.01,2013-01-11 20:44:00,
2013-01-11 14:45:00,21.1,17.8,29.55,North,357,60.0,60.0,87,0.00,,---,0.58,VWS V14.01,2013-01-11 20:45:00,
2013-01-11 14:46:00,21.3,18.0,29.55,North,0,60.0,60.0,87,0.00,,---,0.58,VWS V14.01,2013-01-11 20:46:00,
2013-01-11 14:47:00,21.1,17.8,29.55,North,4,60.0,60.0,87,0.00,,---,0.58,VWS V14.01,2013-01-11 20:47:00,
2013-01-11 14:48:00,21.1,17.8,29.55,North,359,60.0,60.0,87,0.00,,---,0.58,VWS V14.01,2013-01-11 20:48:00,
2013-01-11 14:49:00,21.1,17.8,29.55,WNW,284,60.0,60.0,87,0.00,,---,0.58,VWS V14.01,2013-01-11 20:49:00,
2013-01-11 14:50:00,21.1,17.8,29.55,West,275,60.0,60.0,87,0.00,,---,0.58,VWS V14.01,2013-01-11 20:50:00,
2013-01-11 14:51:00,21.1,17.8,29.55,North,4,60.0,60.0,87,0.00,,---,0.58,VWS V14.01,2013-01-11 20:51:00,
2013-01-11 14:52:00,21.1,17.8,29.55,North,0,60.0,60.0,87,0.00,,---,0.58,VWS V14.01,2013-01-11 20:52:00,
2013-01-11 14:53:00,21.1,17.8,29.55,North,0,60.0,60.0,87,0.00,,---,0.58,VWS V14.01,2013-01-11 20:53:00,
2013-01-11 14:54:00,21.1,17.8,29.55,North,0,60.0,60.0,87,0.00,,---,0.58,VWS V14.01,2013-01-11 20:54:00,
2013-01-11 14:55:00,21.1,17.8,29.55,SW,236,60.0,60.0,87,0.00,,---,0.58,VWS V14.01,2013-01-11 20:55:00,
2013-01-11 14:56:00,21.1,17.8,29.55,North,0,60.0,60.0,87,0.00,,---,0.58,VWS V14.01,2013-01-11 20:56:00,
2013-01-11 14:57:00,21.1,17.8,29.55,North,354,60.0,60.0,87,0.00,,---,0.58,VWS V14.01,2013-01-11 20:57:00,
2013-01-11 14:58:00,21.0,17.8,29.55,North,357,60.0,60.0,87,0.00,,---,0.58,VWS V14.01,2013-01-11 20:58:00,
2013-01-11 14:59:00,20.8,17.3,29.55,WNW,294,60.0,60.0,86,0.00,,---,0.58,VWS V14.01,2013-01-11 20:59:00,
2013-01-11 15:00:00,20.8,17.3,29.55,NNW,347,60.0,60.0,86,0.00,,---,0.58,VWS V14.01,2013-01-11 21:00:00,
2013-01-11 15:01:00,20.8,17.3,29.55,NNE,20,60.0,60.0,86,0.00,,---,0.58,VWS V14.01,2013-01-11 21:01:00,
2013-01-11 15:02:00,20.6,17.1,29.55,North,359,60.0,60.0,86,0.00,,---,0.58,VWS V14.01,2013-01-11 21:02:00,
2013-01-11 15:03:00,20.6,17.1,29.55,North,7,60.0,60.0,86,0.00,,---,0.58,VWS V14.01,2013-01-11 21:03:00,
2013-01-11 15:04:00,20.5,17.0,29.55,North,359,60.0,60.0,86,0.00,,---,0.58,VWS V14.01,2013-01-11 21:04:00,
2013-01-11 15:05:00,20.5,17.0,29.55,NNE,13,60.0,60.0,86,0.00,,---,0.58,VWS V14.01,2013-01-11 21:05:00,
2013-01-11 15:06:00,20.3,16.8,29.55,West,263,60.0,60.0,86,0.00,,---,0.58,VWS V14.01,2013-01-11 21:06:00,
2013-01-11 15:07:00,20.3,16.8,29.55,North,0,60.0,60.0,86,0.00,,---,0.58,VWS V14.01,2013-01-11 21:07:00,
2013-01-11 15:08:00,20.3,16.8,29.55,North,1,60.0,60.0,86,0.00,,---,0.58,VWS V14.01,2013-01-11 21:08:00,
2013-01-11 15:09:00,20.2,16.7,29.55,NE,37,60.0,60.0,86,0.00,,---,0.58,VWS V14.01,2013-01-11 21:09:00,
2013-01-11 15:10:00,20.2,16.7,29.55,North,0,60.0,60.0,86,0.00,,---,0.58,VWS V14.01,2013-01-11 21:10:00,
2013-01-11 15:11:00,20.2,16.7,29.55,North,10,60.0,60.0,86,0.00,,---,0.58,VWS V14.01,2013-01-11 21:11:00,
2013-01-11 15:12:00,20.2,16.7,29.55,North,349,60.0,60.0,86,0.00,,---,0.58,VWS V14.01,2013-01-11 21:12:00,
2013-01-11 15:13:00,19.9,16.4,29.55,North,354,60.0,60.0,86,0.00,,---,0.58,VWS V14.01,2013-01-11 21:13:00,
2013-01-11 15:14:00,19.9,16.4,29.55,WNW,291,60.0,60.0,86,0.00,,---,0.58,VWS V14.01,2013-01-11 21:14:00,
2013-01-11 15:15:00,19.9,16.4,29.54,North,11,60.0,60.0,86,0.00,,---,0.58,VWS V14.01,2013-01-11 21:15:00,
2013-01-11 15:16:00,19.7,16.2,29.54,North,0,60.0,60.0,86,0.00,,---,0.58,VWS V14.01,2013-01-11 21:16:00,
2013-01-11 15:17:00,19.7,16.2,29.54,NE,35,60.0,60.0,86,0.00,,---,0.58,VWS V14.01,2013-01-11 21:17:00,
2013-01-11 15:18:00,19.7,16.2,29.54,North,1,60.0,60.0,86,0.00,,---,0.58,VWS V14.01,2013-01-11 21:18:00,
2013-01-11 15:19:00,19.7,16.2,29.54,North,350,60.0,60.0,86,0.00,,---,0.58,VWS V14.01,2013-01-11 21:19:00,
2013-01-11 15:20:00,19.7,16.2,29.54,North,7,60.0,60.0,86,0.00,,---,0.58,VWS V14.01,2013-01-11 21:20:00,
2013-01-11 15:21:00,19.7,16.2,29.54,North,11,60.0,60.0,86,0.00,,---,0.58,VWS V14.01,2013-01-11 21:21:00,
2013-01-11 15:22:00,19.7,16.2,29.54,North,7,60.0,60.0,86,0.00,,---,0.58,VWS V14.01,2013-01-11 21:22:00,
2013-01-11 15:23:00,19.7,16.2,29.54,North,7,60.0,60.0,86,0.00,,---,0.58,VWS V14.01,2013-01-11 21:23:00,
2013-01-11 15:24:00,19.7,16.2,29.54,North,0,60.0,60.0,86,0.00,,---,0.58,VWS V14.01,2013-01-11 21:24:00,
2013-01-11 15:25:00,19.7,16.2,29.54,North,350,60.0,60.0,86,0.00,,---,0.58,VWS V14.01,2013-01-11 21:25:00,
2013-01-11 15:26:00,19.5,16.0,29.54,NNW,337,60.0,60.0,86,0.00,,---,0.58,VWS V14.01,2013-01-11 21:26:00,
2013-01-11 15:27:00,19.5,16.0,29.54,North,3,60.0,60.0,86,0.00,,---,0.58,VWS V14.01,2013-01-11 21:27:00,
2013-01-11 15:28:00,19.4,15.9,29.54,North,6,60.0,60.0,86,0.00,,---,0.58,VWS V14.01,2013-01-11 21:28:00,
2013-01-11 15:29:00,19.5,16.0,29.54,North,0,60.0,60.0,86,0.00,,---,0.58,VWS V14.01,2013-01-11 21:29:00,
2013-01-11 15:30:00,19.4,15.9,29.53,North,0,60.0,60.0,86,0.00,,---,0.58,VWS V14.01,2013-01-11 21:30:00,
2013-01-11 15:31:00,19.4,15.9,29.53,North,3,60.0,60.0,86,0.00,,---,0.58,VWS V14.01,2013-01-11 21:31:00,
2013-01-11 15:32:00,19.5,16.0,29.53,North,0,60.0,60.0,86,0.00,,---,0.58,VWS V14.01,2013-01-11 21:32:00,
2013-01-11 15:33:00,19.4,15.9,29.53,North,359,60.0,60.0,86,0.00,,---,0.58,VWS V14.01,2013-01-11 21:33:00,
2013-01-11 15:34:00,19.4,15.9,29.53,NNE,27,60.0,60.0,86,0.00,,---,0.58,VWS V14.01,2013-01-11 21:34:00,
2013-01-11 15:35:00,19.4,15.9,29.53,NNE,24,60.0,60.0,86,0.00,,---,0.58,VWS V14.01,2013-01-11 21:35:00,
2013-01-11 15:36:00,19.4,15.9,29.53,NNE,23,60.0,60.0,86,0.00,,---,0.58,VWS V14.01,2013-01-11 21:36:00,
2013-01-11 15:37:00,19.4,15.9,29.53,North,359,60.0,60.0,86,0.00,,---,0.58,VWS V14.01,2013-01-11 21:37:00,
2013-01-11 15:38:00,19.4,15.9,29.53,North,7,60.0,60.0,86,0.00,,---,0.58,VWS V14.01,2013-01-11 21:38:00,
2013-01-11 15:39:00,19.4,15.9,29.53,North,6,60.0,60.0,86,0.00,,---,0.58,VWS V14.01,2013-01-11 21:39:00,
2013-01-11 15:40:00,19.4,15.9,29.53,North,6,60.0,60.0,86,0.00,,---,0.58,VWS V14.01,2013-01-11 21:40:00,
2013-01-11 15:41:00,19.5,16.0,29.53,North,6,60.0,60.0,86,0.00,,---,0.58,VWS V14.01,2013-01-11 21:41:00,
2013-01-11 15:42:00,19.5,16.0,29.53,North,6,60.0,60.0,86,0.00,,---,0.58,VWS V14.01,2013-01-11 21:42:00,
2013-01-11 15:43:00,19.4,15.9,29.53,NNE,18,60.0,60.0,86,0.00,,---,0.58,VWS V14.01,2013-01-11 21:43:00,
2013-01-11 15:44:00,19.4,15.9,29.53,North,0,60.0,60.0,86,0.00,,---,0.58,VWS V14.01,2013-01-11 21:44:00,
2013-01-11 15:45:00,19.4,15.9,29.56,North,1,60.0,60.0,86,0.00,,---,0.58,VWS V14.01,2013-01-11 21:45:00,
2013-01-11 15:46:00,19.4,15.9,29.56,North,0,60.0,60.0,86,0.00,,---,0.58,VWS V14.01,2013-01-11 21:46:00,
2013-01-11 15:47:00,19.4,15.9,29.56,WNW,287,60.0,60.0,86,0.00,,---,0.58,VWS V14.01,2013-01-11 21:47:00,
2013-01-11 15:48:00,19.4,15.9,29.56,North,0,60.0,60.0,86,0.00,,---,0.58,VWS V14.01,2013-01-11 21:48:00,
2013-01-11 15:49:00,19.4,15.9,29.56,NNE,13,60.0,60.0,86,0.00,,---,0.58,VWS V14.01,2013-01-11 21:49:00,
2013-01-11 15:50:00,19.4,15.9,29.56,North,11,60.0,60.0,86,0.00,,---,0.58,VWS V14.01,2013-01-11 21:50:00,
2013-01-11 15:51:00,19.4,15.9,29.56,NNW,339,60.0,60.0,86,0.00,,---,0.58,VWS V14.01,2013-01-11 21:51:00,
2013-01-11 15:52:00,19.4,15.9,29.56,North,6,60.0,60.0,86,0.00,,---,0.58,VWS V14.01,2013-01-11 21:52:00,
2013-01-11 15:53:00,19.4,15.9,29.56,North,3,60.0,60.0,86,0.00,,---,0.58,VWS V14.01,2013-01-11 21:53:00,
2013-01-11 15:54:00,19.4,15.9,29.56,West,267,60.0,60.0,86,0.00,,---,0.58,VWS V14.01,2013-01-11 21:54:00,
2013-01-11 15:55:00,19.4,15.9,29.56,North,1,60.0,60.0,86,0.00,,---,0.58,VWS V14.01,2013-01-11 21:55:00,
2013-01-11 15:56:00,19.2,15.7,29.56,North,359,60.0,60.0,86,0.00,,---,0.58,VWS V14.01,2013-01-11 21:56:00,
2013-01-11 15:57:00,19.2,15.7,29.56,North,359,60.0,60.0,86,0.00,,---,0.58,VWS V14.01,2013-01-11 21:57:00,
2013-01-11 15:58:00,19.2,15.7,29.56,NNE,14,60.0,60.0,86,0.00,,---,0.58,VWS V14.01,2013-01-11 21:58:00,
2013-01-11 15:59:00,19.1,15.6,29.55,NNW,333,60.0,60.0,86,0.00,,---,0.58,VWS V14.01,2013-01-11 21:59:00,
2013-01-11 16:00:00,19.1,15.6,29.55,NNW,332,60.0,60.0,86,0.00,,---,0.58,VWS V14.01,2013-01-11 22:00:00,
2013-01-11 16:01:00,19.2,15.7,29.55,North,1,60.0,60.0,86,0.00,,---,0.58,VWS V14.01,2013-01-11 22:01:00,
2013-01-11 16:02:00,19.1,15.6,29.55,North,356,60.0,60.0,86,0.00,,---,0.58,VWS V14.01,2013-01-11 22:02:00,
2013-01-11 16:03:00,19.1,15.6,29.55,North,3,60.0,60.0,86,0.00,,---,0.58,VWS V14.01,2013-01-11 22:03:00,
2013-01-11 16:04:00,19.1,15.6,29.55,North,359,60.0,60.0,86,0.00,,---,0.58,VWS V14.01,2013-01-11 22:04:00,
2013-01-11 16:05:00,19.1,15.6,29.55,NNW,347,60.0,60.0,86,0.00,,---,0.58,VWS V14.01,2013-01-11 22:05:00,
2013-01-11 16:06:00,19.1,15.6,29.55,North,1,60.0,60.0,86,0.00,,---,0.58,VWS V14.01,2013-01-11 22:06:00,
2013-01-11 16:07:00,19.1,15.6,29.55,North,1,60.0,60.0,86,0.00,,---,0.58,VWS V14.01,2013-01-11 22:07:00,
2013-01-11 16:08:00,19.1,15.6,29.55,NNW,340,60.0,60.0,86,0.00,,---,0.58,VWS V14.01,2013-01-11 22:08:00,
2013-01-11 16:09:00,19.1,15.6,29.55,North,0,60.0,60.0,86,0.00,,---,0.58,VWS V14.01,2013-01-11 22:09:00,
2013-01-11 16:10:00,19.1,15.6,29.55,North,11,60.0,60.0,86,0.00,,---,0.58,VWS V14.01,2013-01-11 22:10:00,
2013-01-11 16:11:00,19.1,15.6,29.55,North,0,60.0,60.0,86,0.00,,---,0.58,VWS V14.01,2013-01-11 22:11:00,
2013-01-11 16:12:00,19.1,15.6,29.55,North,0,60.0,60.0,86,0.00,,---,0.58,VWS V14.01,2013-01-11 22:12:00,
2013-01-11 16:13:00,19.1,15.6,29.55,North,352,60.0,60.0,86,0.00,,---,0.58,VWS V14.01,2013-01-11 22:13:00,
2013-01-11 16:14:00,19.1,15.6,29.56,North,3,60.0,60.0,86,0.00,,---,0.58,VWS V14.01,2013-01-11 22:14:00,
2013-01-11 16:15:00,19.1,15.6,29.56,North,3,60.0,60.0,86,0.00,,---,0.58,VWS V14.01,2013-01-11 22:15:00,
2013-01-11 16:16:00,19.1,15.6,29.56,NNE,24,60.0,60.0,86,0.00,,---,0.58,VWS V14.01,2013-01-11 22:16:00,
2013-01-11 16:17:00,19.1,15.6,29.56,North,10,60.0,60.0,86,0.00,,---,0.58,VWS V14.01,2013-01-11 22:17:00,
2013-01-11 16:18:00,19.1,15.6,29.56,North,10,60.0,60.0,86,0.00,,---,0.58,VWS V14.01,2013-01-11 22:18:00,
2013-01-11 16:19:00,19.1,15.6,29.56,North,10,60.0,60.0,86,0.00,,---,0.58,VWS V14.01,2013-01-11 22:19:00,
2013-01-11 16:20:00,19.1,15.6,29.56,North,10,60.0,60.0,86,0.00,,---,0.58,VWS V14.01,2013-01-11 22:20:00,
2013-01-11 16:21:00,19.1,15.6,29.56,North,357,60.0,60.0,86,0.00,,---,0.58,VWS V14.01,2013-01-11 22:21:00,
2013-01-11 16:22:00,18.9,15.4,29.56,North,357,60.0,60.0,86,0.00,,---,0.58,VWS V14.01,2013-01-11 22:22:00,
2013-01-11 16:23:00,18.9,15.4,29.56,North,357,60.0,60.0,86,0.00,,---,0.58,VWS V14.01,2013-01-11 22:23:00,
2013-01-11 16:24:00,19.1,15.6,29.56,NNW,332,60.0,60.0,86,0.00,,---,0.58,VWS V14.01,2013-01-11 22:24:00,
2013-01-11 16:25:00,19.1,15.6,29.56,WNW,288,60.0,60.0,86,0.00,,---,0.58,VWS V14.01,2013-01-11 22:25:00,
2013-01-11 16:26:00,18.9,15.4,29.56,North,359,60.0,60.0,86,0.00,,---,0.58,VWS V14.01,2013-01-11 22:26:00,
2013-01-11 16:27:00,18.9,15.4,29.56,North,0,60.0,60.0,86,0.00,,---,0.58,VWS V14.01,2013-01-11 22:27:00,
2013-01-11 16:28:00,19.1,15.6,29.56,North,0,60.0,60.0,86,0.00,,---,0.58,VWS V14.01,2013-01-11 22:28:00,
2013-01-11 16:29:00,18.9,15.4,29.56,North,359,60.0,60.0,86,0.00,,---,0.58,VWS V14.01,2013-01-11 22:29:00,
2013-01-11 16:30:00,18.9,15.4,29.57,North,359,60.0,60.0,86,0.00,,---,0.58,VWS V14.01,2013-01-11 22:30:00,
2013-01-11 16:31:00,18.9,15.4,29.57,North,0,60.0,60.0,86,0.00,,---,0.58,VWS V14.01,2013-01-11 22:31:00,
2013-01-11 16:32:00,18.9,15.4,29.57,North,359,60.0,60.0,86,0.00,,---,0.58,VWS V14.01,2013-01-11 22:32:00,
2013-01-11 16:33:00,18.9,15.4,29.57,WNW,298,60.0,60.0,86,0.00,,---,0.58,VWS V14.01,2013-01-11 22:33:00,
2013-01-11 16:34:00,18.9,15.4,29.57,West,267,60.0,60.0,86,0.00,,---,0.58,VWS V14.01,2013-01-11 22:34:00,
2013-01-11 16:35:00,18.9,15.4,29.57,NW,312,60.0,60.0,86,0.00,,---,0.58,VWS V14.01,2013-01-11 22:35:00,
2013-01-11 16:36:00,18.9,15.4,29.57,NW,304,60.0,60.0,86,0.00,,---,0.58,VWS V14.01,2013-01-11 22:36:00,
2013-01-11 16:37:00,18.9,15.4,29.57,North,7,60.0,60.0,86,0.00,,---,0.58,VWS V14.01,2013-01-11 22:37:00,
2013-01-11 16:38:00,18.9,15.4,29.57,North,0,60.0,60.0,86,0.00,,---,0.58,VWS V14.01,2013-01-11 22:38:00,
2013-01-11 16:39:00,18.8,15.3,29.57,West,268,60.0,60.0,86,0.00,,---,0.58,VWS V14.01,2013-01-11 22:39:00,
2013-01-11 16:40:00,18.8,15.1,29.57,NNW,336,60.0,60.0,85,0.00,,---,0.58,VWS V14.01,2013-01-11 22:40:00,
2013-01-11 16:41:00,18.8,15.1,29.57,North,0,60.0,60.0,85,0.00,,---,0.58,VWS V14.01,2013-01-11 22:41:00,
2013-01-11 16:42:00,18.6,14.9,29.57,North,356,60.0,60.0,85,0.00,,---,0.58,VWS V14.01,2013-01-11 22:42:00,
2013-01-11 16:43:00,18.6,14.9,29.57,North,357,60.0,60.0,85,0.00,,---,0.58,VWS V14.01,2013-01-11 22:43:00,
2013-01-11 16:44:00,18.6,14.9,29.56,North,354,60.0,60.0,85,0.00,,---,0.58,VWS V14.01,2013-01-11 22:44:00,
2013-01-11 16:45:00,18.6,14.9,29.56,North,354,60.0,60.0,85,0.00,,---,0.58,VWS V14.01,2013-01-11 22:45:00,
2013-01-11 16:46:00,18.6,14.9,29.56,North,354,60.0,60.0,85,0.00,,---,0.58,VWS V14.01,2013-01-11 22:46:00,
2013-01-11 16:47:00,18.6,14.9,29.56,North,359,60.0,60.0,85,0.00,,---,0.58,VWS V14.01,2013-01-11 22:47:00,
2013-01-11 16:48:00,18.6,14.9,29.56,North,359,60.0,60.0,85,0.00,,---,0.58,VWS V14.01,2013-01-11 22:48:00,
2013-01-11 16:49:00,18.4,14.6,29.56,North,359,60.0,60.0,85,0.00,,---,0.58,VWS V14.01,2013-01-11 22:49:00,
2013-01-11 16:50:00,18.4,14.6,29.56,WNW,292,60.0,60.0,85,0.00,,---,0.58,VWS V14.01,2013-01-11 22:50:00,
2013-01-11 16:51:00,18.4,14.6,29.56,WNW,299,60.0,60.0,85,0.00,,---,0.58,VWS V14.01,2013-01-11 22:51:00,
2013-01-11 16:52:00,18.4,14.9,29.56,North,0,60.0,60.0,86,0.00,,---,0.58,VWS V14.01,2013-01-11 22:52:00,
2013-01-11 16:53:00,18.4,14.6,29.56,NNW,340,60.0,60.0,85,0.00,,---,0.58,VWS V14.01,2013-01-11 22:53:00,
2013-01-11 16:54:00,18.4,14.6,29.56,North,359,60.0,60.0,85,0.00,,---,0.58,VWS V14.01,2013-01-11 22:54:00,
2013-01-11 16:55:00,18.4,14.6,29.56,North,10,60.0,60.0,85,0.00,,---,0.58,VWS V14.01,2013-01-11 22:55:00,
2013-01-11 16:56:00,18.4,14.6,29.56,North,6,60.0,60.0,85,0.00,,---,0.58,VWS V14.01,2013-01-11 22:56:00,
2013-01-11 16:57:00,18.3,14.6,29.56,North,359,60.0,60.0,85,0.00,,---,0.58,VWS V14.01,2013-01-11 22:57:00,
2013-01-11 16:58:00,18.3,14.6,29.56,North,359,60.0,60.0,85,0.00,,---,0.58,VWS V14.01,2013-01-11 22:58:00,
2013-01-11 16:59:00,18.3,14.6,29.56,NNW,335,60.0,60.0,85,0.00,,---,0.58,VWS V14.01,2013-01-11 22:59:00,
2013-01-11 17:00:00,18.3,14.6,29.55,NNW,346,60.0,60.0,85,0.00,,---,0.58,VWS V14.01,2013-01-11 23:00:00,
2013-01-11 17:01:00,18.3,14.6,29.55,NNW,346,60.0,60.0,85,0.00,,---,0.58,VWS V14.01,2013-01-11 23:01:00,
2013-01-11 17:02:00,18.3,14.6,29.55,NNW,347,60.0,60.0,85,0.00,,---,0.58,VWS V14.01,2013-01-11 23:02:00,
2013-01-11 17:03:00,18.3,14.6,29.55,NW,319,60.0,60.0,85,0.00,,---,0.58,VWS V14.01,2013-01-11 23:03:00,
2013-01-11 17:04:00,18.3,14.6,29.55,NW,320,60.0,60.0,85,0.00,,---,0.58,VWS V14.01,2013-01-11 23:04:00,
2013-01-11 17:05:00,18.1,14.4,29.55,NW,320,60.0,60.0,85,0.00,,---,0.58,VWS V14.01,2013-01-11 23:05:00,
2013-01-11 17:06:00,18.1,14.4,29.55,NW,316,60.0,60.0,85,0.00,,---,0.58,VWS V14.01,2013-01-11 23:06:00,
2013-01-11 17:07:00,18.1,14.4,29.55,NW,326,60.0,60.0,85,0.00,,---,0.58,VWS V14.01,2013-01-11 23:07:00,
2013-01-11 17:08:00,18.0,14.3,29.55,NW,325,60.0,60.0,85,0.00,,---,0.58,VWS V14.01,2013-01-11 23:08:00,
2013-01-11 17:09:00,18.0,14.3,29.55,NW,322,60.0,60.0,85,0.00,,---,0.58,VWS V14.01,2013-01-11 23:09:00,
2013-01-11 17:10:00,18.0,14.3,29.55,NW,320,60.0,60.0,85,0.00,,---,0.58,VWS V14.01,2013-01-11 23:10:00,
2013-01-11 17:11:00,18.0,14.3,29.55,North,352,60.0,60.0,85,0.00,,---,0.58,VWS V14.01,2013-01-11 23:11:00,
2013-01-11 17:12:00,17.8,14.1,29.55,NNW,333,60.0,60.0,85,0.00,,---,0.58,VWS V14.01,2013-01-11 23:12:00,
2013-01-11 17:13:00,17.8,14.1,29.55,NNW,333,60.0,60.0,85,0.00,,---,0.58,VWS V14.01,2013-01-11 23:13:00,
2013-01-11 17:14:00,17.8,14.1,29.55,NNW,346,60.0,60.0,85,0.00,,---,0.58,VWS V14.01,2013-01-11 23:14:00,
2013-01-11 17:15:00,17.7,14.0,29.55,NNW,340,60.0,60.0,85,0.00,,---,0.58,VWS V14.01,2013-01-11 23:15:00,
2013-01-11 17:16:00,17.7,14.0,29.55,West,265,60.0,60.0,85,0.00,,---,0.58,VWS V14.01,2013-01-11 23:16:00,
2013-01-11 17:18:00,17.5,13.8,29.55,North,349,60.0,60.0,85,0.00,,---,0.58,VWS V14.01,2013-01-11 23:18:00,
2013-01-11 17:19:00,17.5,13.8,29.55,North,349,60.0,60.0,85,0.00,,---,0.58,VWS V14.01,2013-01-11 23:19:00,
2013-01-11 17:20:00,17.3,13.6,29.55,WNW,301,60.0,60.0,85,0.00,,---,0.58,VWS V14.01,2013-01-11 23:20:00,
2013-01-11 17:21:00,17.3,13.6,29.55,WNW,301,60.0,60.0,85,0.00,,---,0.58,VWS V14.01,2013-01-11 23:21:00,
2013-01-11 17:22:00,17.3,13.6,29.55,WNW,302,60.0,60.0,85,0.00,,---,0.58,VWS V14.01,2013-01-11 23:22:00,
2013-01-11 17:23:00,17.3,13.6,29.55,NW,304,60.0,60.0,85,0.00,,---,0.58,VWS V14.01,2013-01-11 23:23:00,
2013-01-11 17:24:00,17.3,13.6,29.55,NW,308,60.0,60.0,85,0.00,,---,0.58,VWS V14.01,2013-01-11 23:24:00,
2013-01-11 17:25:00,17.3,13.6,29.55,WNW,287,60.0,60.0,85,0.00,,---,0.58,VWS V14.01,2013-01-11 23:25:00,
2013-01-11 17:26:00,17.2,13.5,29.55,NW,309,60.0,60.0,85,0.00,,---,0.58,VWS V14.01,2013-01-11 23:26:00,
2013-01-11 17:27:00,17.2,12.9,29.55,North,1,60.0,60.0,83,0.00,,---,0.58,VWS V14.01,2013-01-11 23:27:00,
2013-01-11 17:28:00,17.0,13.0,29.55,North,357,60.0,60.0,84,0.00,,---,0.58,VWS V14.01,2013-01-11 23:28:00,
2013-01-11 17:29:00,17.0,13.3,29.55,North,357,60.0,60.0,85,0.00,,---,0.58,VWS V14.01,2013-01-11 23:29:00,
2013-01-11 17:30:00,17.0,13.3,29.56,NW,323,60.0,60.0,85,0.00,,---,0.58,VWS V14.01,2013-01-11 23:30:00,
2013-01-11 17:31:00,17.0,13.3,29.56,NW,323,60.0,60.0,85,0.00,,---,0.58,VWS V14.01,2013-01-11 23:31:00,
2013-01-11 17:32:00,17.0,13.0,29.56,North,0,60.0,60.0,84,0.00,,---,0.58,VWS V14.01,2013-01-11 23:32:00,
2013-01-11 17:33:00,17.0,13.0,29.56,North,353,60.0,60.0,84,0.00,,---,0.58,VWS V14.01,2013-01-11 23:33:00,
2013-01-11 17:34:00,16.9,12.9,29.56,North,0,60.0,60.0,84,0.00,,---,0.58,VWS V14.01,2013-01-11 23:34:00,
2013-01-11 17:35:00,16.7,12.7,29.56,NNW,346,60.0,60.0,84,0.00,,---,0.58,VWS V14.01,2013-01-11 23:35:00,
2013-01-11 17:36:00,16.7,12.7,29.56,NW,326,60.0,60.0,84,0.00,,---,0.58,VWS V14.01,2013-01-11 23:36:00,
2013-01-11 17:37:00,16.7,12.7,29.56,NW,323,60.0,60.0,84,0.00,,---,0.58,VWS V14.01,2013-01-11 23:37:00,
2013-01-11 17:38:00,16.7,12.7,29.56,North,0,60.0,60.0,84,0.00,,---,0.58,VWS V14.01,2013-01-11 23:38:00,
2013-01-11 17:39:00,16.7,12.7,29.56,North,356,60.0,60.0,84,0.00,,---,0.58,VWS V14.01,2013-01-11 23:39:00,
2013-01-11 17:40:00,16.7,12.7,29.56,NNW,343,60.0,60.0,84,0.00,,---,0.58,VWS V14.01,2013-01-11 23:40:00,
2013-01-11 17:41:00,16.7,12.7,29.56,NNW,343,60.0,60.0,84,0.00,,---,0.58,VWS V14.01,2013-01-11 23:41:00,
2013-01-11 17:42:00,16.7,12.7,29.56,NNW,343,60.0,60.0,84,0.00,,---,0.58,VWS V14.01,2013-01-11 23:42:00,
2013-01-11 17:43:00,16.7,12.7,29.56,NNW,343,60.0,60.0,84,0.00,,---,0.58,VWS V14.01,2013-01-11 23:43:00,
2013-01-11 17:44:00,16.5,12.5,29.56,NNW,343,60.0,60.0,84,0.00,,---,0.58,VWS V14.01,2013-01-11 23:44:00,
2013-01-11 17:45:00,16.5,12.5,29.56,North,352,60.0,60.0,84,0.00,,---,0.58,VWS V14.01,2013-01-11 23:45:00,
2013-01-11 17:46:00,16.5,12.5,29.56,North,349,60.0,60.0,84,0.00,,---,0.58,VWS V14.01,2013-01-11 23:46:00,
2013-01-11 17:47:00,16.5,12.5,29.56,NNW,332,60.0,60.0,84,0.00,,---,0.58,VWS V14.01,2013-01-11 23:47:00,
2013-01-11 17:48:00,16.5,12.5,29.56,NNW,339,60.0,60.0,84,0.00,,---,0.58,VWS V14.01,2013-01-11 23:48:00,
2013-01-11 17:49:00,16.5,12.5,29.56,NNW,340,60.0,60.0,84,0.00,,---,0.58,VWS V14.01,2013-01-11 23:49:00,
2013-01-11 17:50:00,16.4,12.4,29.56,NW,309,60.0,60.0,84,0.00,,---,0.58,VWS V14.01,2013-01-11 23:50:00,
2013-01-11 17:51:00,16.4,12.4,29.56,WNW,291,60.0,60.0,84,0.00,,---,0.58,VWS V14.01,2013-01-11 23:51:00,
2013-01-11 17:52:00,16.2,12.2,29.56,NNW,347,60.0,60.0,84,0.00,,---,0.58,VWS V14.01,2013-01-11 23:52:00,
2013-01-11 17:53:00,16.2,12.2,29.56,NNW,344,60.0,60.0,84,0.00,,---,0.58,VWS V14.01,2013-01-11 23:53:00,
2013-01-11 17:54:00,16.2,12.2,29.56,NNW,342,60.0,60.0,84,0.00,,---,0.58,VWS V14.01,2013-01-11 23:54:00,
2013-01-11 17:55:00,16.1,12.1,29.56,NNW,342,60.0,60.0,84,0.00,,---,0.58,VWS V14.01,2013-01-11 23:55:00,
2013-01-11 17:56:00,16.1,12.1,29.56,NNW,346,60.0,60.0,84,0.00,,---,0.58,VWS V14.01,2013-01-11 23:56:00,
2013-01-11 17:57:00,16.1,12.1,29.56,NW,323,60.0,60.0,84,0.00,,---,0.58,VWS V14.01,2013-01-11 23:57:00,
2013-01-11 17:58:00,16.1,12.1,29.56,North,359,60.0,60.0,84,0.00,,---,0.58,VWS V14.01,2013-01-11 23:58:00,
2013-01-11 17:59:00,15.9,11.9,29.56,North,359,60.0,60.0,84,0.00,,---,0.58,VWS V14.01,2013-01-11 23:59:00,
2013-01-11 18:00:00,15.9,11.9,29.57,North,350,60.0,60.0,84,0.00,,---,0.58,VWS V14.01,2013-01-12 00:00:00,
2013-01-11 18:01:00,15.9,11.9,29.57,NW,326,60.0,60.0,84,0.00,,---,0.58,VWS V14.01,2013-01-12 00:01:00,
2013-01-11 18:02:00,15.9,11.9,29.57,NW,305,60.0,60.0,84,0.00,,---,0.58,VWS V14.01,2013-01-12 00:02:00,
2013-01-11 18:03:00,15.7,11.7,29.57,North,359,60.0,60.0,84,0.00,,---,0.58,VWS V14.01,2013-01-12 00:03:00,
2013-01-11 18:04:00,15.7,11.7,29.57,North,359,60.0,60.0,84,0.00,,---,0.58,VWS V14.01,2013-01-12 00:04:00,
2013-01-11 18:05:00,15.7,11.7,29.57,North,357,60.0,60.0,84,0.00,,---,0.58,VWS V14.01,2013-01-12 00:05:00,
2013-01-11 18:06:00,15.7,11.7,29.57,North,359,60.0,60.0,84,0.00,,---,0.58,VWS V14.01,2013-01-12 00:06:00,
2013-01-11 18:07:00,15.7,11.7,29.57,NNW,346,60.0,60.0,84,0.00,,---,0.58,VWS V14.01,2013-01-12 00:07:00,
2013-01-11 18:08:00,15.7,11.7,29.57,SSE,165,60.0,60.0,84,0.00,,---,0.58,VWS V14.01,2013-01-12 00:08:00,
2013-01-11 18:09:00,15.7,11.7,29.57,North,353,60.0,60.0,84,0.00,,---,0.58,VWS V14.01,2013-01-12 00:09:00,
2013-01-11 18:10:00,15.6,11.6,29.57,North,0,60.0,60.0,84,0.00,,---,0.58,VWS V14.01,2013-01-12 00:10:00,
2013-01-11 18:11:00,15.6,11.6,29.57,NNW,340,60.0,60.0,84,0.00,,---,0.58,VWS V14.01,2013-01-12 00:11:00,
2013-01-11 18:12:00,15.6,11.6,29.57,NNW,340,60.0,60.0,84,0.00,,---,0.58,VWS V14.01,2013-01-12 00:12:00,
2013-01-11 18:13:00,15.6,11.6,29.57,North,354,60.0,60.0,84,0.00,,---,0.58,VWS V14.01,2013-01-12 00:13:00,
2013-01-11 18:14:00,15.4,11.4,29.57,North,352,60.0,60.0,84,0.00,,---,0.58,VWS V14.01,2013-01-12 00:14:00,
2013-01-11 18:15:00,15.6,11.6,29.56,North,354,60.0,60.0,84,0.00,,---,0.58,VWS V14.01,2013-01-12 00:15:00,
2013-01-11 18:16:00,15.4,11.4,29.56,NE,37,60.0,60.0,84,0.00,,---,0.58,VWS V14.01,2013-01-12 00:16:00,
2013-01-11 18:17:00,15.4,11.4,29.56,North,0,60.0,60.0,84,0.00,,---,0.58,VWS V14.01,2013-01-12 00:17:00,
2013-01-11 18:18:00,15.4,11.4,29.56,NNW,347,60.0,60.0,84,0.00,,---,0.58,VWS V14.01,2013-01-12 00:18:00,
2013-01-11 18:19:00,15.4,11.4,29.56,NNW,344,60.0,60.0,84,0.00,,---,0.58,VWS V14.01,2013-01-12 00:19:00,
2013-01-11 18:20:00,15.2,11.2,29.56,North,359,60.0,60.0,84,0.00,,---,0.58,VWS V14.01,2013-01-12 00:20:00,
2013-01-11 18:21:00,15.2,11.2,29.56,North,359,60.0,60.0,84,0.00,,---,0.58,VWS V14.01,2013-01-12 00:21:00,
2013-01-11 18:22:00,15.2,11.0,29.56,North,352,60.0,60.0,83,0.00,,---,0.58,VWS V14.01,2013-01-12 00:22:00,
2013-01-11 18:23:00,15.2,11.0,29.56,North,356,60.0,60.0,83,0.00,,---,0.58,VWS V14.01,2013-01-12 00:23:00,
2013-01-11 18:24:00,15.2,11.0,29.56,NNW,346,60.0,60.0,83,0.00,,---,0.58,VWS V14.01,2013-01-12 00:24:00,
2013-01-11 18:25:00,15.1,10.9,29.56,North,352,60.0,60.0,83,0.00,,---,0.58,VWS V14.01,2013-01-12 00:25:00,
2013-01-11 18:26:00,15.1,10.9,29.56,NNW,343,60.0,60.0,83,0.00,,---,0.58,VWS V14.01,2013-01-12 00:26:00,
2013-01-11 18:27:00,15.1,10.9,29.56,NNW,344,60.0,60.0,83,0.00,,---,0.58,VWS V14.01,2013-01-12 00:27:00,
2013-01-11 18:28:00,15.1,10.9,29.56,NNW,344,60.0,60.0,83,0.00,,---,0.58,VWS V14.01,2013-01-12 00:28:00,
2013-01-11 18:29:00,15.1,10.9,29.56,NNE,31,60.0,60.0,83,0.00,,---,0.58,VWS V14.01,2013-01-12 00:29:00,
2013-01-11 18:30:00,15.1,10.9,29.56,North,359,60.0,60.0,83,0.00,,---,0.58,VWS V14.01,2013-01-12 00:30:00,
2013-01-11 18:31:00,15.1,10.9,29.56,North,359,60.0,60.0,83,0.00,,---,0.58,VWS V14.01,2013-01-12 00:31:00,
2013-01-11 18:32:00,15.1,10.9,29.56,North,356,60.0,60.0,83,0.00,,---,0.58,VWS V14.01,2013-01-12 00:32:00,
2013-01-11 18:33:00,15.1,10.9,29.56,West,278,60.0,60.0,83,0.00,,---,0.58,VWS V14.01,2013-01-12 00:33:00,
2013-01-11 18:34:00,14.9,10.7,29.56,North,356,60.0,60.0,83,0.00,,---,0.58,VWS V14.01,2013-01-12 00:34:00,
2013-01-11 18:35:00,14.9,10.7,29.56,North,0,60.0,60.0,83,0.00,,---,0.58,VWS V14.01,2013-01-12 00:35:00,
2013-01-11 18:36:00,14.9,10.7,29.56,North,359,60.0,60.0,83,0.00,,---,0.58,VWS V14.01,2013-01-12 00:36:00,
2013-01-11 18:37:00,14.9,10.7,29.56,WNW,301,60.0,60.0,83,0.00,,---,0.58,VWS V14.01,2013-01-12 00:37:00,
2013-01-11 18:38:00,14.9,10.7,29.56,North,4,60.0,60.0,83,0.00,,---,0.58,VWS V14.01,2013-01-12 00:38:00,
2013-01-11 18:39:00,14.8,10.6,29.56,North,353,60.0,60.0,83,0.00,,---,0.58,VWS V14.01,2013-01-12 00:39:00,
2013-01-11 18:40:00,14.8,10.6,29.56,North,359,60.0,60.0,83,0.00,,---,0.58,VWS V14.01,2013-01-12 00:40:00,
2013-01-11 18:41:00,14.8,10.6,29.56,North,359,60.0,60.0,83,0.00,,---,0.58,VWS V14.01,2013-01-12 00:41:00,
2013-01-11 18:42:00,14.8,10.6,29.56,NNE,16,60.0,60.0,83,0.00,,---,0.58,VWS V14.01,2013-01-12 00:42:00,
2013-01-11 18:43:00,14.8,10.6,29.56,NW,306,60.0,60.0,83,0.00,,---,0.58,VWS V14.01,2013-01-12 00:43:00,
2013-01-11 18:44:00,14.8,10.6,29.57,WNW,285,60.0,60.0,83,0.00,,---,0.58,VWS V14.01,2013-01-12 00:44:00,
2013-01-11 18:45:00,14.8,10.6,29.57,West,278,60.0,60.0,83,0.00,,---,0.58,VWS V14.01,2013-01-12 00:45:00,
2013-01-11 18:46:00,14.8,10.6,29.57,WNW,282,60.0,60.0,83,0.00,,---,0.58,VWS V14.01,2013-01-12 00:46:00,
2013-01-11 18:47:00,14.9,10.7,29.57,North,356,60.0,60.0,83,0.00,,---,0.58,VWS V14.01,2013-01-12 00:47:00,
2013-01-11 18:48:00,14.8,10.6,29.57,North,350,60.0,60.0,83,0.00,,---,0.58,VWS V14.01,2013-01-12 00:48:00,
2013-01-11 18:49:00,14.9,10.7,29.57,North,359,60.0,60.0,83,0.00,,---,0.58,VWS V14.01,2013-01-12 00:49:00,
2013-01-11 18:50:00,14.9,10.7,29.57,WNW,288,60.0,60.0,83,0.00,,---,0.58,VWS V14.01,2013-01-12 00:50:00,
2013-01-11 18:51:00,14.9,10.7,29.57,North,0,60.0,60.0,83,0.00,,---,0.58,VWS V14.01,2013-01-12 00:51:00,
2013-01-11 18:52:00,14.8,10.6,29.57,NW,312,60.0,60.0,83,0.00,,---,0.58,VWS V14.01,2013-01-12 00:52:00,
2013-01-11 18:53:00,14.8,10.6,29.57,NW,323,60.0,60.0,83,0.00,,---,0.58,VWS V14.01,2013-01-12 00:53:00,
2013-01-11 18:54:00,14.8,10.6,29.57,North,359,60.0,60.0,83,0.00,,---,0.58,VWS V14.01,2013-01-12 00:54:00,
2013-01-11 18:55:00,14.8,10.6,29.57,North,0,60.0,60.0,83,0.00,,---,0.58,VWS V14.01,2013-01-12 00:55:00,
2013-01-11 18:56:00,14.8,10.6,29.57,NNE,16,60.0,60.0,83,0.00,,---,0.58,VWS V14.01,2013-01-12 00:56:00,
2013-01-11 18:57:00,14.8,10.6,29.57,North,11,60.0,60.0,83,0.00,,---,0.58,VWS V14.01,2013-01-12 00:57:00,
2013-01-11 18:58:00,14.8,10.6,29.57,North,10,60.0,60.0,83,0.00,,---,0.58,VWS V14.01,2013-01-12 00:58:00,
2013-01-11 18:59:00,14.6,10.4,29.57,WNW,292,60.0,60.0,83,0.00,,---,0.58,VWS V14.01,2013-01-12 00:59:00,
2013-01-11 19:00:00,14.6,10.4,29.57,North,11,60.0,60.0,83,0.00,,---,0.58,VWS V14.01,2013-01-12 01:00:00,
2013-01-11 19:01:00,14.8,10.6,29.57,North,354,60.0,60.0,83,0.00,,---,0.58,VWS V14.01,2013-01-12 01:01:00,
2013-01-11 19:02:00,14.6,10.4,29.57,North,349,60.0,60.0,83,0.00,,---,0.58,VWS V14.01,2013-01-12 01:02:00,
2013-01-11 19:03:00,14.6,10.4,29.57,North,359,60.0,60.0,83,0.00,,---,0.58,VWS V14.01,2013-01-12 01:03:00,
2013-01-11 19:04:00,14.6,10.4,29.57,North,0,60.0,60.0,83,0.00,,---,0.58,VWS V14.01,2013-01-12 01:04:00,
2013-01-11 19:05:00,14.6,10.4,29.57,North,350,60.0,60.0,83,0.00,,---,0.58,VWS V14.01,2013-01-12 01:05:00,
2013-01-11 19:06:00,14.6,10.4,29.57,NNW,336,60.0,60.0,83,0.00,,---,0.58,VWS V14.01,2013-01-12 01:06:00,
2013-01-11 19:07:00,14.6,10.4,29.57,NW,320,60.0,60.0,83,0.00,,---,0.58,VWS V14.01,2013-01-12 01:07:00,
2013-01-11 19:08:00,14.6,10.4,29.57,North,350,60.0,60.0,83,0.00,,---,0.58,VWS V14.01,2013-01-12 01:08:00,
2013-01-11 19:09:00,14.4,10.2,29.57,North,350,60.0,60.0,83,0.00,,---,0.58,VWS V14.01,2013-01-12 01:09:00,
2013-01-11 19:10:00,14.4,10.2,29.57,WNW,284,60.0,60.0,83,0.00,,---,0.58,VWS V14.01,2013-01-12 01:10:00,
2013-01-11 19:11:00,14.4,10.2,29.57,North,357,60.0,60.0,83,0.00,,---,0.58,VWS V14.01,2013-01-12 01:11:00,
2013-01-11 19:12:00,14.3,10.1,29.57,North,10,60.0,60.0,83,0.00,,---,0.58,VWS V14.01,2013-01-12 01:12:00,
2013-01-11 19:13:00,14.3,10.1,29.57,North,352,60.0,60.0,83,0.00,,---,0.58,VWS V14.01,2013-01-12 01:13:00,
2013-01-11 19:14:00,14.3,10.1,29.56,North,359,60.0,60.0,83,0.00,,---,0.58,VWS V14.01,2013-01-12 01:14:00,
2013-01-11 19:15:00,14.3,10.1,29.56,North,359,60.0,60.0,83,0.00,,---,0.58,VWS V14.01,2013-01-12 01:15:00,
2013-01-11 19:16:00,14.3,10.1,29.56,North,6,60.0,60.0,83,0.00,,---,0.58,VWS V14.01,2013-01-12 01:16:00,
2013-01-11 19:17:00,14.3,10.1,29.56,North,349,60.0,60.0,83,0.00,,---,0.58,VWS V14.01,2013-01-12 01:17:00,
2013-01-11 19:18:00,14.3,10.1,29.56,North,350,60.0,60.0,83,0.00,,---,0.58,VWS V14.01,2013-01-12 01:18:00,
2013-01-11 19:19:00,14.3,10.1,29.56,North,352,60.0,60.0,83,0.00,,---,0.58,VWS V14.01,2013-01-12 01:19:00,
2013-01-11 19:20:00,14.3,10.1,29.56,North,353,60.0,60.0,83,0.00,,---,0.58,VWS V14.01,2013-01-12 01:20:00,
2013-01-11 19:21:00,14.3,10.1,29.56,North,353,60.0,60.0,83,0.00,,---,0.58,VWS V14.01,2013-01-12 01:21:00,
2013-01-11 19:22:00,14.3,10.1,29.56,North,1,60.0,60.0,83,0.00,,---,0.58,VWS V14.01,2013-01-12 01:22:00,
2013-01-11 19:23:00,14.3,10.1,29.56,North,10,60.0,60.0,83,0.00,,---,0.58,VWS V14.01,2013-01-12 01:23:00,
2013-01-11 19:24:00,14.3,10.1,29.56,North,359,60.0,60.0,83,0.00,,---,0.58,VWS V14.01,2013-01-12 01:24:00,
2013-01-11 19:25:00,14.3,10.1,29.56,NNE,18,60.0,60.0,83,0.00,,---,0.58,VWS V14.01,2013-01-12 01:25:00,
2013-01-11 19:26:00,14.3,10.1,29.56,North,10,60.0,60.0,83,0.00,,---,0.58,VWS V14.01,2013-01-12 01:26:00,
2013-01-11 19:27:00,14.3,10.1,29.56,North,3,60.0,60.0,83,0.00,,---,0.58,VWS V14.01,2013-01-12 01:27:00,
2013-01-11 19:28:00,14.3,10.1,29.56,NNE,13,60.0,60.0,83,0.00,,---,0.58,VWS V14.01,2013-01-12 01:28:00,
2013-01-11 19:29:00,14.3,10.1,29.56,North,359,60.0,60.0,83,0.00,,---,0.58,VWS V14.01,2013-01-12 01:29:00,
2013-01-11 19:30:00,14.3,10.1,29.56,North,350,60.0,60.0,83,0.00,,---,0.58,VWS V14.01,2013-01-12 01:30:00,
2013-01-11 19:31:00,14.3,10.1,29.56,North,350,60.0,60.0,83,0.00,,---,0.58,VWS V14.01,2013-01-12 01:31:00,
2013-01-11 19:32:00,14.3,10.1,29.56,North,359,60.0,60.0,83,0.00,,---,0.58,VWS V14.01,2013-01-12 01:32:00,
2013-01-11 19:33:00,14.3,10.1,29.56,WNW,295,60.0,60.0,83,0.00,,---,0.58,VWS V14.01,2013-01-12 01:33:00,
2013-01-11 19:34:00,14.1,9.9,29.56,North,349,60.0,60.0,83,0.00,,---,0.58,VWS V14.01,2013-01-12 01:34:00,
2013-01-11 19:35:00,14.1,9.9,29.56,North,359,60.0,60.0,83,0.00,,---,0.58,VWS V14.01,2013-01-12 01:35:00,
2013-01-11 19:36:00,14.1,9.9,29.56,North,8,60.0,60.0,83,0.00,,---,0.58,VWS V14.01,2013-01-12 01:36:00,
2013-01-11 19:37:00,14.1,9.9,29.56,North,359,60.0,60.0,83,0.00,,---,0.58,VWS V14.01,2013-01-12 01:37:00,
2013-01-11 19:38:00,14.1,9.9,29.56,NNE,17,60.0,60.0,83,0.00,,---,0.58,VWS V14.01,2013-01-12 01:38:00,
2013-01-11 19:39:00,14.1,9.9,29.56,NNW,342,60.0,60.0,83,0.00,,---,0.58,VWS V14.01,2013-01-12 01:39:00,
2013-01-11 19:40:00,14.1,9.9,29.56,North,359,60.0,60.0,83,0.00,,---,0.58,VWS V14.01,2013-01-12 01:40:00,
2013-01-11 19:41:00,14.1,9.9,29.56,WNW,296,60.0,60.0,83,0.00,,---,0.58,VWS V14.01,2013-01-12 01:41:00,
2013-01-11 19:42:00,14.1,9.9,29.56,NNW,347,60.0,60.0,83,0.00,,---,0.58,VWS V14.01,2013-01-12 01:42:00,
2013-01-11 19:43:00,14.1,9.9,29.56,North,8,60.0,60.0,83,0.00,,---,0.58,VWS V14.01,2013-01-12 01:43:00,
2013-01-11 19:44:00,14.0,9.8,29.57,North,0,60.0,60.0,83,0.00,,---,0.58,VWS V14.01,2013-01-12 01:44:00,
2013-01-11 19:45:00,14.1,9.9,29.57,North,0,60.0,60.0,83,0.00,,---,0.58,VWS V14.01,2013-01-12 01:45:00,
2013-01-11 19:46:00,14.1,9.9,29.57,North,359,60.0,60.0,83,0.00,,---,0.58,VWS V14.01,2013-01-12 01:46:00,
2013-01-11 19:47:00,14.0,9.8,29.57,North,350,60.0,60.0,83,0.00,,---,0.58,VWS V14.01,2013-01-12 01:47:00,
2013-01-11 19:48:00,14.0,9.8,29.57,North,350,60.0,60.0,83,0.00,,---,0.58,VWS V14.01,2013-01-12 01:48:00,
2013-01-11 19:49:00,14.0,9.8,29.57,NNW,342,60.0,60.0,83,0.00,,---,0.58,VWS V14.01,2013-01-12 01:49:00,
2013-01-11 19:50:00,14.0,9.8,29.57,North,359,60.0,60.0,83,0.00,,---,0.58,VWS V14.01,2013-01-12 01:50:00,
2013-01-11 19:51:00,14.0,9.8,29.57,NNW,346,60.0,60.0,83,0.00,,---,0.58,VWS V14.01,2013-01-12 01:51:00,
2013-01-11 19:52:00,14.0,9.8,29.57,North,356,60.0,60.0,83,0.00,,---,0.58,VWS V14.01,2013-01-12 01:52:00,
2013-01-11 19:53:00,14.0,9.8,29.57,North,357,60.0,60.0,83,0.00,,---,0.58,VWS V14.01,2013-01-12 01:53:00,
2013-01-11 19:54:00,14.0,9.8,29.57,North,353,60.0,60.0,83,0.00,,---,0.58,VWS V14.01,2013-01-12 01:54:00,
2013-01-11 19:55:00,14.0,9.8,29.57,North,359,60.0,60.0,83,0.00,,---,0.58,VWS V14.01,2013-01-12 01:55:00,
2013-01-11 19:56:00,14.0,9.8,29.57,West,275,60.0,60.0,83,0.00,,---,0.58,VWS V14.01,2013-01-12 01:56:00,
2013-01-11 19:57:00,13.8,9.6,29.57,North,357,60.0,60.0,83,0.00,,---,0.58,VWS V14.01,2013-01-12 01:57:00,
2013-01-11 19:58:00,13.8,9.6,29.57,North,359,60.0,60.0,83,0.00,,---,0.58,VWS V14.01,2013-01-12 01:58:00,
2013-01-11 19:59:00,14.0,9.8,29.57,North,0,60.0,60.0,83,0.00,,---,0.58,VWS V14.01,2013-01-12 01:59:00,
2013-01-11 20:00:00,14.0,9.8,29.57,North,4,60.0,60.0,83,0.00,,---,0.58,VWS V14.01,2013-01-12 02:00:00,
2013-01-11 20:01:00,13.8,9.6,29.57,North,7,60.0,60.0,83,0.00,,---,0.58,VWS V14.01,2013-01-12 02:01:00,
2013-01-11 20:02:00,13.8,9.6,29.57,NNE,31,60.0,60.0,83,0.00,,---,0.58,VWS V14.01,2013-01-12 02:02:00,
2013-01-11 20:03:00,13.8,9.6,29.57,NNW,329,60.0,60.0,83,0.00,,---,0.58,VWS V14.01,2013-01-12 02:03:00,
2013-01-11 20:04:00,13.8,9.6,29.57,NNW,332,60.0,60.0,83,0.00,,---,0.58,VWS V14.01,2013-01-12 02:04:00,
2013-01-11 20:05:00,13.8,9.6,29.57,North,1,60.0,60.0,83,0.00,,---,0.58,VWS V14.01,2013-01-12 02:05:00,
2013-01-11 20:06:00,13.8,9.6,29.57,NNE,17,60.0,60.0,83,0.00,,---,0.58,VWS V14.01,2013-01-12 02:06:00,
2013-01-11 20:07:00,13.6,9.4,29.57,North,359,60.0,60.0,83,0.00,,---,0.58,VWS V14.01,2013-01-12 02:07:00,
2013-01-11 20:08:00,13.6,9.4,29.57,NNW,342,60.0,60.0,83,0.00,,---,0.58,VWS V14.01,2013-01-12 02:08:00,
2013-01-11 20:09:00,13.6,9.4,29.57,North,357,60.0,60.0,83,0.00,,---,0.58,VWS V14.01,2013-01-12 02:09:00,
2013-01-11 20:10:00,13.6,9.4,29.57,North,4,60.0,60.0,83,0.00,,---,0.58,VWS V14.01,2013-01-12 02:10:00,
2013-01-11 20:11:00,13.6,9.4,29.57,NNW,328,60.0,60.0,83,0.00,,---,0.58,VWS V14.01,2013-01-12 02:11:00,
2013-01-11 20:12:00,13.6,9.4,29.57,West,281,60.0,60.0,83,0.00,,---,0.58,VWS V14.01,2013-01-12 02:12:00,
2013-01-11 20:13:00,13.6,9.4,29.57,WNW,301,60.0,60.0,83,0.00,,---,0.58,VWS V14.01,2013-01-12 02:13:00,
2013-01-11 20:14:00,13.6,9.4,29.57,North,0,60.0,60.0,83,0.00,,---,0.58,VWS V14.01,2013-01-12 02:14:00,
2013-01-11 20:15:00,13.6,9.4,29.57,North,359,60.0,60.0,83,0.00,,---,0.58,VWS V14.01,2013-01-12 02:15:00,
2013-01-11 20:16:00,13.6,9.4,29.57,North,349,60.0,60.0,83,0.00,,---,0.58,VWS V14.01,2013-01-12 02:16:00,
2013-01-11 20:17:00,13.6,9.4,29.57,NNE,31,60.0,60.0,83,0.00,,---,0.58,VWS V14.01,2013-01-12 02:17:00,
2013-01-11 20:18:00,13.6,9.4,29.57,NNE,18,60.0,60.0,83,0.00,,---,0.58,VWS V14.01,2013-01-12 02:18:00,
2013-01-11 20:19:00,13.6,9.4,29.57,North,357,60.0,60.0,83,0.00,,---,0.58,VWS V14.01,2013-01-12 02:19:00,
2013-01-11 20:20:00,13.6,9.4,29.57,North,353,60.0,60.0,83,0.00,,---,0.58,VWS V14.01,2013-01-12 02:20:00,
2013-01-11 20:21:00,13.5,9.3,29.57,North,353,60.0,60.0,83,0.00,,---,0.58,VWS V14.01,2013-01-12 02:21:00,
2013-01-11 20:22:00,13.5,9.3,29.57,NNW,342,60.0,60.0,83,0.00,,---,0.58,VWS V14.01,2013-01-12 02:22:00,
2013-01-11 20:23:00,13.6,9.4,29.57,North,3,60.0,60.0,83,0.00,,---,0.58,VWS V14.01,2013-01-12 02:23:00,
2013-01-11 20:24:00,13.6,9.4,29.57,North,0,60.0,60.0,83,0.00,,---,0.58,VWS V14.01,2013-01-12 02:24:00,
2013-01-11 20:25:00,13.5,9.3,29.57,West,278,60.0,60.0,83,0.00,,---,0.58,VWS V14.01,2013-01-12 02:25:00,
2013-01-11 20:26:00,13.5,9.3,29.57,North,0,60.0,60.0,83,0.00,,---,0.58,VWS V14.01,2013-01-12 02:26:00,
2013-01-11 20:27:00,13.5,9.3,29.57,West,277,60.0,60.0,83,0.00,,---,0.58,VWS V14.01,2013-01-12 02:27:00,
2013-01-11 20:28:00,13.5,9.3,29.57,North,353,60.0,60.0,83,0.00,,---,0.58,VWS V14.01,2013-01-12 02:28:00,
2013-01-11 20:29:00,13.5,9.3,29.57,NNW,343,60.0,60.0,83,0.00,,---,0.58,VWS V14.01,2013-01-12 02:29:00,
2013-01-11 20:30:00,13.5,9.3,29.57,NW,312,60.0,60.0,83,0.00,,---,0.58,VWS V14.01,2013-01-12 02:30:00,
2013-01-11 20:31:00,13.5,9.3,29.57,North,7,60.0,60.0,83,0.00,,---,0.58,VWS V14.01,2013-01-12 02:31:00,
2013-01-11 20:32:00,13.5,9.3,29.57,North,6,60.0,60.0,83,0.00,,---,0.58,VWS V14.01,2013-01-12 02:32:00,
2013-01-11 20:33:00,13.5,9.3,29.57,NNW,339,60.0,60.0,83,0.00,,---,0.58,VWS V14.01,2013-01-12 02:33:00,
2013-01-11 20:34:00,13.5,9.3,29.57,North,3,60.0,60.0,83,0.00,,---,0.58,VWS V14.01,2013-01-12 02:34:00,
2013-01-11 20:35:00,13.5,9.3,29.57,North,350,60.0,60.0,83,0.00,,---,0.58,VWS V14.01,2013-01-12 02:35:00,
2013-01-11 20:36:00,13.5,9.3,29.57,North,0,60.0,60.0,83,0.00,,---,0.58,VWS V14.01,2013-01-12 02:36:00,
2013-01-11 20:37:00,13.5,9.3,29.57,NNW,340,60.0,60.0,83,0.00,,---,0.58,VWS V14.01,2013-01-12 02:37:00,
2013-01-11 20:38:00,13.5,9.3,29.57,NNW,340,60.0,60.0,83,0.00,,---,0.58,VWS V14.01,2013-01-12 02:38:00,
2013-01-11 20:39:00,13.5,9.3,29.57,North,6,60.0,60.0,83,0.00,,---,0.58,VWS V14.01,2013-01-12 02:39:00,
2013-01-11 20:40:00,13.5,9.3,29.57,NW,305,60.0,60.0,83,0.00,,---,0.58,VWS V14.01,2013-01-12 02:40:00,
2013-01-11 20:41:00,13.5,9.3,29.57,North,0,60.0,60.0,83,0.00,,---,0.58,VWS V14.01,2013-01-12 02:41:00,
2013-01-11 20:42:00,13.5,9.3,29.57,NW,304,60.0,60.0,83,0.00,,---,0.58,VWS V14.01,2013-01-12 02:42:00,
2013-01-11 20:43:00,13.5,9.3,29.57,NNW,342,60.0,60.0,83,0.00,,---,0.58,VWS V14.01,2013-01-12 02:43:00,
2013-01-11 20:44:00,13.5,9.3,29.57,North,1,60.0,60.0,83,0.00,,---,0.58,VWS V14.01,2013-01-12 02:44:00,
2013-01-11 20:45:00,13.5,9.3,29.57,NNE,20,60.0,60.0,83,0.00,,---,0.58,VWS V14.01,2013-01-12 02:45:00,
2013-01-11 20:46:00,13.5,9.3,29.57,North,359,60.0,60.0,83,0.00,,---,0.58,VWS V14.01,2013-01-12 02:46:00,
2013-01-11 20:47:00,13.5,9.3,29.57,North,0,60.0,60.0,83,0.00,,---,0.58,VWS V14.01,2013-01-12 02:47:00,
2013-01-11 20:48:00,13.5,9.3,29.57,North,0,60.0,60.0,83,0.00,,---,0.58,VWS V14.01,2013-01-12 02:48:00,
2013-01-11 20:49:00,13.5,9.3,29.57,NNW,343,60.0,60.0,83,0.00,,---,0.58,VWS V14.01,2013-01-12 02:49:00,
2013-01-11 20:50:00,13.5,9.3,29.57,North,356,60.0,60.0,83,0.00,,---,0.58,VWS V14.01,2013-01-12 02:50:00,
2013-01-11 20:51:00,13.5,9.3,29.57,North,0,60.0,60.0,83,0.00,,---,0.58,VWS V14.01,2013-01-12 02:51:00,
2013-01-11 20:52:00,13.5,9.3,29.57,NW,312,60.0,60.0,83,0.00,,---,0.58,VWS V14.01,2013-01-12 02:52:00,
2013-01-11 20:53:00,13.5,9.3,29.57,North,0,60.0,60.0,83,0.00,,---,0.58,VWS V14.01,2013-01-12 02:53:00,
2013-01-11 20:54:00,13.5,9.3,29.57,North,0,60.0,60.0,83,0.00,,---,0.58,VWS V14.01,2013-01-12 02:54:00,
2013-01-11 20:55:00,13.5,9.3,29.57,North,0,60.0,60.0,83,0.00,,---,0.58,VWS V14.01,2013-01-12 02:55:00,
2013-01-11 20:56:00,13.5,9.3,29.57,North,359,60.0,60.0,83,0.00,,---,0.58,VWS V14.01,2013-01-12 02:56:00,
2013-01-11 20:57:00,13.5,9.3,29.57,NNE,23,60.0,60.0,83,0.00,,---,0.58,VWS V14.01,2013-01-12 02:57:00,
2013-01-11 20:58:00,13.5,9.3,29.57,North,356,60.0,60.0,83,0.00,,---,0.58,VWS V14.01,2013-01-12 02:58:00,
2013-01-11 20:59:00,13.5,9.3,29.57,North,0,60.0,60.0,83,0.00,,---,0.58,VWS V14.01,2013-01-12 02:59:00,
2013-01-11 21:00:00,13.3,9.1,29.57,NNW,336,60.0,60.0,83,0.00,,---,0.58,VWS V14.01,2013-01-12 03:00:00,
2013-01-11 21:01:00,13.3,9.1,29.57,West,281,60.0,60.0,83,0.00,,---,0.58,VWS V14.01,2013-01-12 03:01:00,
2013-01-11 21:02:00,13.5,9.3,29.57,North,0,60.0,60.0,83,0.00,,---,0.58,VWS V14.01,2013-01-12 03:02:00,
2013-01-11 21:03:00,13.3,9.1,29.57,WNW,287,60.0,60.0,83,0.00,,---,0.58,VWS V14.01,2013-01-12 03:03:00,
2013-01-11 21:04:00,13.5,9.3,29.57,North,0,60.0,60.0,83,0.00,,---,0.58,VWS V14.01,2013-01-12 03:04:00,
2013-01-11 21:05:00,13.5,9.3,29.57,WNW,289,60.0,60.0,83,0.00,,---,0.58,VWS V14.01,2013-01-12 03:05:00,
2013-01-11 21:06:00,13.5,9.3,29.57,North,6,60.0,60.0,83,0.00,,---,0.58,VWS V14.01,2013-01-12 03:06:00,
2013-01-11 21:07:00,13.5,9.3,29.57,NNW,347,60.0,60.0,83,0.00,,---,0.58,VWS V14.01,2013-01-12 03:07:00,
2013-01-11 21:08:00,13.5,9.3,29.57,North,353,60.0,60.0,83,0.00,,---,0.58,VWS V14.01,2013-01-12 03:08:00,
2013-01-11 21:09:00,13.5,9.3,29.57,North,354,60.0,60.0,83,0.00,,---,0.58,VWS V14.01,2013-01-12 03:09:00,
2013-01-11 21:10:00,13.5,9.3,29.57,NNE,16,60.0,60.0,83,0.00,,---,0.58,VWS V14.01,2013-01-12 03:10:00,
2013-01-11 21:11:00,13.5,9.3,29.57,North,0,60.0,60.0,83,0.00,,---,0.58,VWS V14.01,2013-01-12 03:11:00,
2013-01-11 21:12:00,13.5,9.3,29.57,North,349,60.0,60.0,83,0.00,,---,0.58,VWS V14.01,2013-01-12 03:12:00,
2013-01-11 21:13:00,13.5,9.3,29.57,North,359,60.0,60.0,83,0.00,,---,0.58,VWS V14.01,2013-01-12 03:13:00,
2013-01-11 21:14:00,13.5,9.3,29.58,North,359,60.0,60.0,83,0.00,,---,0.58,VWS V14.01,2013-01-12 03:14:00,
2013-01-11 21:15:00,13.5,9.3,29.58,North,0,60.0,60.0,83,0.00,,---,0.58,VWS V14.01,2013-01-12 03:15:00,
2013-01-11 21:16:00,13.5,9.3,29.58,WNW,294,60.0,60.0,83,0.00,,---,0.58,VWS V14.01,2013-01-12 03:16:00,
2013-01-11 21:17:00,13.5,9.3,29.58,North,10,60.0,60.0,83,0.00,,---,0.58,VWS V14.01,2013-01-12 03:17:00,
2013-01-11 21:18:00,13.5,9.3,29.58,North,0,60.0,60.0,83,0.00,,---,0.58,VWS V14.01,2013-01-12 03:18:00,
2013-01-11 21:19:00,13.5,9.3,29.58,North,359,60.0,60.0,83,0.00,,---,0.58,VWS V14.01,2013-01-12 03:19:00,
2013-01-11 21:20:00,13.5,9.3,29.58,NW,322,60.0,60.0,83,0.00,,---,0.58,VWS V14.01,2013-01-12 03:20:00,
2013-01-11 21:21:00,13.5,9.3,29.58,North,1,60.0,60.0,83,0.00,,---,0.58,VWS V14.01,2013-01-12 03:21:00,
2013-01-11 21:22:00,13.5,9.3,29.58,North,0,60.0,60.0,83,0.00,,---,0.58,VWS V14.01,2013-01-12 03:22:00,
2013-01-11 21:23:00,13.5,9.3,29.58,North,359,60.0,60.0,83,0.00,,---,0.58,VWS V14.01,2013-01-12 03:23:00,
2013-01-11 21:24:00,13.5,9.3,29.58,NW,319,60.0,60.0,83,0.00,,---,0.58,VWS V14.01,2013-01-12 03:24:00,
2013-01-11 21:25:00,13.5,9.3,29.58,North,1,60.0,60.0,83,0.00,,---,0.58,VWS V14.01,2013-01-12 03:25:00,
2013-01-11 21:26:00,13.5,9.3,29.58,North,1,60.0,60.0,83,0.00,,---,0.58,VWS V14.01,2013-01-12 03:26:00,
2013-01-11 21:27:00,13.5,9.3,29.58,North,0,60.0,60.0,83,0.00,,---,0.58,VWS V14.01,2013-01-12 03:27:00,
2013-01-11 21:28:00,13.5,9.3,29.58,NW,315,60.0,60.0,83,0.00,,---,0.58,VWS V14.01,2013-01-12 03:28:00,
2013-01-11 21:29:00,13.5,9.3,29.58,North,349,60.0,60.0,83,0.00,,---,0.58,VWS V14.01,2013-01-12 03:29:00,
2013-01-11 21:30:00,13.5,9.3,29.58,North,359,60.0,60.0,83,0.00,,---,0.58,VWS V14.01,2013-01-12 03:30:00,
2013-01-11 21:31:00,13.3,9.1,29.58,North,359,60.0,60.0,83,0.00,,---,0.58,VWS V14.01,2013-01-12 03:31:00,
2013-01-11 21:32:00,13.3,9.1,29.58,NW,304,60.0,60.0,83,0.00,,---,0.58,VWS V14.01,2013-01-12 03:32:00,
2013-01-11 21:33:00,13.3,9.1,29.58,WNW,302,60.0,60.0,83,0.00,,---,0.58,VWS V14.01,2013-01-12 03:33:00,
2013-01-11 21:34:00,13.3,9.1,29.58,North,359,60.0,60.0,83,0.00,,---,0.58,VWS V14.01,2013-01-12 03:34:00,
2013-01-11 21:35:00,13.3,9.1,29.58,North,0,60.0,60.0,83,0.00,,---,0.58,VWS V14.01,2013-01-12 03:35:00,
2013-01-11 21:36:00,13.3,9.1,29.58,North,0,60.0,60.0,83,0.00,,---,0.58,VWS V14.01,2013-01-12 03:36:00,
2013-01-11 21:37:00,13.3,9.1,29.58,North,0,60.0,60.0,83,0.00,,---,0.58,VWS V14.01,2013-01-12 03:37:00,
2013-01-11 21:38:00,13.3,9.1,29.58,WNW,302,60.0,60.0,83,0.00,,---,0.58,VWS V14.01,2013-01-12 03:38:00,
2013-01-11 21:39:00,13.3,9.1,29.58,NNW,342,60.0,60.0,83,0.00,,---,0.58,VWS V14.01,2013-01-12 03:39:00,
2013-01-11 21:40:00,13.3,9.1,29.58,NNW,343,60.0,60.0,83,0.00,,---,0.58,VWS V14.01,2013-01-12 03:40:00,
2013-01-11 21:41:00,13.3,9.1,29.58,North,359,60.0,60.0,83,0.00,,---,0.58,VWS V14.01,2013-01-12 03:41:00,
2013-01-11 21:42:00,13.3,9.1,29.58,North,357,60.0,60.0,83,0.00,,---,0.58,VWS V14.01,2013-01-12 03:42:00,
2013-01-11 21:43:00,13.3,9.1,29.58,North,357,60.0,60.0,83,0.00,,---,0.58,VWS V14.01,2013-01-12 03:43:00,
2013-01-11 21:44:00,13.3,9.1,29.58,North,4,60.0,60.0,83,0.00,,---,0.58,VWS V14.01,2013-01-12 03:44:00,
2013-01-11 21:45:00,13.3,9.1,29.58,North,359,60.0,60.0,83,0.00,,---,0.58,VWS V14.01,2013-01-12 03:45:00,
2013-01-11 21:46:00,13.3,9.1,29.58,WNW,288,60.0,60.0,83,0.00,,---,0.58,VWS V14.01,2013-01-12 03:46:00,
2013-01-11 21:47:00,13.3,9.1,29.58,North,357,60.0,60.0,83,0.00,,---,0.58,VWS V14.01,2013-01-12 03:47:00,
2013-01-11 21:48:00,13.1,8.9,29.58,North,356,60.0,60.0,83,0.00,,---,0.58,VWS V14.01,2013-01-12 03:48:00,
2013-01-11 21:49:00,13.1,8.9,29.58,WNW,285,60.0,60.0,83,0.00,,---,0.58,VWS V14.01,2013-01-12 03:49:00,
2013-01-11 21:50:00,13.1,8.9,29.58,North,357,60.0,60.0,83,0.00,,---,0.58,VWS V14.01,2013-01-12 03:50:00,
2013-01-11 21:51:00,13.1,8.9,29.58,North,357,60.0,60.0,83,0.00,,---,0.58,VWS V14.01,2013-01-12 03:51:00,
2013-01-11 21:52:00,13.1,8.6,29.58,WNW,287,60.0,60.0,82,0.00,,---,0.58,VWS V14.01,2013-01-12 03:52:00,
2013-01-11 21:53:00,13.1,8.9,29.58,North,359,60.0,60.0,83,0.00,,---,0.58,VWS V14.01,2013-01-12 03:53:00,
2013-01-11 21:54:00,13.1,8.6,29.58,North,359,60.0,60.0,82,0.00,,---,0.58,VWS V14.01,2013-01-12 03:54:00,
2013-01-11 21:55:00,13.1,8.9,29.58,North,353,60.0,60.0,83,0.00,,---,0.58,VWS V14.01,2013-01-12 03:55:00,
2013-01-11 21:56:00,13.1,8.9,29.58,North,352,60.0,60.0,83,0.00,,---,0.58,VWS V14.01,2013-01-12 03:56:00,
2013-01-11 21:57:00,13.1,8.9,29.58,WNW,282,60.0,60.0,83,0.00,,---,0.58,VWS V14.01,2013-01-12 03:57:00,
2013-01-11 21:58:00,13.1,8.9,29.58,North,3,60.0,60.0,83,0.00,,---,0.58,VWS V14.01,2013-01-12 03:58:00,
2013-01-11 21:59:00,13.1,8.9,29.58,North,0,60.0,60.0,83,0.00,,---,0.58,VWS V14.01,2013-01-12 03:59:00,
2013-01-11 22:00:00,13.1,8.9,29.58,NNE,14,60.0,60.0,83,0.00,,---,0.58,VWS V14.01,2013-01-12 04:00:00,
2013-01-11 22:01:00,13.1,8.9,29.58,North,0,60.0,60.0,83,0.00,,---,0.58,VWS V14.01,2013-01-12 04:01:00,
2013-01-11 22:02:00,13.1,8.6,29.58,North,1,60.0,60.0,82,0.00,,---,0.58,VWS V14.01,2013-01-12 04:02:00,
2013-01-11 22:03:00,13.1,8.9,29.58,North,7,60.0,60.0,83,0.00,,---,0.58,VWS V14.01,2013-01-12 04:03:00,
2013-01-11 22:04:00,13.1,8.9,29.58,North,11,60.0,60.0,83,0.00,,---,0.58,VWS V14.01,2013-01-12 04:04:00,
2013-01-11 22:05:00,13.1,8.9,29.58,North,10,60.0,60.0,83,0.00,,---,0.58,VWS V14.01,2013-01-12 04:05:00,
2013-01-11 22:06:00,13.1,8.9,29.58,North,359,60.0,60.0,83,0.00,,---,0.58,VWS V14.01,2013-01-12 04:06:00,
2013-01-11 22:07:00,13.1,8.9,29.58,NNW,339,60.0,60.0,83,0.00,,---,0.58,VWS V14.01,2013-01-12 04:07:00,
2013-01-11 22:08:00,13.1,8.9,29.58,NNW,347,60.0,60.0,83,0.00,,---,0.58,VWS V14.01,2013-01-12 04:08:00,
2013-01-11 22:09:00,13.1,8.9,29.58,NNW,342,60.0,60.0,83,0.00,,---,0.58,VWS V14.01,2013-01-12 04:09:00,
2013-01-11 22:10:00,12.9,8.4,29.58,NNW,347,60.0,60.0,82,0.00,,---,0.58,VWS V14.01,2013-01-12 04:10:00,
2013-01-11 22:11:00,12.9,8.4,29.58,NNW,347,60.0,60.0,82,0.00,,---,0.58,VWS V14.01,2013-01-12 04:11:00,
2013-01-11 22:12:00,12.9,8.4,29.58,NNW,347,60.0,60.0,82,0.00,,---,0.58,VWS V14.01,2013-01-12 04:12:00,
2013-01-11 22:13:00,12.9,8.7,29.58,North,352,60.0,60.0,83,0.00,,---,0.58,VWS V14.01,2013-01-12 04:13:00,
2013-01-11 22:14:00,12.9,8.7,29.58,NW,311,60.0,60.0,83,0.00,,---,0.58,VWS V14.01,2013-01-12 04:14:00,
2013-01-11 22:15:00,12.9,8.7,29.58,NW,311,60.0,60.0,83,0.00,,---,0.58,VWS V14.01,2013-01-12 04:15:00,
2013-01-11 22:16:00,12.9,8.7,29.58,NNW,333,60.0,60.0,83,0.00,,---,0.58,VWS V14.01,2013-01-12 04:16:00,
2013-01-11 22:17:00,13.1,8.9,29.58,NNW,335,60.0,60.0,83,0.00,,---,0.58,VWS V14.01,2013-01-12 04:17:00,
2013-01-11 22:18:00,12.9,8.4,29.58,North,359,60.0,60.0,82,0.00,,---,0.58,VWS V14.01,2013-01-12 04:18:00,
2013-01-11 22:19:00,12.9,8.4,29.58,WNW,292,60.0,60.0,82,0.00,,---,0.58,VWS V14.01,2013-01-12 04:19:00,
2013-01-11 22:20:00,12.9,8.4,29.58,North,359,60.0,60.0,82,0.00,,---,0.58,VWS V14.01,2013-01-12 04:20:00,
2013-01-11 22:21:00,12.9,8.4,29.58,North,8,60.0,60.0,82,0.00,,---,0.58,VWS V14.01,2013-01-12 04:21:00,
2013-01-11 22:22:00,12.9,8.4,29.58,North,0,60.0,60.0,82,0.00,,---,0.58,VWS V14.01,2013-01-12 04:22:00,
2013-01-11 22:23:00,12.9,8.4,29.58,North,359,60.0,60.0,82,0.00,,---,0.58,VWS V14.01,2013-01-12 04:23:00,
2013-01-11 22:24:00,12.9,8.4,29.58,North,0,60.0,60.0,82,0.00,,---,0.58,VWS V14.01,2013-01-12 04:24:00,
2013-01-11 22:25:00,12.9,8.4,29.58,North,356,60.0,60.0,82,0.00,,---,0.58,VWS V14.01,2013-01-12 04:25:00,
2013-01-11 22:26:00,12.9,8.4,29.58,North,354,60.0,60.0,82,0.00,,---,0.58,VWS V14.01,2013-01-12 04:26:00,
2013-01-11 22:27:00,12.9,8.4,29.58,NNW,329,60.0,60.0,82,0.00,,---,0.58,VWS V14.01,2013-01-12 04:27:00,
2013-01-11 22:28:00,12.9,8.4,29.58,NNW,329,60.0,60.0,82,0.00,,---,0.58,VWS V14.01,2013-01-12 04:28:00,
2013-01-11 22:29:00,12.9,8.7,29.58,NNW,340,60.0,60.0,83,0.00,,---,0.58,VWS V14.01,2013-01-12 04:29:00,
2013-01-11 22:30:00,12.9,8.7,29.58,NW,315,60.0,60.0,83,0.00,,---,0.58,VWS V14.01,2013-01-12 04:30:00,
2013-01-11 22:31:00,12.9,8.4,29.58,NNW,337,60.0,60.0,82,0.00,,---,0.58,VWS V14.01,2013-01-12 04:31:00,
2013-01-11 22:32:00,12.8,8.4,29.58,North,359,60.0,60.0,82,0.00,,---,0.58,VWS V14.01,2013-01-12 04:32:00,
2013-01-11 22:33:00,12.8,8.4,29.58,WNW,294,60.0,60.0,82,0.00,,---,0.58,VWS V14.01,2013-01-12 04:33:00,
2013-01-11 22:34:00,12.8,8.4,29.58,North,359,60.0,60.0,82,0.00,,---,0.58,VWS V14.01,2013-01-12 04:34:00,
2013-01-11 22:35:00,12.8,8.4,29.58,North,359,60.0,60.0,82,0.00,,---,0.58,VWS V14.01,2013-01-12 04:35:00,
2013-01-11 22:36:00,12.8,8.4,29.58,North,0,60.0,60.0,82,0.00,,---,0.58,VWS V14.01,2013-01-12 04:36:00,
2013-01-11 22:37:00,12.8,8.4,29.58,NNW,343,60.0,60.0,82,0.00,,---,0.58,VWS V14.01,2013-01-12 04:37:00,
2013-01-11 22:38:00,12.8,8.4,29.58,NNW,342,60.0,60.0,82,0.00,,---,0.58,VWS V14.01,2013-01-12 04:38:00,
2013-01-11 22:39:00,12.8,8.4,29.58,North,359,60.0,60.0,82,0.00,,---,0.58,VWS V14.01,2013-01-12 04:39:00,
2013-01-11 22:40:00,12.8,8.4,29.58,North,349,60.0,60.0,82,0.00,,---,0.58,VWS V14.01,2013-01-12 04:40:00,
2013-01-11 22:41:00,12.8,8.4,29.58,North,353,60.0,60.0,82,0.00,,---,0.58,VWS V14.01,2013-01-12 04:41:00,
2013-01-11 22:42:00,12.8,8.4,29.58,North,359,60.0,60.0,82,0.00,,---,0.58,VWS V14.01,2013-01-12 04:42:00,
2013-01-11 22:43:00,12.6,8.2,29.58,North,359,60.0,60.0,82,0.00,,---,0.58,VWS V14.01,2013-01-12 04:43:00,
2013-01-11 22:44:00,12.8,8.4,29.58,North,357,60.0,60.0,82,0.00,,---,0.58,VWS V14.01,2013-01-12 04:44:00,
2013-01-11 22:45:00,12.6,8.2,29.58,North,357,60.0,60.0,82,0.00,,---,0.58,VWS V14.01,2013-01-12 04:45:00,
2013-01-11 22:46:00,12.6,8.2,29.58,North,357,60.0,60.0,82,0.00,,---,0.58,VWS V14.01,2013-01-12 04:46:00,
2013-01-11 22:47:00,12.6,8.2,29.58,North,356,60.0,60.0,82,0.00,,---,0.58,VWS V14.01,2013-01-12 04:47:00,
2013-01-11 22:48:00,12.6,8.2,29.58,North,357,60.0,60.0,82,0.00,,---,0.58,VWS V14.01,2013-01-12 04:48:00,
2013-01-11 22:49:00,12.6,8.2,29.58,NW,313,60.0,60.0,82,0.00,,---,0.58,VWS V14.01,2013-01-12 04:49:00,
2013-01-11 22:50:00,12.6,8.2,29.58,NW,319,60.0,60.0,82,0.00,,---,0.58,VWS V14.01,2013-01-12 04:50:00,
2013-01-11 22:51:00,12.6,8.2,29.58,North,0,60.0,60.0,82,0.00,,---,0.58,VWS V14.01,2013-01-12 04:51:00,
2013-01-11 22:52:00,12.6,8.2,29.58,NW,311,60.0,60.0,82,0.00,,---,0.58,VWS V14.01,2013-01-12 04:52:00,
2013-01-11 22:53:00,12.4,8.0,29.58,North,350,60.0,60.0,82,0.00,,---,0.58,VWS V14.01,2013-01-12 04:53:00,
2013-01-11 22:54:00,12.4,8.0,29.58,North,352,60.0,60.0,82,0.00,,---,0.58,VWS V14.01,2013-01-12 04:54:00,
2013-01-11 22:55:00,12.4,8.0,29.58,NNW,340,60.0,60.0,82,0.00,,---,0.58,VWS V14.01,2013-01-12 04:55:00,
2013-01-11 22:56:00,12.4,8.0,29.58,NNW,339,60.0,60.0,82,0.00,,---,0.58,VWS V14.01,2013-01-12 04:56:00,
2013-01-11 22:57:00,12.4,8.0,29.58,North,353,60.0,60.0,82,0.00,,---,0.58,VWS V14.01,2013-01-12 04:57:00,
2013-01-11 22:58:00,12.4,8.0,29.58,North,10,60.0,60.0,82,0.00,,---,0.58,VWS V14.01,2013-01-12 04:58:00,
2013-01-11 22:59:00,12.4,8.0,29.58,North,0,60.0,60.0,82,0.00,,---,0.58,VWS V14.01,2013-01-12 04:59:00,
2013-01-11 23:00:00,12.3,7.9,29.59,WNW,299,60.0,60.0,82,0.00,,---,0.58,VWS V14.01,2013-01-12 05:00:00,
2013-01-11 23:01:00,12.3,7.9,29.59,NW,309,60.0,60.0,82,0.00,,---,0.58,VWS V14.01,2013-01-12 05:01:00,
2013-01-11 23:02:00,12.3,7.9,29.59,NNW,335,60.0,60.0,82,0.00,,---,0.58,VWS V14.01,2013-01-12 05:02:00,
2013-01-11 23:03:00,12.3,7.9,29.59,NNW,332,60.0,60.0,82,0.00,,---,0.58,VWS V14.01,2013-01-12 05:03:00,
2013-01-11 23:04:00,12.3,7.9,29.59,North,1,60.0,60.0,82,0.00,,---,0.58,VWS V14.01,2013-01-12 05:04:00,
2013-01-11 23:05:00,12.3,7.9,29.59,NW,306,60.0,60.0,82,0.00,,---,0.58,VWS V14.01,2013-01-12 05:05:00,
2013-01-11 23:06:00,12.1,7.7,29.59,NNW,346,60.0,60.0,82,0.00,,---,0.58,VWS V14.01,2013-01-12 05:06:00,
2013-01-11 23:07:00,12.1,7.7,29.59,NNW,344,60.0,60.0,82,0.00,,---,0.58,VWS V14.01,2013-01-12 05:07:00,
2013-01-11 23:08:00,12.1,7.7,29.59,NW,326,60.0,60.0,82,0.00,,---,0.58,VWS V14.01,2013-01-12 05:08:00,
2013-01-11 23:09:00,12.1,7.7,29.59,North,349,60.0,60.0,82,0.00,,---,0.58,VWS V14.01,2013-01-12 05:09:00,
2013-01-11 23:10:00,12.1,7.7,29.59,WNW,302,60.0,60.0,82,0.00,,---,0.58,VWS V14.01,2013-01-12 05:10:00,
2013-01-11 23:11:00,11.9,7.5,29.59,NNW,332,60.0,60.0,82,0.00,,---,0.58,VWS V14.01,2013-01-12 05:11:00,
2013-01-11 23:12:00,11.9,7.5,29.59,NNW,328,60.0,60.0,82,0.00,,---,0.58,VWS V14.01,2013-01-12 05:12:00,
2013-01-11 23:13:00,11.9,7.5,29.59,North,353,60.0,60.0,82,0.00,,---,0.58,VWS V14.01,2013-01-12 05:13:00,
2013-01-11 23:14:00,11.9,7.5,29.59,North,359,60.0,60.0,82,0.00,,---,0.58,VWS V14.01,2013-01-12 05:14:00,
2013-01-11 23:15:00,11.9,7.5,29.59,NNW,330,60.0,60.0,82,0.00,,---,0.58,VWS V14.01,2013-01-12 05:15:00,
2013-01-11 23:16:00,11.9,7.5,29.59,NNW,337,60.0,60.0,82,0.00,,---,0.58,VWS V14.01,2013-01-12 05:16:00,
2013-01-11 23:17:00,11.9,7.5,29.59,North,3,60.0,60.0,82,0.00,,---,0.58,VWS V14.01,2013-01-12 05:17:00,
2013-01-11 23:18:00,11.9,7.5,29.59,WNW,289,60.0,60.0,82,0.00,,---,0.58,VWS V14.01,2013-01-12 05:18:00,
2013-01-11 23:19:00,11.7,7.3,29.59,NNW,332,60.0,60.0,82,0.00,,---,0.58,VWS V14.01,2013-01-12 05:19:00,
2013-01-11 23:20:00,11.7,7.3,29.59,NW,311,60.0,60.0,82,0.00,,---,0.58,VWS V14.01,2013-01-12 05:20:00,
2013-01-11 23:21:00,11.7,7.3,29.59,North,357,60.0,60.0,82,0.00,,---,0.58,VWS V14.01,2013-01-12 05:21:00,
2013-01-11 23:22:00,11.7,7.3,29.59,NNE,30,60.0,60.0,82,0.00,,---,0.58,VWS V14.01,2013-01-12 05:22:00,
2013-01-11 23:23:00,11.7,7.3,29.59,NNW,336,60.0,60.0,82,0.00,,---,0.58,VWS V14.01,2013-01-12 05:23:00,
2013-01-11 23:24:00,11.7,7.3,29.59,NNW,347,60.0,60.0,82,0.00,,---,0.58,VWS V14.01,2013-01-12 05:24:00,
2013-01-11 23:25:00,11.6,7.2,29.59,NW,326,60.0,60.0,82,0.00,,---,0.58,VWS V14.01,2013-01-12 05:25:00,
2013-01-11 23:26:00,11.6,6.9,29.59,North,357,60.0,60.0,81,0.00,,---,0.58,VWS V14.01,2013-01-12 05:26:00,
2013-01-11 23:27:00,11.6,6.9,29.59,North,352,60.0,60.0,81,0.00,,---,0.58,VWS V14.01,2013-01-12 05:27:00,
2013-01-11 23:28:00,11.6,6.9,29.59,North,359,60.0,60.0,81,0.00,,---,0.58,VWS V14.01,2013-01-12 05:28:00,
2013-01-11 23:29:00,11.6,6.9,29.58,NNW,336,60.0,60.0,81,0.00,,---,0.58,VWS V14.01,2013-01-12 05:29:00,
2013-01-11 23:30:00,11.4,6.7,29.58,NW,320,60.0,60.0,81,0.00,,---,0.58,VWS V14.01,2013-01-12 05:30:00,
2013-01-11 23:31:00,11.4,6.7,29.58,North,0,60.0,60.0,81,0.00,,---,0.58,VWS V14.01,2013-01-12 05:31:00,
2013-01-11 23:32:00,11.4,6.7,29.58,North,352,60.0,60.0,81,0.00,,---,0.58,VWS V14.01,2013-01-12 05:32:00,
2013-01-11 23:33:00,11.4,6.7,29.58,NNW,342,60.0,60.0,81,0.00,,---,0.58,VWS V14.01,2013-01-12 05:33:00,
2013-01-11 23:34:00,11.4,6.7,29.58,NW,326,60.0,60.0,81,0.00,,---,0.58,VWS V14.01,2013-01-12 05:34:00,
2013-01-11 23:35:00,11.4,6.7,29.58,North,359,60.0,60.0,81,0.00,,---,0.58,VWS V14.01,2013-01-12 05:35:00,
2013-01-11 23:36:00,11.4,6.7,29.58,NNW,346,60.0,60.0,81,0.00,,---,0.58,VWS V14.01,2013-01-12 05:36:00,
2013-01-11 23:37:00,11.4,6.7,29.58,NNE,13,60.0,60.0,81,0.00,,---,0.58,VWS V14.01,2013-01-12 05:37:00,
2013-01-11 23:38:00,11.4,6.7,29.58,WNW,299,60.0,60.0,81,0.00,,---,0.58,VWS V14.01,2013-01-12 05:38:00,
2013-01-11 23:39:00,11.4,6.7,29.58,NNW,337,60.0,60.0,81,0.00,,---,0.58,VWS V14.01,2013-01-12 05:39:00,
2013-01-11 23:40:00,11.4,6.7,29.58,NNW,337,60.0,60.0,81,0.00,,---,0.58,VWS V14.01,2013-01-12 05:40:00,
2013-01-11 23:41:00,11.2,6.5,29.58,North,6,60.0,60.0,81,0.00,,---,0.58,VWS V14.01,2013-01-12 05:41:00,
2013-01-11 23:42:00,11.2,6.5,29.58,NW,312,60.0,60.0,81,0.00,,---,0.58,VWS V14.01,2013-01-12 05:42:00,
2013-01-11 23:43:00,11.2,6.5,29.58,North,349,60.0,60.0,81,0.00,,---,0.58,VWS V14.01,2013-01-12 05:43:00,
2013-01-11 23:44:00,11.2,6.5,29.58,NNW,347,60.0,60.0,81,0.00,,---,0.58,VWS V14.01,2013-01-12 05:44:00,
2013-01-11 23:45:00,11.2,6.5,29.59,NNW,346,60.0,60.0,81,0.00,,---,0.58,VWS V14.01,2013-01-12 05:45:00,
2013-01-11 23:46:00,11.2,6.5,29.59,NNW,333,60.0,60.0,81,0.00,,---,0.58,VWS V14.01,2013-01-12 05:46:00,
2013-01-11 23:47:00,11.2,6.5,29.59,North,359,60.0,60.0,81,0.00,,---,0.58,VWS V14.01,2013-01-12 05:47:00,
2013-01-11 23:48:00,11.2,6.5,29.59,North,0,60.0,60.0,81,0.00,,---,0.58,VWS V14.01,2013-01-12 05:48:00,
2013-01-11 23:49:00,11.2,6.5,29.59,North,359,60.0,60.0,81,0.00,,---,0.58,VWS V14.01,2013-01-12 05:49:00,
2013-01-11 23:50:00,11.1,6.4,29.59,NNW,329,60.0,60.0,81,0.00,,---,0.58,VWS V14.01,2013-01-12 05:50:00,
2013-01-11 23:51:00,11.1,6.4,29.59,WNW,294,60.0,60.0,81,0.00,,---,0.58,VWS V14.01,2013-01-12 05:51:00,
2013-01-11 23:52:00,11.1,6.4,29.59,NNW,336,60.0,60.0,81,0.00,,---,0.58,VWS V14.01,2013-01-12 05:52:00,
2013-01-11 23:53:00,11.1,6.4,29.59,North,359,60.0,60.0,81,0.00,,---,0.58,VWS V14.01,2013-01-12 05:53:00,
2013-01-11 23:54:00,11.1,6.4,29.59,NNW,343,60.0,60.0,81,0.00,,---,0.58,VWS V14.01,2013-01-12 05:54:00,
2013-01-11 23:55:00,11.1,6.4,29.59,NNW,346,60.0,60.0,81,0.00,,---,0.58,VWS V14.01,2013-01-12 05:55:00,
2013-01-11 23:56:00,11.1,6.4,29.59,NNW,342,60.0,60.0,81,0.00,,---,0.58,VWS V14.01,2013-01-12 05:56:00,
2013-01-11 23:57:00,10.9,6.2,29.59,NNW,342,60.0,60.0,81,0.00,,---,0.58,VWS V14.01,2013-01-12 05:57:00,
2013-01-11 23:58:00,10.9,6.2,29.59,NNW,340,60.0,60.0,81,0.00,,---,0.58,VWS V14.01,2013-01-12 05:58:00,
2013-01-11 23:59:00,10.9,6.2,29.59,NNW,335,60.0,60.0,81,0.00,,---,0.58,VWS V14.01,2013-01-12 05:59:00,